<?xml version="1.0" encoding="UTF-8" standalone="no" ?>
<gpx xmlns="http://www.topografix.com/GPX/1/1" xmlns:xsi="http://www.w3.org/2001/XMLSchema-instance" xsi:schemaLocation="http://www.topografix.com/GPX/1/1 http://www.topografix.com/GPX/1/1/gpx.xsd" version="1.1" creator="VisuGPX - https://www.visugpx.com">
  <metadata>
    <name>TRAYAS NOTRE DAME DENT DE L OURS</name>
    <desc><![CDATA[RANDONNE A PARTIR DE LA GARE DU TRAYAS]]></desc>
  </metadata>
  <trk>
    <name><![CDATA[TRAYAS.NOTRE. N.DAME.DENT OURS]]></name>
    <cmt><![CDATA[15/10/2015 Niv. 4]]></cmt>
    <desc><![CDATA[
Type : [nouvelles]]]></desc>
    <trkseg>
      <trkpt lat="43.47474" lon="6.92471">
        <ele>17</ele>
        <time>2015-10-15T12:17:39Z</time>
      </trkpt>
      <trkpt lat="43.47474" lon="6.92471">
        <ele>17</ele>
        <time>2015-10-15T12:17:40Z</time>
      </trkpt>
      <trkpt lat="43.47477" lon="6.92467">
        <ele>18</ele>
        <time>2015-10-15T12:17:45Z</time>
      </trkpt>
      <trkpt lat="43.47483" lon="6.92465">
        <ele>24</ele>
        <time>2015-10-15T12:17:49Z</time>
      </trkpt>
      <trkpt lat="43.47489" lon="6.92462">
        <ele>26</ele>
        <time>2015-10-15T12:17:54Z</time>
      </trkpt>
      <trkpt lat="43.4749" lon="6.92459">
        <ele>25</ele>
        <time>2015-10-15T12:17:56Z</time>
      </trkpt>
      <trkpt lat="43.4749" lon="6.92457">
        <ele>25</ele>
        <time>2015-10-15T12:17:58Z</time>
      </trkpt>
      <trkpt lat="43.4749" lon="6.92454">
        <ele>25</ele>
        <time>2015-10-15T12:18:00Z</time>
      </trkpt>
      <trkpt lat="43.47484" lon="6.92437">
        <ele>23</ele>
        <time>2015-10-15T12:18:11Z</time>
      </trkpt>
      <trkpt lat="43.47484" lon="6.92433">
        <ele>21</ele>
        <time>2015-10-15T12:18:34Z</time>
      </trkpt>
      <trkpt lat="43.47483" lon="6.92432">
        <ele>21</ele>
        <time>2015-10-15T12:18:35Z</time>
      </trkpt>
      <trkpt lat="43.47485" lon="6.92428">
        <ele>21</ele>
        <time>2015-10-15T12:18:37Z</time>
      </trkpt>
      <trkpt lat="43.47483" lon="6.92427">
        <ele>22</ele>
        <time>2015-10-15T12:18:39Z</time>
      </trkpt>
      <trkpt lat="43.47482" lon="6.92425">
        <ele>23</ele>
        <time>2015-10-15T12:18:41Z</time>
      </trkpt>
      <trkpt lat="43.4748" lon="6.92423">
        <ele>25</ele>
        <time>2015-10-15T12:18:42Z</time>
      </trkpt>
      <trkpt lat="43.47478" lon="6.92417">
        <ele>27</ele>
        <time>2015-10-15T12:18:47Z</time>
      </trkpt>
      <trkpt lat="43.47465" lon="6.92403">
        <ele>29</ele>
        <time>2015-10-15T12:18:59Z</time>
      </trkpt>
      <trkpt lat="43.47464" lon="6.92401">
        <ele>28</ele>
        <time>2015-10-15T12:19:01Z</time>
      </trkpt>
      <trkpt lat="43.47464" lon="6.92397">
        <ele>28</ele>
        <time>2015-10-15T12:19:03Z</time>
      </trkpt>
      <trkpt lat="43.47456" lon="6.92372">
        <ele>28</ele>
        <time>2015-10-15T12:19:18Z</time>
      </trkpt>
      <trkpt lat="43.47454" lon="6.92367">
        <ele>30</ele>
        <time>2015-10-15T12:19:21Z</time>
      </trkpt>
      <trkpt lat="43.47437" lon="6.92324">
        <ele>29</ele>
        <time>2015-10-15T12:19:47Z</time>
      </trkpt>
      <trkpt lat="43.47437" lon="6.92321">
        <ele>30</ele>
        <time>2015-10-15T12:19:49Z</time>
      </trkpt>
      <trkpt lat="43.47436" lon="6.92319">
        <ele>30</ele>
        <time>2015-10-15T12:19:50Z</time>
      </trkpt>
      <trkpt lat="43.47435" lon="6.92317">
        <ele>30</ele>
        <time>2015-10-15T12:19:52Z</time>
      </trkpt>
      <trkpt lat="43.47424" lon="6.92275">
        <ele>34</ele>
        <time>2015-10-15T12:20:23Z</time>
      </trkpt>
      <trkpt lat="43.47423" lon="6.92274">
        <ele>35</ele>
        <time>2015-10-15T12:20:24Z</time>
      </trkpt>
      <trkpt lat="43.47421" lon="6.92273">
        <ele>35</ele>
        <time>2015-10-15T12:20:25Z</time>
      </trkpt>
      <trkpt lat="43.47419" lon="6.92272">
        <ele>35</ele>
        <time>2015-10-15T12:20:26Z</time>
      </trkpt>
      <trkpt lat="43.47419" lon="6.92269">
        <ele>35</ele>
        <time>2015-10-15T12:20:28Z</time>
      </trkpt>
      <trkpt lat="43.47417" lon="6.92267">
        <ele>34</ele>
        <time>2015-10-15T12:20:29Z</time>
      </trkpt>
      <trkpt lat="43.47415" lon="6.92266">
        <ele>33</ele>
        <time>2015-10-15T12:20:30Z</time>
      </trkpt>
      <trkpt lat="43.47415" lon="6.92263">
        <ele>36</ele>
        <time>2015-10-15T12:20:35Z</time>
      </trkpt>
      <trkpt lat="43.47413" lon="6.92261">
        <ele>36</ele>
        <time>2015-10-15T12:20:37Z</time>
      </trkpt>
      <trkpt lat="43.47408" lon="6.92233">
        <ele>38</ele>
        <time>2015-10-15T12:20:56Z</time>
      </trkpt>
      <trkpt lat="43.4741" lon="6.9223">
        <ele>38</ele>
        <time>2015-10-15T12:20:59Z</time>
      </trkpt>
      <trkpt lat="43.4741" lon="6.92225">
        <ele>39</ele>
        <time>2015-10-15T12:21:03Z</time>
      </trkpt>
      <trkpt lat="43.4741" lon="6.92222">
        <ele>40</ele>
        <time>2015-10-15T12:21:05Z</time>
      </trkpt>
      <trkpt lat="43.47411" lon="6.9222">
        <ele>41</ele>
        <time>2015-10-15T12:21:08Z</time>
      </trkpt>
      <trkpt lat="43.47411" lon="6.92212">
        <ele>47</ele>
        <time>2015-10-15T12:21:13Z</time>
      </trkpt>
      <trkpt lat="43.4741" lon="6.92208">
        <ele>49</ele>
        <time>2015-10-15T12:21:16Z</time>
      </trkpt>
      <trkpt lat="43.47409" lon="6.92206">
        <ele>49</ele>
        <time>2015-10-15T12:21:17Z</time>
      </trkpt>
      <trkpt lat="43.47408" lon="6.92204">
        <ele>49</ele>
        <time>2015-10-15T12:21:19Z</time>
      </trkpt>
      <trkpt lat="43.47407" lon="6.92202">
        <ele>49</ele>
        <time>2015-10-15T12:21:20Z</time>
      </trkpt>
      <trkpt lat="43.47406" lon="6.922">
        <ele>48</ele>
        <time>2015-10-15T12:21:21Z</time>
      </trkpt>
      <trkpt lat="43.47406" lon="6.92198">
        <ele>48</ele>
        <time>2015-10-15T12:21:23Z</time>
      </trkpt>
      <trkpt lat="43.47406" lon="6.92196">
        <ele>47</ele>
        <time>2015-10-15T12:21:25Z</time>
      </trkpt>
      <trkpt lat="43.47399" lon="6.92185">
        <ele>43</ele>
        <time>2015-10-15T12:21:33Z</time>
      </trkpt>
      <trkpt lat="43.47391" lon="6.92182">
        <ele>41</ele>
        <time>2015-10-15T12:21:43Z</time>
      </trkpt>
      <trkpt lat="43.47387" lon="6.92183">
        <ele>42</ele>
        <time>2015-10-15T12:21:47Z</time>
      </trkpt>
      <trkpt lat="43.47384" lon="6.92184">
        <ele>43</ele>
        <time>2015-10-15T12:21:49Z</time>
      </trkpt>
      <trkpt lat="43.47382" lon="6.92183">
        <ele>43</ele>
        <time>2015-10-15T12:21:51Z</time>
      </trkpt>
      <trkpt lat="43.47379" lon="6.92183">
        <ele>43</ele>
        <time>2015-10-15T12:21:53Z</time>
      </trkpt>
      <trkpt lat="43.47376" lon="6.92182">
        <ele>44</ele>
        <time>2015-10-15T12:22:00Z</time>
      </trkpt>
      <trkpt lat="43.47375" lon="6.92183">
        <ele>44</ele>
        <time>2015-10-15T12:22:02Z</time>
      </trkpt>
      <trkpt lat="43.47367" lon="6.92187">
        <ele>46</ele>
        <time>2015-10-15T12:22:05Z</time>
      </trkpt>
      <trkpt lat="43.47365" lon="6.92187">
        <ele>47</ele>
        <time>2015-10-15T12:22:06Z</time>
      </trkpt>
      <trkpt lat="43.47351" lon="6.92192">
        <ele>46</ele>
        <time>2015-10-15T12:22:14Z</time>
      </trkpt>
      <trkpt lat="43.47349" lon="6.92189">
        <ele>45</ele>
        <time>2015-10-15T12:22:16Z</time>
      </trkpt>
      <trkpt lat="43.47347" lon="6.92189">
        <ele>45</ele>
        <time>2015-10-15T12:22:18Z</time>
      </trkpt>
      <trkpt lat="43.47315" lon="6.92178">
        <ele>52</ele>
        <time>2015-10-15T12:22:48Z</time>
      </trkpt>
      <trkpt lat="43.47306" lon="6.92176">
        <ele>50</ele>
        <time>2015-10-15T12:22:54Z</time>
      </trkpt>
      <trkpt lat="43.47302" lon="6.92177">
        <ele>47</ele>
        <time>2015-10-15T12:23:02Z</time>
      </trkpt>
      <trkpt lat="43.47296" lon="6.92169">
        <ele>47</ele>
        <time>2015-10-15T12:23:13Z</time>
      </trkpt>
      <trkpt lat="43.47294" lon="6.92168">
        <ele>47</ele>
        <time>2015-10-15T12:23:15Z</time>
      </trkpt>
      <trkpt lat="43.47293" lon="6.92166">
        <ele>48</ele>
        <time>2015-10-15T12:23:18Z</time>
      </trkpt>
      <trkpt lat="43.47291" lon="6.92165">
        <ele>48</ele>
        <time>2015-10-15T12:23:19Z</time>
      </trkpt>
      <trkpt lat="43.4729" lon="6.92164">
        <ele>49</ele>
        <time>2015-10-15T12:23:21Z</time>
      </trkpt>
      <trkpt lat="43.4728" lon="6.92142">
        <ele>53</ele>
        <time>2015-10-15T12:23:40Z</time>
      </trkpt>
      <trkpt lat="43.47279" lon="6.92137">
        <ele>56</ele>
        <time>2015-10-15T12:23:45Z</time>
      </trkpt>
      <trkpt lat="43.47279" lon="6.92134">
        <ele>57</ele>
        <time>2015-10-15T12:23:46Z</time>
      </trkpt>
      <trkpt lat="43.47278" lon="6.92132">
        <ele>57</ele>
        <time>2015-10-15T12:23:49Z</time>
      </trkpt>
      <trkpt lat="43.47277" lon="6.92124">
        <ele>58</ele>
        <time>2015-10-15T12:23:53Z</time>
      </trkpt>
      <trkpt lat="43.47273" lon="6.92119">
        <ele>57</ele>
        <time>2015-10-15T12:23:57Z</time>
      </trkpt>
      <trkpt lat="43.47275" lon="6.92117">
        <ele>57</ele>
        <time>2015-10-15T12:23:58Z</time>
      </trkpt>
      <trkpt lat="43.47276" lon="6.92114">
        <ele>58</ele>
        <time>2015-10-15T12:24:04Z</time>
      </trkpt>
      <trkpt lat="43.47277" lon="6.92109">
        <ele>59</ele>
        <time>2015-10-15T12:24:07Z</time>
      </trkpt>
      <trkpt lat="43.47277" lon="6.92107">
        <ele>60</ele>
        <time>2015-10-15T12:24:09Z</time>
      </trkpt>
      <trkpt lat="43.47277" lon="6.92102">
        <ele>60</ele>
        <time>2015-10-15T12:24:15Z</time>
      </trkpt>
      <trkpt lat="43.47276" lon="6.921">
        <ele>60</ele>
        <time>2015-10-15T12:24:17Z</time>
      </trkpt>
      <trkpt lat="43.47277" lon="6.92095">
        <ele>59</ele>
        <time>2015-10-15T12:24:20Z</time>
      </trkpt>
      <trkpt lat="43.47278" lon="6.92094">
        <ele>59</ele>
        <time>2015-10-15T12:24:24Z</time>
      </trkpt>
      <trkpt lat="43.47277" lon="6.9209">
        <ele>60</ele>
        <time>2015-10-15T12:24:27Z</time>
      </trkpt>
      <trkpt lat="43.47278" lon="6.92088">
        <ele>59</ele>
        <time>2015-10-15T12:24:28Z</time>
      </trkpt>
      <trkpt lat="43.4728" lon="6.9208">
        <ele>60</ele>
        <time>2015-10-15T12:24:33Z</time>
      </trkpt>
      <trkpt lat="43.47278" lon="6.92077">
        <ele>60</ele>
        <time>2015-10-15T12:24:35Z</time>
      </trkpt>
      <trkpt lat="43.47279" lon="6.92073">
        <ele>61</ele>
        <time>2015-10-15T12:24:38Z</time>
      </trkpt>
      <trkpt lat="43.47278" lon="6.9207">
        <ele>63</ele>
        <time>2015-10-15T12:24:40Z</time>
      </trkpt>
      <trkpt lat="43.47279" lon="6.92068">
        <ele>63</ele>
        <time>2015-10-15T12:24:42Z</time>
      </trkpt>
      <trkpt lat="43.47278" lon="6.92065">
        <ele>62</ele>
        <time>2015-10-15T12:24:44Z</time>
      </trkpt>
      <trkpt lat="43.4728" lon="6.92062">
        <ele>62</ele>
        <time>2015-10-15T12:24:46Z</time>
      </trkpt>
      <trkpt lat="43.47282" lon="6.9206">
        <ele>64</ele>
        <time>2015-10-15T12:24:49Z</time>
      </trkpt>
      <trkpt lat="43.47277" lon="6.92056">
        <ele>64</ele>
        <time>2015-10-15T12:24:50Z</time>
      </trkpt>
      <trkpt lat="43.47278" lon="6.92053">
        <ele>63</ele>
        <time>2015-10-15T12:24:52Z</time>
      </trkpt>
      <trkpt lat="43.4728" lon="6.92052">
        <ele>63</ele>
        <time>2015-10-15T12:24:55Z</time>
      </trkpt>
      <trkpt lat="43.47282" lon="6.92048">
        <ele>64</ele>
        <time>2015-10-15T12:24:59Z</time>
      </trkpt>
      <trkpt lat="43.47285" lon="6.92047">
        <ele>65</ele>
        <time>2015-10-15T12:25:01Z</time>
      </trkpt>
      <trkpt lat="43.47286" lon="6.92044">
        <ele>67</ele>
        <time>2015-10-15T12:25:03Z</time>
      </trkpt>
      <trkpt lat="43.47287" lon="6.92038">
        <ele>67</ele>
        <time>2015-10-15T12:25:07Z</time>
      </trkpt>
      <trkpt lat="43.47286" lon="6.92036">
        <ele>67</ele>
        <time>2015-10-15T12:25:09Z</time>
      </trkpt>
      <trkpt lat="43.47289" lon="6.92033">
        <ele>68</ele>
        <time>2015-10-15T12:25:11Z</time>
      </trkpt>
      <trkpt lat="43.47288" lon="6.92027">
        <ele>67</ele>
        <time>2015-10-15T12:25:17Z</time>
      </trkpt>
      <trkpt lat="43.4729" lon="6.92025">
        <ele>67</ele>
        <time>2015-10-15T12:25:20Z</time>
      </trkpt>
      <trkpt lat="43.47291" lon="6.92022">
        <ele>67</ele>
        <time>2015-10-15T12:25:23Z</time>
      </trkpt>
      <trkpt lat="43.47291" lon="6.92019">
        <ele>67</ele>
        <time>2015-10-15T12:25:25Z</time>
      </trkpt>
      <trkpt lat="43.47293" lon="6.92013">
        <ele>69</ele>
        <time>2015-10-15T12:25:29Z</time>
      </trkpt>
      <trkpt lat="43.47294" lon="6.92009">
        <ele>71</ele>
        <time>2015-10-15T12:25:32Z</time>
      </trkpt>
      <trkpt lat="43.47294" lon="6.92005">
        <ele>72</ele>
        <time>2015-10-15T12:25:37Z</time>
      </trkpt>
      <trkpt lat="43.47295" lon="6.92002">
        <ele>72</ele>
        <time>2015-10-15T12:25:38Z</time>
      </trkpt>
      <trkpt lat="43.47294" lon="6.92">
        <ele>71</ele>
        <time>2015-10-15T12:25:39Z</time>
      </trkpt>
      <trkpt lat="43.47296" lon="6.91994">
        <ele>72</ele>
        <time>2015-10-15T12:25:47Z</time>
      </trkpt>
      <trkpt lat="43.47298" lon="6.91991">
        <ele>75</ele>
        <time>2015-10-15T12:25:51Z</time>
      </trkpt>
      <trkpt lat="43.473" lon="6.9199">
        <ele>75</ele>
        <time>2015-10-15T12:25:56Z</time>
      </trkpt>
      <trkpt lat="43.47301" lon="6.91986">
        <ele>75</ele>
        <time>2015-10-15T12:25:58Z</time>
      </trkpt>
      <trkpt lat="43.47301" lon="6.91985">
        <ele>74</ele>
        <time>2015-10-15T12:26:00Z</time>
      </trkpt>
      <trkpt lat="43.47301" lon="6.91978">
        <ele>72</ele>
        <time>2015-10-15T12:26:11Z</time>
      </trkpt>
      <trkpt lat="43.473" lon="6.91976">
        <ele>73</ele>
        <time>2015-10-15T12:26:12Z</time>
      </trkpt>
      <trkpt lat="43.47298" lon="6.91965">
        <ele>76</ele>
        <time>2015-10-15T12:26:18Z</time>
      </trkpt>
      <trkpt lat="43.47274" lon="6.91947">
        <ele>80</ele>
        <time>2015-10-15T12:26:47Z</time>
      </trkpt>
      <trkpt lat="43.4727" lon="6.91947">
        <ele>80</ele>
        <time>2015-10-15T12:26:51Z</time>
      </trkpt>
      <trkpt lat="43.4727" lon="6.91943">
        <ele>81</ele>
        <time>2015-10-15T12:26:55Z</time>
      </trkpt>
      <trkpt lat="43.4727" lon="6.9194">
        <ele>84</ele>
        <time>2015-10-15T12:26:57Z</time>
      </trkpt>
      <trkpt lat="43.47269" lon="6.91939">
        <ele>85</ele>
        <time>2015-10-15T12:26:58Z</time>
      </trkpt>
      <trkpt lat="43.47268" lon="6.91938">
        <ele>86</ele>
        <time>2015-10-15T12:27:00Z</time>
      </trkpt>
      <trkpt lat="43.47262" lon="6.91931">
        <ele>86</ele>
        <time>2015-10-15T12:27:08Z</time>
      </trkpt>
      <trkpt lat="43.4726" lon="6.91928">
        <ele>88</ele>
        <time>2015-10-15T12:27:32Z</time>
      </trkpt>
      <trkpt lat="43.47258" lon="6.91923">
        <ele>88</ele>
        <time>2015-10-15T12:27:41Z</time>
      </trkpt>
      <trkpt lat="43.47255" lon="6.91919">
        <ele>91</ele>
        <time>2015-10-15T12:27:45Z</time>
      </trkpt>
      <trkpt lat="43.47254" lon="6.91917">
        <ele>91</ele>
        <time>2015-10-15T12:27:49Z</time>
      </trkpt>
      <trkpt lat="43.47254" lon="6.91912">
        <ele>92</ele>
        <time>2015-10-15T12:27:53Z</time>
      </trkpt>
      <trkpt lat="43.47253" lon="6.91911">
        <ele>92</ele>
        <time>2015-10-15T12:27:54Z</time>
      </trkpt>
      <trkpt lat="43.47252" lon="6.91907">
        <ele>92</ele>
        <time>2015-10-15T12:27:57Z</time>
      </trkpt>
      <trkpt lat="43.47252" lon="6.91902">
        <ele>92</ele>
        <time>2015-10-15T12:28:01Z</time>
      </trkpt>
      <trkpt lat="43.47251" lon="6.91891">
        <ele>96</ele>
        <time>2015-10-15T12:28:10Z</time>
      </trkpt>
      <trkpt lat="43.47251" lon="6.91887">
        <ele>98</ele>
        <time>2015-10-15T12:28:12Z</time>
      </trkpt>
      <trkpt lat="43.47252" lon="6.91885">
        <ele>99</ele>
        <time>2015-10-15T12:28:14Z</time>
      </trkpt>
      <trkpt lat="43.4725" lon="6.91876">
        <ele>101</ele>
        <time>2015-10-15T12:28:19Z</time>
      </trkpt>
      <trkpt lat="43.4725" lon="6.91874">
        <ele>101</ele>
        <time>2015-10-15T12:28:21Z</time>
      </trkpt>
      <trkpt lat="43.4725" lon="6.9187">
        <ele>101</ele>
        <time>2015-10-15T12:28:23Z</time>
      </trkpt>
      <trkpt lat="43.47249" lon="6.91869">
        <ele>99</ele>
        <time>2015-10-15T12:28:25Z</time>
      </trkpt>
      <trkpt lat="43.47248" lon="6.91866">
        <ele>98</ele>
        <time>2015-10-15T12:28:27Z</time>
      </trkpt>
      <trkpt lat="43.47248" lon="6.91863">
        <ele>97</ele>
        <time>2015-10-15T12:28:30Z</time>
      </trkpt>
      <trkpt lat="43.47247" lon="6.91862">
        <ele>97</ele>
        <time>2015-10-15T12:28:32Z</time>
      </trkpt>
      <trkpt lat="43.47246" lon="6.91853">
        <ele>98</ele>
        <time>2015-10-15T12:28:39Z</time>
      </trkpt>
      <trkpt lat="43.47246" lon="6.9185">
        <ele>98</ele>
        <time>2015-10-15T12:28:40Z</time>
      </trkpt>
      <trkpt lat="43.47245" lon="6.91847">
        <ele>99</ele>
        <time>2015-10-15T12:28:42Z</time>
      </trkpt>
      <trkpt lat="43.47247" lon="6.91839">
        <ele>101</ele>
        <time>2015-10-15T12:29:13Z</time>
      </trkpt>
      <trkpt lat="43.47247" lon="6.91832">
        <ele>102</ele>
        <time>2015-10-15T12:29:18Z</time>
      </trkpt>
      <trkpt lat="43.47253" lon="6.91817">
        <ele>100</ele>
        <time>2015-10-15T12:29:29Z</time>
      </trkpt>
      <trkpt lat="43.47252" lon="6.91814">
        <ele>100</ele>
        <time>2015-10-15T12:29:31Z</time>
      </trkpt>
      <trkpt lat="43.47253" lon="6.91809">
        <ele>100</ele>
        <time>2015-10-15T12:29:34Z</time>
      </trkpt>
      <trkpt lat="43.47254" lon="6.91805">
        <ele>102</ele>
        <time>2015-10-15T12:29:39Z</time>
      </trkpt>
      <trkpt lat="43.47253" lon="6.91801">
        <ele>102</ele>
        <time>2015-10-15T12:29:42Z</time>
      </trkpt>
      <trkpt lat="43.47252" lon="6.91798">
        <ele>102</ele>
        <time>2015-10-15T12:29:44Z</time>
      </trkpt>
      <trkpt lat="43.47251" lon="6.91796">
        <ele>102</ele>
        <time>2015-10-15T12:29:46Z</time>
      </trkpt>
      <trkpt lat="43.47249" lon="6.91792">
        <ele>103</ele>
        <time>2015-10-15T12:29:49Z</time>
      </trkpt>
      <trkpt lat="43.47251" lon="6.91787">
        <ele>105</ele>
        <time>2015-10-15T12:29:52Z</time>
      </trkpt>
      <trkpt lat="43.47248" lon="6.91777">
        <ele>104</ele>
        <time>2015-10-15T12:30:00Z</time>
      </trkpt>
      <trkpt lat="43.47248" lon="6.91775">
        <ele>103</ele>
        <time>2015-10-15T12:30:01Z</time>
      </trkpt>
      <trkpt lat="43.47247" lon="6.91772">
        <ele>105</ele>
        <time>2015-10-15T12:30:04Z</time>
      </trkpt>
      <trkpt lat="43.47247" lon="6.91769">
        <ele>106</ele>
        <time>2015-10-15T12:30:06Z</time>
      </trkpt>
      <trkpt lat="43.47245" lon="6.91768">
        <ele>106</ele>
        <time>2015-10-15T12:30:07Z</time>
      </trkpt>
      <trkpt lat="43.47242" lon="6.91757">
        <ele>106</ele>
        <time>2015-10-15T12:30:15Z</time>
      </trkpt>
      <trkpt lat="43.47243" lon="6.91752">
        <ele>106</ele>
        <time>2015-10-15T12:30:16Z</time>
      </trkpt>
      <trkpt lat="43.47244" lon="6.91751">
        <ele>105</ele>
        <time>2015-10-15T12:30:17Z</time>
      </trkpt>
      <trkpt lat="43.47241" lon="6.91748">
        <ele>103</ele>
        <time>2015-10-15T12:30:19Z</time>
      </trkpt>
      <trkpt lat="43.47236" lon="6.91752">
        <ele>103</ele>
        <time>2015-10-15T12:30:20Z</time>
      </trkpt>
      <trkpt lat="43.47232" lon="6.91747">
        <ele>103</ele>
        <time>2015-10-15T12:30:24Z</time>
      </trkpt>
      <trkpt lat="43.47231" lon="6.91744">
        <ele>105</ele>
        <time>2015-10-15T12:30:26Z</time>
      </trkpt>
      <trkpt lat="43.47231" lon="6.91742">
        <ele>105</ele>
        <time>2015-10-15T12:30:28Z</time>
      </trkpt>
      <trkpt lat="43.47228" lon="6.91744">
        <ele>105</ele>
        <time>2015-10-15T12:30:31Z</time>
      </trkpt>
      <trkpt lat="43.47226" lon="6.91742">
        <ele>105</ele>
        <time>2015-10-15T12:30:33Z</time>
      </trkpt>
      <trkpt lat="43.47223" lon="6.91741">
        <ele>107</ele>
        <time>2015-10-15T12:30:35Z</time>
      </trkpt>
      <trkpt lat="43.47223" lon="6.91737">
        <ele>108</ele>
        <time>2015-10-15T12:30:37Z</time>
      </trkpt>
      <trkpt lat="43.47221" lon="6.91735">
        <ele>109</ele>
        <time>2015-10-15T12:30:43Z</time>
      </trkpt>
      <trkpt lat="43.47222" lon="6.91732">
        <ele>113</ele>
        <time>2015-10-15T12:30:52Z</time>
      </trkpt>
      <trkpt lat="43.47221" lon="6.9173">
        <ele>114</ele>
        <time>2015-10-15T12:31:06Z</time>
      </trkpt>
      <trkpt lat="43.47223" lon="6.9173">
        <ele>115</ele>
        <time>2015-10-15T12:32:09Z</time>
      </trkpt>
      <trkpt lat="43.47225" lon="6.9173">
        <ele>115</ele>
        <time>2015-10-15T12:32:23Z</time>
      </trkpt>
      <trkpt lat="43.47226" lon="6.91732">
        <ele>115</ele>
        <time>2015-10-15T12:32:25Z</time>
      </trkpt>
      <trkpt lat="43.47237" lon="6.91739">
        <ele>111</ele>
        <time>2015-10-15T12:32:36Z</time>
      </trkpt>
      <trkpt lat="43.47243" lon="6.91739">
        <ele>110</ele>
        <time>2015-10-15T12:32:42Z</time>
      </trkpt>
      <trkpt lat="43.47257" lon="6.91755">
        <ele>107</ele>
        <time>2015-10-15T12:33:00Z</time>
      </trkpt>
      <trkpt lat="43.47258" lon="6.91758">
        <ele>108</ele>
        <time>2015-10-15T12:33:02Z</time>
      </trkpt>
      <trkpt lat="43.47258" lon="6.91763">
        <ele>108</ele>
        <time>2015-10-15T12:33:05Z</time>
      </trkpt>
      <trkpt lat="43.47261" lon="6.91766">
        <ele>110</ele>
        <time>2015-10-15T12:33:08Z</time>
      </trkpt>
      <trkpt lat="43.47264" lon="6.91777">
        <ele>111</ele>
        <time>2015-10-15T12:33:13Z</time>
      </trkpt>
      <trkpt lat="43.47271" lon="6.9178">
        <ele>111</ele>
        <time>2015-10-15T12:33:18Z</time>
      </trkpt>
      <trkpt lat="43.47275" lon="6.9179">
        <ele>114</ele>
        <time>2015-10-15T12:33:25Z</time>
      </trkpt>
      <trkpt lat="43.47275" lon="6.91793">
        <ele>114</ele>
        <time>2015-10-15T12:33:26Z</time>
      </trkpt>
      <trkpt lat="43.47273" lon="6.91798">
        <ele>113</ele>
        <time>2015-10-15T12:33:28Z</time>
      </trkpt>
      <trkpt lat="43.47274" lon="6.91801">
        <ele>114</ele>
        <time>2015-10-15T12:33:31Z</time>
      </trkpt>
      <trkpt lat="43.47288" lon="6.91826">
        <ele>117</ele>
        <time>2015-10-15T12:33:50Z</time>
      </trkpt>
      <trkpt lat="43.47291" lon="6.91824">
        <ele>117</ele>
        <time>2015-10-15T12:33:51Z</time>
      </trkpt>
      <trkpt lat="43.47293" lon="6.9183">
        <ele>117</ele>
        <time>2015-10-15T12:33:54Z</time>
      </trkpt>
      <trkpt lat="43.47292" lon="6.91837">
        <ele>120</ele>
        <time>2015-10-15T12:33:59Z</time>
      </trkpt>
      <trkpt lat="43.47294" lon="6.91838">
        <ele>120</ele>
        <time>2015-10-15T12:34:01Z</time>
      </trkpt>
      <trkpt lat="43.47319" lon="6.91842">
        <ele>123</ele>
        <time>2015-10-15T12:34:30Z</time>
      </trkpt>
      <trkpt lat="43.47319" lon="6.9184">
        <ele>123</ele>
        <time>2015-10-15T12:34:31Z</time>
      </trkpt>
      <trkpt lat="43.4732" lon="6.91839">
        <ele>123</ele>
        <time>2015-10-15T12:34:33Z</time>
      </trkpt>
      <trkpt lat="43.47334" lon="6.91839">
        <ele>123</ele>
        <time>2015-10-15T12:34:46Z</time>
      </trkpt>
      <trkpt lat="43.47341" lon="6.91832">
        <ele>125</ele>
        <time>2015-10-15T12:34:54Z</time>
      </trkpt>
      <trkpt lat="43.4735" lon="6.91833">
        <ele>129</ele>
        <time>2015-10-15T12:35:01Z</time>
      </trkpt>
      <trkpt lat="43.47351" lon="6.9183">
        <ele>131</ele>
        <time>2015-10-15T12:35:04Z</time>
      </trkpt>
      <trkpt lat="43.47355" lon="6.9183">
        <ele>132</ele>
        <time>2015-10-15T12:35:08Z</time>
      </trkpt>
      <trkpt lat="43.47355" lon="6.91827">
        <ele>135</ele>
        <time>2015-10-15T12:35:10Z</time>
      </trkpt>
      <trkpt lat="43.47357" lon="6.91826">
        <ele>135</ele>
        <time>2015-10-15T12:35:11Z</time>
      </trkpt>
      <trkpt lat="43.47359" lon="6.91821">
        <ele>134</ele>
        <time>2015-10-15T12:35:16Z</time>
      </trkpt>
      <trkpt lat="43.47361" lon="6.9182">
        <ele>134</ele>
        <time>2015-10-15T12:35:18Z</time>
      </trkpt>
      <trkpt lat="43.47374" lon="6.91804">
        <ele>133</ele>
        <time>2015-10-15T12:35:31Z</time>
      </trkpt>
      <trkpt lat="43.47376" lon="6.918">
        <ele>134</ele>
        <time>2015-10-15T12:35:35Z</time>
      </trkpt>
      <trkpt lat="43.47382" lon="6.9179">
        <ele>139</ele>
        <time>2015-10-15T12:35:44Z</time>
      </trkpt>
      <trkpt lat="43.47383" lon="6.91786">
        <ele>141</ele>
        <time>2015-10-15T12:35:46Z</time>
      </trkpt>
      <trkpt lat="43.47384" lon="6.91784">
        <ele>141</ele>
        <time>2015-10-15T12:35:49Z</time>
      </trkpt>
      <trkpt lat="43.47386" lon="6.91784">
        <ele>141</ele>
        <time>2015-10-15T12:35:51Z</time>
      </trkpt>
      <trkpt lat="43.47387" lon="6.91781">
        <ele>141</ele>
        <time>2015-10-15T12:35:52Z</time>
      </trkpt>
      <trkpt lat="43.47387" lon="6.91779">
        <ele>141</ele>
        <time>2015-10-15T12:35:53Z</time>
      </trkpt>
      <trkpt lat="43.47391" lon="6.91764">
        <ele>142</ele>
        <time>2015-10-15T12:36:08Z</time>
      </trkpt>
      <trkpt lat="43.47391" lon="6.91766">
        <ele>143</ele>
        <time>2015-10-15T12:36:10Z</time>
      </trkpt>
      <trkpt lat="43.47393" lon="6.91768">
        <ele>144</ele>
        <time>2015-10-15T12:36:58Z</time>
      </trkpt>
      <trkpt lat="43.47404" lon="6.91778">
        <ele>139</ele>
        <time>2015-10-15T12:37:14Z</time>
      </trkpt>
      <trkpt lat="43.47404" lon="6.91781">
        <ele>139</ele>
        <time>2015-10-15T12:37:17Z</time>
      </trkpt>
      <trkpt lat="43.47407" lon="6.91781">
        <ele>138</ele>
        <time>2015-10-15T12:37:19Z</time>
      </trkpt>
      <trkpt lat="43.47407" lon="6.91784">
        <ele>138</ele>
        <time>2015-10-15T12:37:21Z</time>
      </trkpt>
      <trkpt lat="43.47408" lon="6.91789">
        <ele>138</ele>
        <time>2015-10-15T12:37:23Z</time>
      </trkpt>
      <trkpt lat="43.4741" lon="6.91792">
        <ele>138</ele>
        <time>2015-10-15T12:37:25Z</time>
      </trkpt>
      <trkpt lat="43.47411" lon="6.91796">
        <ele>138</ele>
        <time>2015-10-15T12:37:27Z</time>
      </trkpt>
      <trkpt lat="43.47413" lon="6.91797">
        <ele>143</ele>
        <time>2015-10-15T12:37:33Z</time>
      </trkpt>
      <trkpt lat="43.47418" lon="6.918">
        <ele>145</ele>
        <time>2015-10-15T12:37:36Z</time>
      </trkpt>
      <trkpt lat="43.47417" lon="6.91802">
        <ele>145</ele>
        <time>2015-10-15T12:37:37Z</time>
      </trkpt>
      <trkpt lat="43.47422" lon="6.91812">
        <ele>147</ele>
        <time>2015-10-15T12:37:44Z</time>
      </trkpt>
      <trkpt lat="43.47422" lon="6.91816">
        <ele>148</ele>
        <time>2015-10-15T12:37:47Z</time>
      </trkpt>
      <trkpt lat="43.47428" lon="6.91825">
        <ele>149</ele>
        <time>2015-10-15T12:37:56Z</time>
      </trkpt>
      <trkpt lat="43.47438" lon="6.91831">
        <ele>149</ele>
        <time>2015-10-15T12:38:04Z</time>
      </trkpt>
      <trkpt lat="43.47439" lon="6.91834">
        <ele>150</ele>
        <time>2015-10-15T12:38:06Z</time>
      </trkpt>
      <trkpt lat="43.47439" lon="6.91836">
        <ele>151</ele>
        <time>2015-10-15T12:38:10Z</time>
      </trkpt>
      <trkpt lat="43.4744" lon="6.91839">
        <ele>152</ele>
        <time>2015-10-15T12:38:11Z</time>
      </trkpt>
      <trkpt lat="43.47449" lon="6.91844">
        <ele>154</ele>
        <time>2015-10-15T12:38:20Z</time>
      </trkpt>
      <trkpt lat="43.47451" lon="6.91851">
        <ele>153</ele>
        <time>2015-10-15T12:38:27Z</time>
      </trkpt>
      <trkpt lat="43.47453" lon="6.91852">
        <ele>154</ele>
        <time>2015-10-15T12:38:29Z</time>
      </trkpt>
      <trkpt lat="43.47456" lon="6.91856">
        <ele>155</ele>
        <time>2015-10-15T12:38:32Z</time>
      </trkpt>
      <trkpt lat="43.47458" lon="6.91856">
        <ele>155</ele>
        <time>2015-10-15T12:38:34Z</time>
      </trkpt>
      <trkpt lat="43.47469" lon="6.91859">
        <ele>160</ele>
        <time>2015-10-15T12:38:44Z</time>
      </trkpt>
      <trkpt lat="43.47473" lon="6.91856">
        <ele>161</ele>
        <time>2015-10-15T12:38:46Z</time>
      </trkpt>
      <trkpt lat="43.47476" lon="6.91857">
        <ele>162</ele>
        <time>2015-10-15T12:38:52Z</time>
      </trkpt>
      <trkpt lat="43.47477" lon="6.9186">
        <ele>162</ele>
        <time>2015-10-15T12:38:54Z</time>
      </trkpt>
      <trkpt lat="43.47484" lon="6.91865">
        <ele>165</ele>
        <time>2015-10-15T12:39:05Z</time>
      </trkpt>
      <trkpt lat="43.47489" lon="6.91861">
        <ele>165</ele>
        <time>2015-10-15T12:39:09Z</time>
      </trkpt>
      <trkpt lat="43.47491" lon="6.91861">
        <ele>164</ele>
        <time>2015-10-15T12:39:12Z</time>
      </trkpt>
      <trkpt lat="43.47495" lon="6.91857">
        <ele>166</ele>
        <time>2015-10-15T12:39:16Z</time>
      </trkpt>
      <trkpt lat="43.47497" lon="6.91859">
        <ele>166</ele>
        <time>2015-10-15T12:39:17Z</time>
      </trkpt>
      <trkpt lat="43.47499" lon="6.91858">
        <ele>166</ele>
        <time>2015-10-15T12:39:19Z</time>
      </trkpt>
      <trkpt lat="43.47499" lon="6.91856">
        <ele>165</ele>
        <time>2015-10-15T12:39:20Z</time>
      </trkpt>
      <trkpt lat="43.47503" lon="6.91851">
        <ele>166</ele>
        <time>2015-10-15T12:39:24Z</time>
      </trkpt>
      <trkpt lat="43.47504" lon="6.91849">
        <ele>165</ele>
        <time>2015-10-15T12:40:52Z</time>
      </trkpt>
      <trkpt lat="43.47506" lon="6.91848">
        <ele>165</ele>
        <time>2015-10-15T12:40:54Z</time>
      </trkpt>
      <trkpt lat="43.47508" lon="6.91847">
        <ele>168</ele>
        <time>2015-10-15T12:40:56Z</time>
      </trkpt>
      <trkpt lat="43.47509" lon="6.91843">
        <ele>169</ele>
        <time>2015-10-15T12:40:58Z</time>
      </trkpt>
      <trkpt lat="43.47512" lon="6.9184">
        <ele>170</ele>
        <time>2015-10-15T12:41:02Z</time>
      </trkpt>
      <trkpt lat="43.47514" lon="6.91836">
        <ele>171</ele>
        <time>2015-10-15T12:41:07Z</time>
      </trkpt>
      <trkpt lat="43.47517" lon="6.91833">
        <ele>173</ele>
        <time>2015-10-15T12:41:11Z</time>
      </trkpt>
      <trkpt lat="43.47537" lon="6.91803">
        <ele>181</ele>
        <time>2015-10-15T12:41:42Z</time>
      </trkpt>
      <trkpt lat="43.47538" lon="6.91802">
        <ele>182</ele>
        <time>2015-10-15T12:41:44Z</time>
      </trkpt>
      <trkpt lat="43.4754" lon="6.91801">
        <ele>183</ele>
        <time>2015-10-15T12:41:45Z</time>
      </trkpt>
      <trkpt lat="43.47556" lon="6.91776">
        <ele>190</ele>
        <time>2015-10-15T12:42:12Z</time>
      </trkpt>
      <trkpt lat="43.47555" lon="6.91773">
        <ele>188</ele>
        <time>2015-10-15T12:42:16Z</time>
      </trkpt>
      <trkpt lat="43.47556" lon="6.91768">
        <ele>187</ele>
        <time>2015-10-15T12:42:17Z</time>
      </trkpt>
      <trkpt lat="43.47564" lon="6.91758">
        <ele>189</ele>
        <time>2015-10-15T12:42:28Z</time>
      </trkpt>
      <trkpt lat="43.47562" lon="6.91756">
        <ele>189</ele>
        <time>2015-10-15T12:42:30Z</time>
      </trkpt>
      <trkpt lat="43.47564" lon="6.91753">
        <ele>189</ele>
        <time>2015-10-15T12:42:32Z</time>
      </trkpt>
      <trkpt lat="43.47563" lon="6.9175">
        <ele>188</ele>
        <time>2015-10-15T12:42:34Z</time>
      </trkpt>
      <trkpt lat="43.47564" lon="6.91748">
        <ele>187</ele>
        <time>2015-10-15T12:42:35Z</time>
      </trkpt>
      <trkpt lat="43.47566" lon="6.91745">
        <ele>187</ele>
        <time>2015-10-15T12:42:39Z</time>
      </trkpt>
      <trkpt lat="43.4757" lon="6.91732">
        <ele>186</ele>
        <time>2015-10-15T12:42:47Z</time>
      </trkpt>
      <trkpt lat="43.47572" lon="6.91731">
        <ele>188</ele>
        <time>2015-10-15T12:42:49Z</time>
      </trkpt>
      <trkpt lat="43.47575" lon="6.91716">
        <ele>188</ele>
        <time>2015-10-15T12:43:00Z</time>
      </trkpt>
      <trkpt lat="43.47577" lon="6.91711">
        <ele>190</ele>
        <time>2015-10-15T12:43:07Z</time>
      </trkpt>
      <trkpt lat="43.4758" lon="6.91709">
        <ele>194</ele>
        <time>2015-10-15T12:43:12Z</time>
      </trkpt>
      <trkpt lat="43.47578" lon="6.91705">
        <ele>194</ele>
        <time>2015-10-15T12:43:15Z</time>
      </trkpt>
      <trkpt lat="43.47581" lon="6.91703">
        <ele>195</ele>
        <time>2015-10-15T12:43:19Z</time>
      </trkpt>
      <trkpt lat="43.47581" lon="6.917">
        <ele>195</ele>
        <time>2015-10-15T12:43:25Z</time>
      </trkpt>
      <trkpt lat="43.4759" lon="6.91678">
        <ele>194</ele>
        <time>2015-10-15T12:43:42Z</time>
      </trkpt>
      <trkpt lat="43.47589" lon="6.91675">
        <ele>196</ele>
        <time>2015-10-15T12:43:46Z</time>
      </trkpt>
      <trkpt lat="43.47589" lon="6.91672">
        <ele>197</ele>
        <time>2015-10-15T12:43:49Z</time>
      </trkpt>
      <trkpt lat="43.47591" lon="6.91668">
        <ele>197</ele>
        <time>2015-10-15T12:43:51Z</time>
      </trkpt>
      <trkpt lat="43.47593" lon="6.91666">
        <ele>199</ele>
        <time>2015-10-15T12:43:53Z</time>
      </trkpt>
      <trkpt lat="43.47593" lon="6.91662">
        <ele>200</ele>
        <time>2015-10-15T12:43:55Z</time>
      </trkpt>
      <trkpt lat="43.47594" lon="6.91659">
        <ele>201</ele>
        <time>2015-10-15T12:43:57Z</time>
      </trkpt>
      <trkpt lat="43.47595" lon="6.91656">
        <ele>204</ele>
        <time>2015-10-15T12:43:59Z</time>
      </trkpt>
      <trkpt lat="43.47596" lon="6.91651">
        <ele>206</ele>
        <time>2015-10-15T12:44:03Z</time>
      </trkpt>
      <trkpt lat="43.47596" lon="6.91648">
        <ele>209</ele>
        <time>2015-10-15T12:44:06Z</time>
      </trkpt>
      <trkpt lat="43.47595" lon="6.91645">
        <ele>208</ele>
        <time>2015-10-15T12:44:08Z</time>
      </trkpt>
      <trkpt lat="43.47594" lon="6.91644">
        <ele>206</ele>
        <time>2015-10-15T12:44:11Z</time>
      </trkpt>
      <trkpt lat="43.47596" lon="6.91634">
        <ele>204</ele>
        <time>2015-10-15T12:44:23Z</time>
      </trkpt>
      <trkpt lat="43.47599" lon="6.91633">
        <ele>208</ele>
        <time>2015-10-15T12:44:31Z</time>
      </trkpt>
      <trkpt lat="43.47599" lon="6.91631">
        <ele>209</ele>
        <time>2015-10-15T12:44:58Z</time>
      </trkpt>
      <trkpt lat="43.47598" lon="6.91625">
        <ele>210</ele>
        <time>2015-10-15T12:45:05Z</time>
      </trkpt>
      <trkpt lat="43.476" lon="6.91623">
        <ele>209</ele>
        <time>2015-10-15T12:45:06Z</time>
      </trkpt>
      <trkpt lat="43.47599" lon="6.91617">
        <ele>210</ele>
        <time>2015-10-15T12:45:11Z</time>
      </trkpt>
      <trkpt lat="43.476" lon="6.91614">
        <ele>210</ele>
        <time>2015-10-15T12:45:15Z</time>
      </trkpt>
      <trkpt lat="43.47599" lon="6.9161">
        <ele>211</ele>
        <time>2015-10-15T12:45:17Z</time>
      </trkpt>
      <trkpt lat="43.47597" lon="6.91609">
        <ele>210</ele>
        <time>2015-10-15T12:45:19Z</time>
      </trkpt>
      <trkpt lat="43.47596" lon="6.91605">
        <ele>211</ele>
        <time>2015-10-15T12:45:21Z</time>
      </trkpt>
      <trkpt lat="43.47599" lon="6.91598">
        <ele>211</ele>
        <time>2015-10-15T12:45:27Z</time>
      </trkpt>
      <trkpt lat="43.47596" lon="6.9159">
        <ele>210</ele>
        <time>2015-10-15T12:45:33Z</time>
      </trkpt>
      <trkpt lat="43.476" lon="6.91585">
        <ele>213</ele>
        <time>2015-10-15T12:45:39Z</time>
      </trkpt>
      <trkpt lat="43.47598" lon="6.91583">
        <ele>213</ele>
        <time>2015-10-15T12:45:42Z</time>
      </trkpt>
      <trkpt lat="43.47598" lon="6.91582">
        <ele>213</ele>
        <time>2015-10-15T12:45:46Z</time>
      </trkpt>
      <trkpt lat="43.47615" lon="6.91578">
        <ele>203</ele>
        <time>2015-10-15T12:46:05Z</time>
      </trkpt>
      <trkpt lat="43.47618" lon="6.9158">
        <ele>204</ele>
        <time>2015-10-15T12:46:10Z</time>
      </trkpt>
      <trkpt lat="43.47621" lon="6.91578">
        <ele>204</ele>
        <time>2015-10-15T12:46:15Z</time>
      </trkpt>
      <trkpt lat="43.47622" lon="6.9158">
        <ele>203</ele>
        <time>2015-10-15T12:46:18Z</time>
      </trkpt>
      <trkpt lat="43.47624" lon="6.9158">
        <ele>204</ele>
        <time>2015-10-15T12:46:21Z</time>
      </trkpt>
      <trkpt lat="43.47635" lon="6.91581">
        <ele>209</ele>
        <time>2015-10-15T12:46:33Z</time>
      </trkpt>
      <trkpt lat="43.47643" lon="6.91579">
        <ele>210</ele>
        <time>2015-10-15T12:46:40Z</time>
      </trkpt>
      <trkpt lat="43.47647" lon="6.91583">
        <ele>214</ele>
        <time>2015-10-15T12:46:46Z</time>
      </trkpt>
      <trkpt lat="43.4765" lon="6.91583">
        <ele>215</ele>
        <time>2015-10-15T12:46:50Z</time>
      </trkpt>
      <trkpt lat="43.47652" lon="6.91585">
        <ele>215</ele>
        <time>2015-10-15T12:46:53Z</time>
      </trkpt>
      <trkpt lat="43.47662" lon="6.91583">
        <ele>212</ele>
        <time>2015-10-15T12:47:01Z</time>
      </trkpt>
      <trkpt lat="43.47667" lon="6.91582">
        <ele>210</ele>
        <time>2015-10-15T12:47:06Z</time>
      </trkpt>
      <trkpt lat="43.47674" lon="6.91587">
        <ele>210</ele>
        <time>2015-10-15T12:47:12Z</time>
      </trkpt>
      <trkpt lat="43.47675" lon="6.91592">
        <ele>210</ele>
        <time>2015-10-15T12:47:16Z</time>
      </trkpt>
      <trkpt lat="43.47683" lon="6.9159">
        <ele>209</ele>
        <time>2015-10-15T12:47:22Z</time>
      </trkpt>
      <trkpt lat="43.47691" lon="6.91591">
        <ele>210</ele>
        <time>2015-10-15T12:47:29Z</time>
      </trkpt>
      <trkpt lat="43.47694" lon="6.91588">
        <ele>208</ele>
        <time>2015-10-15T12:47:31Z</time>
      </trkpt>
      <trkpt lat="43.47703" lon="6.91593">
        <ele>207</ele>
        <time>2015-10-15T12:47:40Z</time>
      </trkpt>
      <trkpt lat="43.47703" lon="6.91596">
        <ele>211</ele>
        <time>2015-10-15T12:47:43Z</time>
      </trkpt>
      <trkpt lat="43.47705" lon="6.91599">
        <ele>216</ele>
        <time>2015-10-15T12:48:21Z</time>
      </trkpt>
      <trkpt lat="43.47706" lon="6.91601">
        <ele>216</ele>
        <time>2015-10-15T12:48:23Z</time>
      </trkpt>
      <trkpt lat="43.47716" lon="6.91613">
        <ele>218</ele>
        <time>2015-10-15T12:48:37Z</time>
      </trkpt>
      <trkpt lat="43.4772" lon="6.91614">
        <ele>218</ele>
        <time>2015-10-15T12:48:39Z</time>
      </trkpt>
      <trkpt lat="43.47722" lon="6.91613">
        <ele>219</ele>
        <time>2015-10-15T12:48:42Z</time>
      </trkpt>
      <trkpt lat="43.47728" lon="6.91614">
        <ele>219</ele>
        <time>2015-10-15T12:48:52Z</time>
      </trkpt>
      <trkpt lat="43.47732" lon="6.91617">
        <ele>220</ele>
        <time>2015-10-15T12:48:56Z</time>
      </trkpt>
      <trkpt lat="43.47736" lon="6.91616">
        <ele>221</ele>
        <time>2015-10-15T12:49:00Z</time>
      </trkpt>
      <trkpt lat="43.47738" lon="6.91618">
        <ele>221</ele>
        <time>2015-10-15T12:49:02Z</time>
      </trkpt>
      <trkpt lat="43.47743" lon="6.91619">
        <ele>225</ele>
        <time>2015-10-15T12:49:08Z</time>
      </trkpt>
      <trkpt lat="43.47748" lon="6.91618">
        <ele>229</ele>
        <time>2015-10-15T12:49:12Z</time>
      </trkpt>
      <trkpt lat="43.47753" lon="6.91613">
        <ele>233</ele>
        <time>2015-10-15T12:49:20Z</time>
      </trkpt>
      <trkpt lat="43.47755" lon="6.91612">
        <ele>236</ele>
        <time>2015-10-15T12:49:25Z</time>
      </trkpt>
      <trkpt lat="43.47764" lon="6.91589">
        <ele>239</ele>
        <time>2015-10-15T12:49:45Z</time>
      </trkpt>
      <trkpt lat="43.47766" lon="6.91589">
        <ele>240</ele>
        <time>2015-10-15T12:49:46Z</time>
      </trkpt>
      <trkpt lat="43.4777" lon="6.91585">
        <ele>243</ele>
        <time>2015-10-15T12:49:50Z</time>
      </trkpt>
      <trkpt lat="43.47771" lon="6.91582">
        <ele>246</ele>
        <time>2015-10-15T12:49:53Z</time>
      </trkpt>
      <trkpt lat="43.47772" lon="6.91581">
        <ele>246</ele>
        <time>2015-10-15T12:49:55Z</time>
      </trkpt>
      <trkpt lat="43.47772" lon="6.91578">
        <ele>247</ele>
        <time>2015-10-15T12:49:57Z</time>
      </trkpt>
      <trkpt lat="43.47773" lon="6.91576">
        <ele>246</ele>
        <time>2015-10-15T12:49:59Z</time>
      </trkpt>
      <trkpt lat="43.47773" lon="6.91572">
        <ele>244</ele>
        <time>2015-10-15T12:50:02Z</time>
      </trkpt>
      <trkpt lat="43.47776" lon="6.9157">
        <ele>243</ele>
        <time>2015-10-15T12:50:05Z</time>
      </trkpt>
      <trkpt lat="43.47779" lon="6.91562">
        <ele>245</ele>
        <time>2015-10-15T12:50:12Z</time>
      </trkpt>
      <trkpt lat="43.47778" lon="6.9156">
        <ele>245</ele>
        <time>2015-10-15T12:50:13Z</time>
      </trkpt>
      <trkpt lat="43.47777" lon="6.91558">
        <ele>245</ele>
        <time>2015-10-15T12:50:16Z</time>
      </trkpt>
      <trkpt lat="43.4778" lon="6.91555">
        <ele>245</ele>
        <time>2015-10-15T12:50:18Z</time>
      </trkpt>
      <trkpt lat="43.47781" lon="6.91549">
        <ele>246</ele>
        <time>2015-10-15T12:50:24Z</time>
      </trkpt>
      <trkpt lat="43.47781" lon="6.91546">
        <ele>246</ele>
        <time>2015-10-15T12:50:27Z</time>
      </trkpt>
      <trkpt lat="43.47782" lon="6.91544">
        <ele>246</ele>
        <time>2015-10-15T12:50:29Z</time>
      </trkpt>
      <trkpt lat="43.47783" lon="6.91541">
        <ele>246</ele>
        <time>2015-10-15T12:50:31Z</time>
      </trkpt>
      <trkpt lat="43.47784" lon="6.9154">
        <ele>247</ele>
        <time>2015-10-15T12:50:33Z</time>
      </trkpt>
      <trkpt lat="43.47786" lon="6.91538">
        <ele>248</ele>
        <time>2015-10-15T12:50:35Z</time>
      </trkpt>
      <trkpt lat="43.47787" lon="6.91523">
        <ele>252</ele>
        <time>2015-10-15T12:50:47Z</time>
      </trkpt>
      <trkpt lat="43.47789" lon="6.9151">
        <ele>254</ele>
        <time>2015-10-15T12:50:56Z</time>
      </trkpt>
      <trkpt lat="43.47788" lon="6.91508">
        <ele>254</ele>
        <time>2015-10-15T12:50:57Z</time>
      </trkpt>
      <trkpt lat="43.47788" lon="6.91505">
        <ele>254</ele>
        <time>2015-10-15T12:50:59Z</time>
      </trkpt>
      <trkpt lat="43.4779" lon="6.915">
        <ele>255</ele>
        <time>2015-10-15T12:51:03Z</time>
      </trkpt>
      <trkpt lat="43.47788" lon="6.91499">
        <ele>255</ele>
        <time>2015-10-15T12:51:04Z</time>
      </trkpt>
      <trkpt lat="43.47788" lon="6.91496">
        <ele>255</ele>
        <time>2015-10-15T12:51:06Z</time>
      </trkpt>
      <trkpt lat="43.4779" lon="6.91493">
        <ele>257</ele>
        <time>2015-10-15T12:51:09Z</time>
      </trkpt>
      <trkpt lat="43.4779" lon="6.91489">
        <ele>257</ele>
        <time>2015-10-15T12:51:12Z</time>
      </trkpt>
      <trkpt lat="43.4779" lon="6.91486">
        <ele>257</ele>
        <time>2015-10-15T12:51:14Z</time>
      </trkpt>
      <trkpt lat="43.47791" lon="6.91485">
        <ele>257</ele>
        <time>2015-10-15T12:51:18Z</time>
      </trkpt>
      <trkpt lat="43.47792" lon="6.91483">
        <ele>259</ele>
        <time>2015-10-15T12:51:54Z</time>
      </trkpt>
      <trkpt lat="43.47793" lon="6.91481">
        <ele>259</ele>
        <time>2015-10-15T12:52:00Z</time>
      </trkpt>
      <trkpt lat="43.47793" lon="6.91479">
        <ele>261</ele>
        <time>2015-10-15T12:52:01Z</time>
      </trkpt>
      <trkpt lat="43.47792" lon="6.91474">
        <ele>260</ele>
        <time>2015-10-15T12:52:06Z</time>
      </trkpt>
      <trkpt lat="43.47792" lon="6.91459">
        <ele>258</ele>
        <time>2015-10-15T12:52:17Z</time>
      </trkpt>
      <trkpt lat="43.47794" lon="6.91457">
        <ele>259</ele>
        <time>2015-10-15T12:52:19Z</time>
      </trkpt>
      <trkpt lat="43.47793" lon="6.91453">
        <ele>259</ele>
        <time>2015-10-15T12:52:22Z</time>
      </trkpt>
      <trkpt lat="43.47793" lon="6.91451">
        <ele>259</ele>
        <time>2015-10-15T12:52:25Z</time>
      </trkpt>
      <trkpt lat="43.47794" lon="6.91449">
        <ele>260</ele>
        <time>2015-10-15T12:52:28Z</time>
      </trkpt>
      <trkpt lat="43.47794" lon="6.91447">
        <ele>260</ele>
        <time>2015-10-15T12:52:29Z</time>
      </trkpt>
      <trkpt lat="43.47795" lon="6.91444">
        <ele>260</ele>
        <time>2015-10-15T12:52:30Z</time>
      </trkpt>
      <trkpt lat="43.47795" lon="6.91437">
        <ele>260</ele>
        <time>2015-10-15T12:52:36Z</time>
      </trkpt>
      <trkpt lat="43.47796" lon="6.91435">
        <ele>260</ele>
        <time>2015-10-15T12:52:38Z</time>
      </trkpt>
      <trkpt lat="43.47805" lon="6.91405">
        <ele>264</ele>
        <time>2015-10-15T12:53:00Z</time>
      </trkpt>
      <trkpt lat="43.47807" lon="6.91404">
        <ele>264</ele>
        <time>2015-10-15T12:53:02Z</time>
      </trkpt>
      <trkpt lat="43.47811" lon="6.91401">
        <ele>264</ele>
        <time>2015-10-15T12:53:09Z</time>
      </trkpt>
      <trkpt lat="43.47811" lon="6.91398">
        <ele>264</ele>
        <time>2015-10-15T12:53:10Z</time>
      </trkpt>
      <trkpt lat="43.47816" lon="6.91386">
        <ele>266</ele>
        <time>2015-10-15T12:53:24Z</time>
      </trkpt>
      <trkpt lat="43.47816" lon="6.91384">
        <ele>267</ele>
        <time>2015-10-15T12:53:26Z</time>
      </trkpt>
      <trkpt lat="43.4782" lon="6.91382">
        <ele>266</ele>
        <time>2015-10-15T12:53:31Z</time>
      </trkpt>
      <trkpt lat="43.47821" lon="6.91379">
        <ele>266</ele>
        <time>2015-10-15T12:53:33Z</time>
      </trkpt>
      <trkpt lat="43.47822" lon="6.91376">
        <ele>266</ele>
        <time>2015-10-15T12:53:34Z</time>
      </trkpt>
      <trkpt lat="43.47821" lon="6.91374">
        <ele>266</ele>
        <time>2015-10-15T12:53:37Z</time>
      </trkpt>
      <trkpt lat="43.47824" lon="6.91369">
        <ele>264</ele>
        <time>2015-10-15T12:53:40Z</time>
      </trkpt>
      <trkpt lat="43.47826" lon="6.91369">
        <ele>264</ele>
        <time>2015-10-15T12:53:43Z</time>
      </trkpt>
      <trkpt lat="43.47838" lon="6.9134">
        <ele>263</ele>
        <time>2015-10-15T12:54:12Z</time>
      </trkpt>
      <trkpt lat="43.4784" lon="6.9134">
        <ele>264</ele>
        <time>2015-10-15T12:54:13Z</time>
      </trkpt>
      <trkpt lat="43.47845" lon="6.91332">
        <ele>268</ele>
        <time>2015-10-15T12:54:21Z</time>
      </trkpt>
      <trkpt lat="43.47845" lon="6.9133">
        <ele>270</ele>
        <time>2015-10-15T12:54:23Z</time>
      </trkpt>
      <trkpt lat="43.4785" lon="6.91328">
        <ele>272</ele>
        <time>2015-10-15T12:54:28Z</time>
      </trkpt>
      <trkpt lat="43.47855" lon="6.91318">
        <ele>278</ele>
        <time>2015-10-15T12:55:00Z</time>
      </trkpt>
      <trkpt lat="43.47872" lon="6.91287">
        <ele>280</ele>
        <time>2015-10-15T12:55:28Z</time>
      </trkpt>
      <trkpt lat="43.47875" lon="6.91286">
        <ele>280</ele>
        <time>2015-10-15T12:55:33Z</time>
      </trkpt>
      <trkpt lat="43.47875" lon="6.91283">
        <ele>280</ele>
        <time>2015-10-15T12:55:35Z</time>
      </trkpt>
      <trkpt lat="43.47879" lon="6.91274">
        <ele>280</ele>
        <time>2015-10-15T12:55:45Z</time>
      </trkpt>
      <trkpt lat="43.4788" lon="6.91271">
        <ele>280</ele>
        <time>2015-10-15T12:55:49Z</time>
      </trkpt>
      <trkpt lat="43.47894" lon="6.91241">
        <ele>285</ele>
        <time>2015-10-15T12:56:19Z</time>
      </trkpt>
      <trkpt lat="43.47896" lon="6.91243">
        <ele>286</ele>
        <time>2015-10-15T12:56:20Z</time>
      </trkpt>
      <trkpt lat="43.47898" lon="6.91242">
        <ele>290</ele>
        <time>2015-10-15T12:56:23Z</time>
      </trkpt>
      <trkpt lat="43.479" lon="6.91235">
        <ele>292</ele>
        <time>2015-10-15T12:56:28Z</time>
      </trkpt>
      <trkpt lat="43.47902" lon="6.91234">
        <ele>292</ele>
        <time>2015-10-15T12:56:30Z</time>
      </trkpt>
      <trkpt lat="43.47904" lon="6.91233">
        <ele>295</ele>
        <time>2015-10-15T12:56:33Z</time>
      </trkpt>
      <trkpt lat="43.47905" lon="6.91231">
        <ele>295</ele>
        <time>2015-10-15T12:56:35Z</time>
      </trkpt>
      <trkpt lat="43.47906" lon="6.91228">
        <ele>294</ele>
        <time>2015-10-15T12:56:37Z</time>
      </trkpt>
      <trkpt lat="43.47912" lon="6.9122">
        <ele>294</ele>
        <time>2015-10-15T12:56:45Z</time>
      </trkpt>
      <trkpt lat="43.47912" lon="6.91218">
        <ele>294</ele>
        <time>2015-10-15T12:56:47Z</time>
      </trkpt>
      <trkpt lat="43.47919" lon="6.91213">
        <ele>296</ele>
        <time>2015-10-15T12:56:57Z</time>
      </trkpt>
      <trkpt lat="43.47919" lon="6.91209">
        <ele>302</ele>
        <time>2015-10-15T12:57:54Z</time>
      </trkpt>
      <trkpt lat="43.47918" lon="6.91207">
        <ele>302</ele>
        <time>2015-10-15T12:57:59Z</time>
      </trkpt>
      <trkpt lat="43.47918" lon="6.91205">
        <ele>298</ele>
        <time>2015-10-15T12:58:02Z</time>
      </trkpt>
      <trkpt lat="43.47931" lon="6.91198">
        <ele>296</ele>
        <time>2015-10-15T12:58:33Z</time>
      </trkpt>
      <trkpt lat="43.47934" lon="6.91198">
        <ele>296</ele>
        <time>2015-10-15T12:58:35Z</time>
      </trkpt>
      <trkpt lat="43.47937" lon="6.91199">
        <ele>297</ele>
        <time>2015-10-15T12:58:39Z</time>
      </trkpt>
      <trkpt lat="43.47939" lon="6.91197">
        <ele>300</ele>
        <time>2015-10-15T12:58:41Z</time>
      </trkpt>
      <trkpt lat="43.47941" lon="6.91198">
        <ele>302</ele>
        <time>2015-10-15T12:58:44Z</time>
      </trkpt>
      <trkpt lat="43.47943" lon="6.91197">
        <ele>303</ele>
        <time>2015-10-15T12:58:47Z</time>
      </trkpt>
      <trkpt lat="43.47945" lon="6.91198">
        <ele>304</ele>
        <time>2015-10-15T12:58:48Z</time>
      </trkpt>
      <trkpt lat="43.47952" lon="6.91197">
        <ele>304</ele>
        <time>2015-10-15T12:58:58Z</time>
      </trkpt>
      <trkpt lat="43.47958" lon="6.91198">
        <ele>305</ele>
        <time>2015-10-15T12:59:06Z</time>
      </trkpt>
      <trkpt lat="43.47969" lon="6.91195">
        <ele>306</ele>
        <time>2015-10-15T12:59:15Z</time>
      </trkpt>
      <trkpt lat="43.47973" lon="6.91199">
        <ele>309</ele>
        <time>2015-10-15T12:59:20Z</time>
      </trkpt>
      <trkpt lat="43.47975" lon="6.91197">
        <ele>308</ele>
        <time>2015-10-15T12:59:23Z</time>
      </trkpt>
      <trkpt lat="43.47978" lon="6.91198">
        <ele>309</ele>
        <time>2015-10-15T12:59:26Z</time>
      </trkpt>
      <trkpt lat="43.47981" lon="6.91201">
        <ele>310</ele>
        <time>2015-10-15T12:59:32Z</time>
      </trkpt>
      <trkpt lat="43.47984" lon="6.91201">
        <ele>309</ele>
        <time>2015-10-15T12:59:36Z</time>
      </trkpt>
      <trkpt lat="43.47985" lon="6.91203">
        <ele>309</ele>
        <time>2015-10-15T12:59:37Z</time>
      </trkpt>
      <trkpt lat="43.47988" lon="6.91201">
        <ele>308</ele>
        <time>2015-10-15T12:59:40Z</time>
      </trkpt>
      <trkpt lat="43.47998" lon="6.91192">
        <ele>304</ele>
        <time>2015-10-15T12:59:47Z</time>
      </trkpt>
      <trkpt lat="43.48" lon="6.91197">
        <ele>306</ele>
        <time>2015-10-15T12:59:51Z</time>
      </trkpt>
      <trkpt lat="43.48001" lon="6.91196">
        <ele>306</ele>
        <time>2015-10-15T12:59:53Z</time>
      </trkpt>
      <trkpt lat="43.48003" lon="6.91197">
        <ele>307</ele>
        <time>2015-10-15T12:59:56Z</time>
      </trkpt>
      <trkpt lat="43.48005" lon="6.91196">
        <ele>308</ele>
        <time>2015-10-15T12:59:58Z</time>
      </trkpt>
      <trkpt lat="43.48006" lon="6.91194">
        <ele>308</ele>
        <time>2015-10-15T13:00:00Z</time>
      </trkpt>
      <trkpt lat="43.48008" lon="6.91194">
        <ele>308</ele>
        <time>2015-10-15T13:00:01Z</time>
      </trkpt>
      <trkpt lat="43.48009" lon="6.91194">
        <ele>308</ele>
        <time>2015-10-15T13:00:03Z</time>
      </trkpt>
      <trkpt lat="43.4801" lon="6.91196">
        <ele>309</ele>
        <time>2015-10-15T13:00:13Z</time>
      </trkpt>
      <trkpt lat="43.48023" lon="6.9119">
        <ele>314</ele>
        <time>2015-10-15T13:00:44Z</time>
      </trkpt>
      <trkpt lat="43.48025" lon="6.91186">
        <ele>316</ele>
        <time>2015-10-15T13:00:49Z</time>
      </trkpt>
      <trkpt lat="43.48033" lon="6.91185">
        <ele>317</ele>
        <time>2015-10-15T13:00:58Z</time>
      </trkpt>
      <trkpt lat="43.48034" lon="6.91183">
        <ele>319</ele>
        <time>2015-10-15T13:01:09Z</time>
      </trkpt>
      <trkpt lat="43.48046" lon="6.91177">
        <ele>322</ele>
        <time>2015-10-15T13:01:27Z</time>
      </trkpt>
      <trkpt lat="43.48046" lon="6.91175">
        <ele>323</ele>
        <time>2015-10-15T13:01:40Z</time>
      </trkpt>
      <trkpt lat="43.48046" lon="6.91173">
        <ele>324</ele>
        <time>2015-10-15T13:01:45Z</time>
      </trkpt>
      <trkpt lat="43.48042" lon="6.91156">
        <ele>323</ele>
        <time>2015-10-15T13:02:08Z</time>
      </trkpt>
      <trkpt lat="43.4804" lon="6.91156">
        <ele>323</ele>
        <time>2015-10-15T13:02:13Z</time>
      </trkpt>
      <trkpt lat="43.48038" lon="6.91157">
        <ele>323</ele>
        <time>2015-10-15T13:02:15Z</time>
      </trkpt>
      <trkpt lat="43.48034" lon="6.91158">
        <ele>324</ele>
        <time>2015-10-15T13:02:19Z</time>
      </trkpt>
      <trkpt lat="43.48036" lon="6.91158">
        <ele>325</ele>
        <time>2015-10-15T13:06:45Z</time>
      </trkpt>
      <trkpt lat="43.48034" lon="6.91156">
        <ele>325</ele>
        <time>2015-10-15T13:08:10Z</time>
      </trkpt>
      <trkpt lat="43.48033" lon="6.91154">
        <ele>325</ele>
        <time>2015-10-15T13:08:18Z</time>
      </trkpt>
      <trkpt lat="43.48031" lon="6.91151">
        <ele>325</ele>
        <time>2015-10-15T13:08:20Z</time>
      </trkpt>
      <trkpt lat="43.4803" lon="6.91149">
        <ele>325</ele>
        <time>2015-10-15T13:08:22Z</time>
      </trkpt>
      <trkpt lat="43.48028" lon="6.91149">
        <ele>325</ele>
        <time>2015-10-15T13:08:24Z</time>
      </trkpt>
      <trkpt lat="43.48026" lon="6.91147">
        <ele>325</ele>
        <time>2015-10-15T13:08:27Z</time>
      </trkpt>
      <trkpt lat="43.48025" lon="6.91146">
        <ele>325</ele>
        <time>2015-10-15T13:08:28Z</time>
      </trkpt>
      <trkpt lat="43.48023" lon="6.91145">
        <ele>324</ele>
        <time>2015-10-15T13:08:29Z</time>
      </trkpt>
      <trkpt lat="43.4802" lon="6.9114">
        <ele>322</ele>
        <time>2015-10-15T13:08:33Z</time>
      </trkpt>
      <trkpt lat="43.48019" lon="6.91139">
        <ele>322</ele>
        <time>2015-10-15T13:08:34Z</time>
      </trkpt>
      <trkpt lat="43.48016" lon="6.91138">
        <ele>321</ele>
        <time>2015-10-15T13:08:36Z</time>
      </trkpt>
      <trkpt lat="43.48013" lon="6.91137">
        <ele>320</ele>
        <time>2015-10-15T13:08:39Z</time>
      </trkpt>
      <trkpt lat="43.48007" lon="6.91138">
        <ele>321</ele>
        <time>2015-10-15T13:08:42Z</time>
      </trkpt>
      <trkpt lat="43.48004" lon="6.91135">
        <ele>322</ele>
        <time>2015-10-15T13:08:44Z</time>
      </trkpt>
      <trkpt lat="43.48" lon="6.91134">
        <ele>323</ele>
        <time>2015-10-15T13:08:48Z</time>
      </trkpt>
      <trkpt lat="43.47999" lon="6.91131">
        <ele>322</ele>
        <time>2015-10-15T13:08:50Z</time>
      </trkpt>
      <trkpt lat="43.47998" lon="6.9113">
        <ele>322</ele>
        <time>2015-10-15T13:08:51Z</time>
      </trkpt>
      <trkpt lat="43.4799" lon="6.9112">
        <ele>321</ele>
        <time>2015-10-15T13:08:59Z</time>
      </trkpt>
      <trkpt lat="43.47984" lon="6.91117">
        <ele>321</ele>
        <time>2015-10-15T13:09:03Z</time>
      </trkpt>
      <trkpt lat="43.47983" lon="6.91115">
        <ele>321</ele>
        <time>2015-10-15T13:09:05Z</time>
      </trkpt>
      <trkpt lat="43.47976" lon="6.91105">
        <ele>320</ele>
        <time>2015-10-15T13:09:13Z</time>
      </trkpt>
      <trkpt lat="43.47976" lon="6.91103">
        <ele>321</ele>
        <time>2015-10-15T13:09:15Z</time>
      </trkpt>
      <trkpt lat="43.47974" lon="6.911">
        <ele>321</ele>
        <time>2015-10-15T13:09:17Z</time>
      </trkpt>
      <trkpt lat="43.47972" lon="6.91097">
        <ele>321</ele>
        <time>2015-10-15T13:09:19Z</time>
      </trkpt>
      <trkpt lat="43.47951" lon="6.9107">
        <ele>320</ele>
        <time>2015-10-15T13:09:43Z</time>
      </trkpt>
      <trkpt lat="43.4795" lon="6.91067">
        <ele>320</ele>
        <time>2015-10-15T13:09:45Z</time>
      </trkpt>
      <trkpt lat="43.47951" lon="6.91059">
        <ele>324</ele>
        <time>2015-10-15T13:10:42Z</time>
      </trkpt>
      <trkpt lat="43.47948" lon="6.91056">
        <ele>324</ele>
        <time>2015-10-15T13:10:44Z</time>
      </trkpt>
      <trkpt lat="43.47945" lon="6.91055">
        <ele>324</ele>
        <time>2015-10-15T13:10:46Z</time>
      </trkpt>
      <trkpt lat="43.47944" lon="6.91054">
        <ele>325</ele>
        <time>2015-10-15T13:10:47Z</time>
      </trkpt>
      <trkpt lat="43.47944" lon="6.91052">
        <ele>326</ele>
        <time>2015-10-15T13:10:48Z</time>
      </trkpt>
      <trkpt lat="43.47941" lon="6.91051">
        <ele>326</ele>
        <time>2015-10-15T13:10:50Z</time>
      </trkpt>
      <trkpt lat="43.47936" lon="6.91049">
        <ele>324</ele>
        <time>2015-10-15T13:10:54Z</time>
      </trkpt>
      <trkpt lat="43.47905" lon="6.91023">
        <ele>327</ele>
        <time>2015-10-15T13:11:24Z</time>
      </trkpt>
      <trkpt lat="43.47898" lon="6.9102">
        <ele>327</ele>
        <time>2015-10-15T13:11:28Z</time>
      </trkpt>
      <trkpt lat="43.47895" lon="6.91016">
        <ele>326</ele>
        <time>2015-10-15T13:11:32Z</time>
      </trkpt>
      <trkpt lat="43.4789" lon="6.91014">
        <ele>326</ele>
        <time>2015-10-15T13:11:36Z</time>
      </trkpt>
      <trkpt lat="43.47886" lon="6.91009">
        <ele>327</ele>
        <time>2015-10-15T13:11:41Z</time>
      </trkpt>
      <trkpt lat="43.4788" lon="6.91005">
        <ele>326</ele>
        <time>2015-10-15T13:11:46Z</time>
      </trkpt>
      <trkpt lat="43.47879" lon="6.91002">
        <ele>326</ele>
        <time>2015-10-15T13:11:48Z</time>
      </trkpt>
      <trkpt lat="43.47877" lon="6.91001">
        <ele>325</ele>
        <time>2015-10-15T13:11:49Z</time>
      </trkpt>
      <trkpt lat="43.47876" lon="6.91">
        <ele>324</ele>
        <time>2015-10-15T13:11:50Z</time>
      </trkpt>
      <trkpt lat="43.4787" lon="6.90995">
        <ele>324</ele>
        <time>2015-10-15T13:11:55Z</time>
      </trkpt>
      <trkpt lat="43.4787" lon="6.9099">
        <ele>324</ele>
        <time>2015-10-15T13:11:57Z</time>
      </trkpt>
      <trkpt lat="43.47866" lon="6.90987">
        <ele>325</ele>
        <time>2015-10-15T13:12:05Z</time>
      </trkpt>
      <trkpt lat="43.47865" lon="6.90985">
        <ele>326</ele>
        <time>2015-10-15T13:12:07Z</time>
      </trkpt>
      <trkpt lat="43.47863" lon="6.90983">
        <ele>326</ele>
        <time>2015-10-15T13:12:09Z</time>
      </trkpt>
      <trkpt lat="43.47856" lon="6.90978">
        <ele>326</ele>
        <time>2015-10-15T13:12:14Z</time>
      </trkpt>
      <trkpt lat="43.47854" lon="6.90974">
        <ele>327</ele>
        <time>2015-10-15T13:12:18Z</time>
      </trkpt>
      <trkpt lat="43.47852" lon="6.90972">
        <ele>328</ele>
        <time>2015-10-15T13:12:20Z</time>
      </trkpt>
      <trkpt lat="43.47851" lon="6.9097">
        <ele>329</ele>
        <time>2015-10-15T13:12:21Z</time>
      </trkpt>
      <trkpt lat="43.47849" lon="6.90968">
        <ele>330</ele>
        <time>2015-10-15T13:12:25Z</time>
      </trkpt>
      <trkpt lat="43.47836" lon="6.9097">
        <ele>329</ele>
        <time>2015-10-15T13:12:34Z</time>
      </trkpt>
      <trkpt lat="43.47828" lon="6.90965">
        <ele>328</ele>
        <time>2015-10-15T13:12:40Z</time>
      </trkpt>
      <trkpt lat="43.47827" lon="6.90963">
        <ele>328</ele>
        <time>2015-10-15T13:12:42Z</time>
      </trkpt>
      <trkpt lat="43.47826" lon="6.90962">
        <ele>327</ele>
        <time>2015-10-15T13:12:43Z</time>
      </trkpt>
      <trkpt lat="43.47827" lon="6.90957">
        <ele>328</ele>
        <time>2015-10-15T13:12:45Z</time>
      </trkpt>
      <trkpt lat="43.47824" lon="6.90957">
        <ele>327</ele>
        <time>2015-10-15T13:12:46Z</time>
      </trkpt>
      <trkpt lat="43.4782" lon="6.90955">
        <ele>326</ele>
        <time>2015-10-15T13:12:48Z</time>
      </trkpt>
      <trkpt lat="43.47819" lon="6.90954">
        <ele>326</ele>
        <time>2015-10-15T13:12:49Z</time>
      </trkpt>
      <trkpt lat="43.47818" lon="6.9095">
        <ele>326</ele>
        <time>2015-10-15T13:12:51Z</time>
      </trkpt>
      <trkpt lat="43.47815" lon="6.90948">
        <ele>326</ele>
        <time>2015-10-15T13:12:52Z</time>
      </trkpt>
      <trkpt lat="43.47814" lon="6.90946">
        <ele>326</ele>
        <time>2015-10-15T13:12:54Z</time>
      </trkpt>
      <trkpt lat="43.47813" lon="6.90945">
        <ele>326</ele>
        <time>2015-10-15T13:12:55Z</time>
      </trkpt>
      <trkpt lat="43.47812" lon="6.90942">
        <ele>327</ele>
        <time>2015-10-15T13:12:57Z</time>
      </trkpt>
      <trkpt lat="43.47812" lon="6.90939">
        <ele>328</ele>
        <time>2015-10-15T13:13:00Z</time>
      </trkpt>
      <trkpt lat="43.47813" lon="6.90936">
        <ele>331</ele>
        <time>2015-10-15T13:13:01Z</time>
      </trkpt>
      <trkpt lat="43.47807" lon="6.90923">
        <ele>332</ele>
        <time>2015-10-15T13:13:08Z</time>
      </trkpt>
      <trkpt lat="43.47808" lon="6.90921">
        <ele>333</ele>
        <time>2015-10-15T13:13:10Z</time>
      </trkpt>
      <trkpt lat="43.47807" lon="6.90918">
        <ele>333</ele>
        <time>2015-10-15T13:13:12Z</time>
      </trkpt>
      <trkpt lat="43.47806" lon="6.90914">
        <ele>334</ele>
        <time>2015-10-15T13:13:16Z</time>
      </trkpt>
      <trkpt lat="43.47809" lon="6.9091">
        <ele>335</ele>
        <time>2015-10-15T13:13:18Z</time>
      </trkpt>
      <trkpt lat="43.47807" lon="6.90908">
        <ele>336</ele>
        <time>2015-10-15T13:13:20Z</time>
      </trkpt>
      <trkpt lat="43.47807" lon="6.90905">
        <ele>336</ele>
        <time>2015-10-15T13:13:22Z</time>
      </trkpt>
      <trkpt lat="43.47805" lon="6.90903">
        <ele>336</ele>
        <time>2015-10-15T13:13:23Z</time>
      </trkpt>
      <trkpt lat="43.47805" lon="6.909">
        <ele>334</ele>
        <time>2015-10-15T13:13:24Z</time>
      </trkpt>
      <trkpt lat="43.47806" lon="6.90897">
        <ele>334</ele>
        <time>2015-10-15T13:13:26Z</time>
      </trkpt>
      <trkpt lat="43.47807" lon="6.90891">
        <ele>334</ele>
        <time>2015-10-15T13:13:29Z</time>
      </trkpt>
      <trkpt lat="43.47803" lon="6.90878">
        <ele>334</ele>
        <time>2015-10-15T13:13:38Z</time>
      </trkpt>
      <trkpt lat="43.47796" lon="6.90873">
        <ele>333</ele>
        <time>2015-10-15T13:13:41Z</time>
      </trkpt>
      <trkpt lat="43.47796" lon="6.90864">
        <ele>333</ele>
        <time>2015-10-15T13:13:46Z</time>
      </trkpt>
      <trkpt lat="43.47795" lon="6.90856">
        <ele>333</ele>
        <time>2015-10-15T13:13:51Z</time>
      </trkpt>
      <trkpt lat="43.47797" lon="6.9085">
        <ele>334</ele>
        <time>2015-10-15T13:13:54Z</time>
      </trkpt>
      <trkpt lat="43.47798" lon="6.90848">
        <ele>334</ele>
        <time>2015-10-15T13:13:55Z</time>
      </trkpt>
      <trkpt lat="43.47799" lon="6.90845">
        <ele>335</ele>
        <time>2015-10-15T13:13:57Z</time>
      </trkpt>
      <trkpt lat="43.47795" lon="6.90841">
        <ele>335</ele>
        <time>2015-10-15T13:13:59Z</time>
      </trkpt>
      <trkpt lat="43.47795" lon="6.90836">
        <ele>336</ele>
        <time>2015-10-15T13:14:02Z</time>
      </trkpt>
      <trkpt lat="43.47794" lon="6.90831">
        <ele>337</ele>
        <time>2015-10-15T13:14:05Z</time>
      </trkpt>
      <trkpt lat="43.47789" lon="6.90822">
        <ele>336</ele>
        <time>2015-10-15T13:14:11Z</time>
      </trkpt>
      <trkpt lat="43.47789" lon="6.90818">
        <ele>336</ele>
        <time>2015-10-15T13:14:14Z</time>
      </trkpt>
      <trkpt lat="43.47793" lon="6.90811">
        <ele>336</ele>
        <time>2015-10-15T13:14:18Z</time>
      </trkpt>
      <trkpt lat="43.47789" lon="6.90807">
        <ele>337</ele>
        <time>2015-10-15T13:14:20Z</time>
      </trkpt>
      <trkpt lat="43.47787" lon="6.90805">
        <ele>337</ele>
        <time>2015-10-15T13:14:21Z</time>
      </trkpt>
      <trkpt lat="43.47787" lon="6.90803">
        <ele>337</ele>
        <time>2015-10-15T13:14:23Z</time>
      </trkpt>
      <trkpt lat="43.47786" lon="6.90801">
        <ele>338</ele>
        <time>2015-10-15T13:14:25Z</time>
      </trkpt>
      <trkpt lat="43.47785" lon="6.90797">
        <ele>338</ele>
        <time>2015-10-15T13:14:29Z</time>
      </trkpt>
      <trkpt lat="43.47783" lon="6.90795">
        <ele>338</ele>
        <time>2015-10-15T13:14:30Z</time>
      </trkpt>
      <trkpt lat="43.47781" lon="6.90794">
        <ele>338</ele>
        <time>2015-10-15T13:14:31Z</time>
      </trkpt>
      <trkpt lat="43.4778" lon="6.90792">
        <ele>337</ele>
        <time>2015-10-15T13:14:32Z</time>
      </trkpt>
      <trkpt lat="43.47777" lon="6.9079">
        <ele>338</ele>
        <time>2015-10-15T13:14:34Z</time>
      </trkpt>
      <trkpt lat="43.47776" lon="6.90788">
        <ele>339</ele>
        <time>2015-10-15T13:14:37Z</time>
      </trkpt>
      <trkpt lat="43.47773" lon="6.90787">
        <ele>339</ele>
        <time>2015-10-15T13:14:39Z</time>
      </trkpt>
      <trkpt lat="43.47772" lon="6.90786">
        <ele>339</ele>
        <time>2015-10-15T13:14:40Z</time>
      </trkpt>
      <trkpt lat="43.47768" lon="6.90785">
        <ele>339</ele>
        <time>2015-10-15T13:14:42Z</time>
      </trkpt>
      <trkpt lat="43.47766" lon="6.90789">
        <ele>337</ele>
        <time>2015-10-15T13:14:45Z</time>
      </trkpt>
      <trkpt lat="43.47764" lon="6.90788">
        <ele>336</ele>
        <time>2015-10-15T13:14:46Z</time>
      </trkpt>
      <trkpt lat="43.47762" lon="6.90785">
        <ele>335</ele>
        <time>2015-10-15T13:14:49Z</time>
      </trkpt>
      <trkpt lat="43.47757" lon="6.90779">
        <ele>336</ele>
        <time>2015-10-15T13:14:52Z</time>
      </trkpt>
      <trkpt lat="43.47756" lon="6.90776">
        <ele>337</ele>
        <time>2015-10-15T13:14:53Z</time>
      </trkpt>
      <trkpt lat="43.47757" lon="6.90772">
        <ele>338</ele>
        <time>2015-10-15T13:14:55Z</time>
      </trkpt>
      <trkpt lat="43.47759" lon="6.90765">
        <ele>342</ele>
        <time>2015-10-15T13:15:00Z</time>
      </trkpt>
      <trkpt lat="43.47759" lon="6.90763">
        <ele>343</ele>
        <time>2015-10-15T13:15:02Z</time>
      </trkpt>
      <trkpt lat="43.47758" lon="6.9076">
        <ele>347</ele>
        <time>2015-10-15T13:15:04Z</time>
      </trkpt>
      <trkpt lat="43.47761" lon="6.90758">
        <ele>348</ele>
        <time>2015-10-15T13:15:05Z</time>
      </trkpt>
      <trkpt lat="43.47767" lon="6.90753">
        <ele>353</ele>
        <time>2015-10-15T13:15:15Z</time>
      </trkpt>
      <trkpt lat="43.4777" lon="6.90745">
        <ele>353</ele>
        <time>2015-10-15T13:15:20Z</time>
      </trkpt>
      <trkpt lat="43.47774" lon="6.9074">
        <ele>353</ele>
        <time>2015-10-15T13:15:24Z</time>
      </trkpt>
      <trkpt lat="43.47773" lon="6.90738">
        <ele>353</ele>
        <time>2015-10-15T13:15:26Z</time>
      </trkpt>
      <trkpt lat="43.47777" lon="6.90728">
        <ele>350</ele>
        <time>2015-10-15T13:15:31Z</time>
      </trkpt>
      <trkpt lat="43.47787" lon="6.90717">
        <ele>350</ele>
        <time>2015-10-15T13:15:38Z</time>
      </trkpt>
      <trkpt lat="43.47794" lon="6.90708">
        <ele>350</ele>
        <time>2015-10-15T13:15:50Z</time>
      </trkpt>
      <trkpt lat="43.47795" lon="6.90702">
        <ele>348</ele>
        <time>2015-10-15T13:15:59Z</time>
      </trkpt>
      <trkpt lat="43.47823" lon="6.90684">
        <ele>343</ele>
        <time>2015-10-15T13:16:22Z</time>
      </trkpt>
      <trkpt lat="43.4783" lon="6.90673">
        <ele>344</ele>
        <time>2015-10-15T13:16:32Z</time>
      </trkpt>
      <trkpt lat="43.47837" lon="6.90665">
        <ele>345</ele>
        <time>2015-10-15T13:16:40Z</time>
      </trkpt>
      <trkpt lat="43.47844" lon="6.90663">
        <ele>347</ele>
        <time>2015-10-15T13:16:45Z</time>
      </trkpt>
      <trkpt lat="43.47866" lon="6.90637">
        <ele>355</ele>
        <time>2015-10-15T13:17:10Z</time>
      </trkpt>
      <trkpt lat="43.47866" lon="6.90633">
        <ele>356</ele>
        <time>2015-10-15T13:17:12Z</time>
      </trkpt>
      <trkpt lat="43.47866" lon="6.90631">
        <ele>356</ele>
        <time>2015-10-15T13:17:13Z</time>
      </trkpt>
      <trkpt lat="43.47868" lon="6.90625">
        <ele>356</ele>
        <time>2015-10-15T13:17:16Z</time>
      </trkpt>
      <trkpt lat="43.4787" lon="6.90623">
        <ele>356</ele>
        <time>2015-10-15T13:17:18Z</time>
      </trkpt>
      <trkpt lat="43.47871" lon="6.90621">
        <ele>356</ele>
        <time>2015-10-15T13:17:20Z</time>
      </trkpt>
      <trkpt lat="43.47877" lon="6.90613">
        <ele>357</ele>
        <time>2015-10-15T13:17:25Z</time>
      </trkpt>
      <trkpt lat="43.47877" lon="6.9061">
        <ele>356</ele>
        <time>2015-10-15T13:17:29Z</time>
      </trkpt>
      <trkpt lat="43.47886" lon="6.90582">
        <ele>358</ele>
        <time>2015-10-15T13:17:47Z</time>
      </trkpt>
      <trkpt lat="43.47885" lon="6.90577">
        <ele>358</ele>
        <time>2015-10-15T13:17:50Z</time>
      </trkpt>
      <trkpt lat="43.4789" lon="6.90573">
        <ele>360</ele>
        <time>2015-10-15T13:17:54Z</time>
      </trkpt>
      <trkpt lat="43.47892" lon="6.90568">
        <ele>362</ele>
        <time>2015-10-15T13:17:57Z</time>
      </trkpt>
      <trkpt lat="43.47897" lon="6.90566">
        <ele>363</ele>
        <time>2015-10-15T13:17:59Z</time>
      </trkpt>
      <trkpt lat="43.47897" lon="6.90561">
        <ele>365</ele>
        <time>2015-10-15T13:18:03Z</time>
      </trkpt>
      <trkpt lat="43.47896" lon="6.90556">
        <ele>366</ele>
        <time>2015-10-15T13:18:05Z</time>
      </trkpt>
      <trkpt lat="43.47897" lon="6.90553">
        <ele>367</ele>
        <time>2015-10-15T13:18:07Z</time>
      </trkpt>
      <trkpt lat="43.47897" lon="6.9055">
        <ele>367</ele>
        <time>2015-10-15T13:18:08Z</time>
      </trkpt>
      <trkpt lat="43.47896" lon="6.90548">
        <ele>366</ele>
        <time>2015-10-15T13:18:09Z</time>
      </trkpt>
      <trkpt lat="43.47895" lon="6.90543">
        <ele>366</ele>
        <time>2015-10-15T13:18:12Z</time>
      </trkpt>
      <trkpt lat="43.47894" lon="6.90541">
        <ele>365</ele>
        <time>2015-10-15T13:18:13Z</time>
      </trkpt>
      <trkpt lat="43.47895" lon="6.90538">
        <ele>365</ele>
        <time>2015-10-15T13:18:15Z</time>
      </trkpt>
      <trkpt lat="43.47896" lon="6.9053">
        <ele>366</ele>
        <time>2015-10-15T13:18:19Z</time>
      </trkpt>
      <trkpt lat="43.47893" lon="6.9053">
        <ele>366</ele>
        <time>2015-10-15T13:18:21Z</time>
      </trkpt>
      <trkpt lat="43.47892" lon="6.90526">
        <ele>367</ele>
        <time>2015-10-15T13:18:23Z</time>
      </trkpt>
      <trkpt lat="43.47893" lon="6.90525">
        <ele>367</ele>
        <time>2015-10-15T13:18:24Z</time>
      </trkpt>
      <trkpt lat="43.47893" lon="6.90522">
        <ele>367</ele>
        <time>2015-10-15T13:19:25Z</time>
      </trkpt>
      <trkpt lat="43.47889" lon="6.90507">
        <ele>366</ele>
        <time>2015-10-15T13:19:37Z</time>
      </trkpt>
      <trkpt lat="43.4789" lon="6.90501">
        <ele>367</ele>
        <time>2015-10-15T13:19:46Z</time>
      </trkpt>
      <trkpt lat="43.4789" lon="6.90497">
        <ele>369</ele>
        <time>2015-10-15T13:19:48Z</time>
      </trkpt>
      <trkpt lat="43.47892" lon="6.90493">
        <ele>369</ele>
        <time>2015-10-15T13:19:50Z</time>
      </trkpt>
      <trkpt lat="43.47896" lon="6.9049">
        <ele>371</ele>
        <time>2015-10-15T13:19:53Z</time>
      </trkpt>
      <trkpt lat="43.47897" lon="6.90487">
        <ele>373</ele>
        <time>2015-10-15T13:19:55Z</time>
      </trkpt>
      <trkpt lat="43.47896" lon="6.90483">
        <ele>375</ele>
        <time>2015-10-15T13:19:59Z</time>
      </trkpt>
      <trkpt lat="43.47893" lon="6.90479">
        <ele>374</ele>
        <time>2015-10-15T13:20:00Z</time>
      </trkpt>
      <trkpt lat="43.47894" lon="6.90477">
        <ele>374</ele>
        <time>2015-10-15T13:20:01Z</time>
      </trkpt>
      <trkpt lat="43.47892" lon="6.90473">
        <ele>373</ele>
        <time>2015-10-15T13:20:03Z</time>
      </trkpt>
      <trkpt lat="43.47892" lon="6.9047">
        <ele>373</ele>
        <time>2015-10-15T13:20:05Z</time>
      </trkpt>
      <trkpt lat="43.47893" lon="6.90467">
        <ele>371</ele>
        <time>2015-10-15T13:20:18Z</time>
      </trkpt>
      <trkpt lat="43.47893" lon="6.90456">
        <ele>371</ele>
        <time>2015-10-15T13:20:24Z</time>
      </trkpt>
      <trkpt lat="43.47892" lon="6.90454">
        <ele>374</ele>
        <time>2015-10-15T13:20:36Z</time>
      </trkpt>
      <trkpt lat="43.47895" lon="6.90435">
        <ele>376</ele>
        <time>2015-10-15T13:20:57Z</time>
      </trkpt>
      <trkpt lat="43.47892" lon="6.90432">
        <ele>376</ele>
        <time>2015-10-15T13:21:00Z</time>
      </trkpt>
      <trkpt lat="43.47892" lon="6.90426">
        <ele>376</ele>
        <time>2015-10-15T13:21:04Z</time>
      </trkpt>
      <trkpt lat="43.47898" lon="6.90418">
        <ele>376</ele>
        <time>2015-10-15T13:21:09Z</time>
      </trkpt>
      <trkpt lat="43.47896" lon="6.90412">
        <ele>376</ele>
        <time>2015-10-15T13:21:13Z</time>
      </trkpt>
      <trkpt lat="43.47895" lon="6.9041">
        <ele>375</ele>
        <time>2015-10-15T13:21:16Z</time>
      </trkpt>
      <trkpt lat="43.47896" lon="6.90403">
        <ele>374</ele>
        <time>2015-10-15T13:21:20Z</time>
      </trkpt>
      <trkpt lat="43.47899" lon="6.904">
        <ele>373</ele>
        <time>2015-10-15T13:21:22Z</time>
      </trkpt>
      <trkpt lat="43.47899" lon="6.90396">
        <ele>374</ele>
        <time>2015-10-15T13:21:24Z</time>
      </trkpt>
      <trkpt lat="43.47905" lon="6.90378">
        <ele>378</ele>
        <time>2015-10-15T13:21:35Z</time>
      </trkpt>
      <trkpt lat="43.47908" lon="6.90375">
        <ele>379</ele>
        <time>2015-10-15T13:21:38Z</time>
      </trkpt>
      <trkpt lat="43.47912" lon="6.90363">
        <ele>378</ele>
        <time>2015-10-15T13:21:48Z</time>
      </trkpt>
      <trkpt lat="43.4791" lon="6.90359">
        <ele>378</ele>
        <time>2015-10-15T13:21:50Z</time>
      </trkpt>
      <trkpt lat="43.47913" lon="6.90356">
        <ele>378</ele>
        <time>2015-10-15T13:21:51Z</time>
      </trkpt>
      <trkpt lat="43.47915" lon="6.90355">
        <ele>378</ele>
        <time>2015-10-15T13:21:52Z</time>
      </trkpt>
      <trkpt lat="43.47919" lon="6.90349">
        <ele>382</ele>
        <time>2015-10-15T13:21:58Z</time>
      </trkpt>
      <trkpt lat="43.4792" lon="6.90349">
        <ele>382</ele>
        <time>2015-10-15T13:22:00Z</time>
      </trkpt>
      <trkpt lat="43.47926" lon="6.90346">
        <ele>383</ele>
        <time>2015-10-15T13:22:06Z</time>
      </trkpt>
      <trkpt lat="43.47928" lon="6.90343">
        <ele>383</ele>
        <time>2015-10-15T13:22:07Z</time>
      </trkpt>
      <trkpt lat="43.4793" lon="6.90341">
        <ele>383</ele>
        <time>2015-10-15T13:22:09Z</time>
      </trkpt>
      <trkpt lat="43.47931" lon="6.90335">
        <ele>383</ele>
        <time>2015-10-15T13:22:30Z</time>
      </trkpt>
      <trkpt lat="43.4793" lon="6.90332">
        <ele>385</ele>
        <time>2015-10-15T13:23:30Z</time>
      </trkpt>
      <trkpt lat="43.47929" lon="6.9033">
        <ele>386</ele>
        <time>2015-10-15T13:23:32Z</time>
      </trkpt>
      <trkpt lat="43.47926" lon="6.90328">
        <ele>388</ele>
        <time>2015-10-15T13:24:06Z</time>
      </trkpt>
      <trkpt lat="43.47925" lon="6.90326">
        <ele>388</ele>
        <time>2015-10-15T13:24:08Z</time>
      </trkpt>
      <trkpt lat="43.47924" lon="6.90322">
        <ele>388</ele>
        <time>2015-10-15T13:24:12Z</time>
      </trkpt>
      <trkpt lat="43.47922" lon="6.90317">
        <ele>387</ele>
        <time>2015-10-15T13:24:16Z</time>
      </trkpt>
      <trkpt lat="43.47918" lon="6.90315">
        <ele>387</ele>
        <time>2015-10-15T13:24:20Z</time>
      </trkpt>
      <trkpt lat="43.47913" lon="6.90315">
        <ele>387</ele>
        <time>2015-10-15T13:24:26Z</time>
      </trkpt>
      <trkpt lat="43.47909" lon="6.90313">
        <ele>385</ele>
        <time>2015-10-15T13:24:29Z</time>
      </trkpt>
      <trkpt lat="43.47907" lon="6.9031">
        <ele>385</ele>
        <time>2015-10-15T13:24:32Z</time>
      </trkpt>
      <trkpt lat="43.47905" lon="6.90309">
        <ele>384</ele>
        <time>2015-10-15T13:24:34Z</time>
      </trkpt>
      <trkpt lat="43.47901" lon="6.90307">
        <ele>385</ele>
        <time>2015-10-15T13:24:37Z</time>
      </trkpt>
      <trkpt lat="43.47898" lon="6.90304">
        <ele>386</ele>
        <time>2015-10-15T13:24:41Z</time>
      </trkpt>
      <trkpt lat="43.47896" lon="6.90304">
        <ele>386</ele>
        <time>2015-10-15T13:24:42Z</time>
      </trkpt>
      <trkpt lat="43.47895" lon="6.90305">
        <ele>385</ele>
        <time>2015-10-15T13:24:43Z</time>
      </trkpt>
      <trkpt lat="43.4789" lon="6.90302">
        <ele>383</ele>
        <time>2015-10-15T13:24:47Z</time>
      </trkpt>
      <trkpt lat="43.47889" lon="6.90303">
        <ele>383</ele>
        <time>2015-10-15T13:24:48Z</time>
      </trkpt>
      <trkpt lat="43.47883" lon="6.90303">
        <ele>381</ele>
        <time>2015-10-15T13:24:51Z</time>
      </trkpt>
      <trkpt lat="43.47882" lon="6.90301">
        <ele>381</ele>
        <time>2015-10-15T13:24:54Z</time>
      </trkpt>
      <trkpt lat="43.47881" lon="6.903">
        <ele>382</ele>
        <time>2015-10-15T13:24:55Z</time>
      </trkpt>
      <trkpt lat="43.47842" lon="6.90288">
        <ele>377</ele>
        <time>2015-10-15T13:25:23Z</time>
      </trkpt>
      <trkpt lat="43.4784" lon="6.90291">
        <ele>377</ele>
        <time>2015-10-15T13:25:25Z</time>
      </trkpt>
      <trkpt lat="43.47836" lon="6.9029">
        <ele>377</ele>
        <time>2015-10-15T13:25:27Z</time>
      </trkpt>
      <trkpt lat="43.47818" lon="6.90295">
        <ele>379</ele>
        <time>2015-10-15T13:25:39Z</time>
      </trkpt>
      <trkpt lat="43.47816" lon="6.90293">
        <ele>379</ele>
        <time>2015-10-15T13:25:41Z</time>
      </trkpt>
      <trkpt lat="43.47815" lon="6.90291">
        <ele>379</ele>
        <time>2015-10-15T13:25:42Z</time>
      </trkpt>
      <trkpt lat="43.47812" lon="6.90293">
        <ele>378</ele>
        <time>2015-10-15T13:25:45Z</time>
      </trkpt>
      <trkpt lat="43.47803" lon="6.90294">
        <ele>378</ele>
        <time>2015-10-15T13:25:51Z</time>
      </trkpt>
      <trkpt lat="43.47802" lon="6.90292">
        <ele>378</ele>
        <time>2015-10-15T13:25:52Z</time>
      </trkpt>
      <trkpt lat="43.478" lon="6.90291">
        <ele>379</ele>
        <time>2015-10-15T13:25:53Z</time>
      </trkpt>
      <trkpt lat="43.47798" lon="6.9029">
        <ele>380</ele>
        <time>2015-10-15T13:25:58Z</time>
      </trkpt>
      <trkpt lat="43.47795" lon="6.90292">
        <ele>380</ele>
        <time>2015-10-15T13:26:00Z</time>
      </trkpt>
      <trkpt lat="43.47758" lon="6.90289">
        <ele>377</ele>
        <time>2015-10-15T13:26:26Z</time>
      </trkpt>
      <trkpt lat="43.47755" lon="6.90292">
        <ele>375</ele>
        <time>2015-10-15T13:26:28Z</time>
      </trkpt>
      <trkpt lat="43.47746" lon="6.9029">
        <ele>373</ele>
        <time>2015-10-15T13:26:34Z</time>
      </trkpt>
      <trkpt lat="43.47743" lon="6.90287">
        <ele>373</ele>
        <time>2015-10-15T13:26:37Z</time>
      </trkpt>
      <trkpt lat="43.47734" lon="6.90283">
        <ele>372</ele>
        <time>2015-10-15T13:26:45Z</time>
      </trkpt>
      <trkpt lat="43.47733" lon="6.9028">
        <ele>372</ele>
        <time>2015-10-15T13:26:46Z</time>
      </trkpt>
      <trkpt lat="43.47731" lon="6.90277">
        <ele>371</ele>
        <time>2015-10-15T13:26:51Z</time>
      </trkpt>
      <trkpt lat="43.47726" lon="6.90273">
        <ele>371</ele>
        <time>2015-10-15T13:26:54Z</time>
      </trkpt>
      <trkpt lat="43.47725" lon="6.9027">
        <ele>370</ele>
        <time>2015-10-15T13:26:56Z</time>
      </trkpt>
      <trkpt lat="43.47721" lon="6.9027">
        <ele>369</ele>
        <time>2015-10-15T13:26:58Z</time>
      </trkpt>
      <trkpt lat="43.47719" lon="6.90267">
        <ele>369</ele>
        <time>2015-10-15T13:26:59Z</time>
      </trkpt>
      <trkpt lat="43.47718" lon="6.90263">
        <ele>368</ele>
        <time>2015-10-15T13:27:01Z</time>
      </trkpt>
      <trkpt lat="43.47718" lon="6.90258">
        <ele>367</ele>
        <time>2015-10-15T13:27:07Z</time>
      </trkpt>
      <trkpt lat="43.47716" lon="6.90253">
        <ele>367</ele>
        <time>2015-10-15T13:27:10Z</time>
      </trkpt>
      <trkpt lat="43.47712" lon="6.90249">
        <ele>366</ele>
        <time>2015-10-15T13:27:12Z</time>
      </trkpt>
      <trkpt lat="43.47711" lon="6.90245">
        <ele>366</ele>
        <time>2015-10-15T13:27:14Z</time>
      </trkpt>
      <trkpt lat="43.4771" lon="6.90243">
        <ele>366</ele>
        <time>2015-10-15T13:27:17Z</time>
      </trkpt>
      <trkpt lat="43.47709" lon="6.90241">
        <ele>366</ele>
        <time>2015-10-15T13:27:18Z</time>
      </trkpt>
      <trkpt lat="43.47706" lon="6.90235">
        <ele>365</ele>
        <time>2015-10-15T13:27:24Z</time>
      </trkpt>
      <trkpt lat="43.47706" lon="6.90231">
        <ele>364</ele>
        <time>2015-10-15T13:27:26Z</time>
      </trkpt>
      <trkpt lat="43.47706" lon="6.90223">
        <ele>365</ele>
        <time>2015-10-15T13:27:32Z</time>
      </trkpt>
      <trkpt lat="43.47705" lon="6.90218">
        <ele>366</ele>
        <time>2015-10-15T13:27:34Z</time>
      </trkpt>
      <trkpt lat="43.47703" lon="6.90217">
        <ele>366</ele>
        <time>2015-10-15T13:27:35Z</time>
      </trkpt>
      <trkpt lat="43.47703" lon="6.90212">
        <ele>366</ele>
        <time>2015-10-15T13:27:37Z</time>
      </trkpt>
      <trkpt lat="43.47702" lon="6.90211">
        <ele>365</ele>
        <time>2015-10-15T13:27:38Z</time>
      </trkpt>
      <trkpt lat="43.47702" lon="6.90209">
        <ele>366</ele>
        <time>2015-10-15T13:27:39Z</time>
      </trkpt>
      <trkpt lat="43.47703" lon="6.90206">
        <ele>366</ele>
        <time>2015-10-15T13:27:40Z</time>
      </trkpt>
      <trkpt lat="43.47706" lon="6.90196">
        <ele>365</ele>
        <time>2015-10-15T13:27:48Z</time>
      </trkpt>
      <trkpt lat="43.47706" lon="6.90193">
        <ele>365</ele>
        <time>2015-10-15T13:27:51Z</time>
      </trkpt>
      <trkpt lat="43.47704" lon="6.90191">
        <ele>365</ele>
        <time>2015-10-15T13:27:52Z</time>
      </trkpt>
      <trkpt lat="43.47704" lon="6.90186">
        <ele>362</ele>
        <time>2015-10-15T13:27:54Z</time>
      </trkpt>
      <trkpt lat="43.47704" lon="6.90183">
        <ele>362</ele>
        <time>2015-10-15T13:27:56Z</time>
      </trkpt>
      <trkpt lat="43.47704" lon="6.90176">
        <ele>361</ele>
        <time>2015-10-15T13:28:00Z</time>
      </trkpt>
      <trkpt lat="43.47702" lon="6.90176">
        <ele>361</ele>
        <time>2015-10-15T13:28:01Z</time>
      </trkpt>
      <trkpt lat="43.477" lon="6.90173">
        <ele>360</ele>
        <time>2015-10-15T13:28:04Z</time>
      </trkpt>
      <trkpt lat="43.47697" lon="6.90171">
        <ele>359</ele>
        <time>2015-10-15T13:28:24Z</time>
      </trkpt>
      <trkpt lat="43.47695" lon="6.90169">
        <ele>359</ele>
        <time>2015-10-15T13:28:27Z</time>
      </trkpt>
      <trkpt lat="43.47692" lon="6.90164">
        <ele>358</ele>
        <time>2015-10-15T13:28:31Z</time>
      </trkpt>
      <trkpt lat="43.47693" lon="6.9016">
        <ele>359</ele>
        <time>2015-10-15T13:28:34Z</time>
      </trkpt>
      <trkpt lat="43.4769" lon="6.90159">
        <ele>358</ele>
        <time>2015-10-15T13:28:35Z</time>
      </trkpt>
      <trkpt lat="43.4769" lon="6.90155">
        <ele>357</ele>
        <time>2015-10-15T13:28:40Z</time>
      </trkpt>
      <trkpt lat="43.47689" lon="6.9015">
        <ele>357</ele>
        <time>2015-10-15T13:28:44Z</time>
      </trkpt>
      <trkpt lat="43.47687" lon="6.90146">
        <ele>357</ele>
        <time>2015-10-15T13:28:46Z</time>
      </trkpt>
      <trkpt lat="43.47685" lon="6.90146">
        <ele>357</ele>
        <time>2015-10-15T13:28:47Z</time>
      </trkpt>
      <trkpt lat="43.47684" lon="6.90143">
        <ele>356</ele>
        <time>2015-10-15T13:28:49Z</time>
      </trkpt>
      <trkpt lat="43.47678" lon="6.90138">
        <ele>355</ele>
        <time>2015-10-15T13:28:55Z</time>
      </trkpt>
      <trkpt lat="43.47674" lon="6.90135">
        <ele>355</ele>
        <time>2015-10-15T13:28:58Z</time>
      </trkpt>
      <trkpt lat="43.47672" lon="6.90128">
        <ele>354</ele>
        <time>2015-10-15T13:29:02Z</time>
      </trkpt>
      <trkpt lat="43.47669" lon="6.90126">
        <ele>351</ele>
        <time>2015-10-15T13:29:04Z</time>
      </trkpt>
      <trkpt lat="43.47669" lon="6.90121">
        <ele>351</ele>
        <time>2015-10-15T13:29:07Z</time>
      </trkpt>
      <trkpt lat="43.47665" lon="6.90118">
        <ele>351</ele>
        <time>2015-10-15T13:29:12Z</time>
      </trkpt>
      <trkpt lat="43.47665" lon="6.90116">
        <ele>351</ele>
        <time>2015-10-15T13:29:16Z</time>
      </trkpt>
      <trkpt lat="43.47665" lon="6.90114">
        <ele>351</ele>
        <time>2015-10-15T13:29:17Z</time>
      </trkpt>
      <trkpt lat="43.47663" lon="6.90108">
        <ele>350</ele>
        <time>2015-10-15T13:29:19Z</time>
      </trkpt>
      <trkpt lat="43.47663" lon="6.90105">
        <ele>349</ele>
        <time>2015-10-15T13:29:21Z</time>
      </trkpt>
      <trkpt lat="43.47661" lon="6.90103">
        <ele>349</ele>
        <time>2015-10-15T13:29:23Z</time>
      </trkpt>
      <trkpt lat="43.4766" lon="6.901">
        <ele>348</ele>
        <time>2015-10-15T13:29:25Z</time>
      </trkpt>
      <trkpt lat="43.47658" lon="6.90099">
        <ele>347</ele>
        <time>2015-10-15T13:29:26Z</time>
      </trkpt>
      <trkpt lat="43.47657" lon="6.90095">
        <ele>347</ele>
        <time>2015-10-15T13:29:28Z</time>
      </trkpt>
      <trkpt lat="43.47641" lon="6.9007">
        <ele>343</ele>
        <time>2015-10-15T13:29:44Z</time>
      </trkpt>
      <trkpt lat="43.4764" lon="6.90071">
        <ele>342</ele>
        <time>2015-10-15T13:29:47Z</time>
      </trkpt>
      <trkpt lat="43.47638" lon="6.90069">
        <ele>341</ele>
        <time>2015-10-15T13:29:53Z</time>
      </trkpt>
      <trkpt lat="43.47635" lon="6.90057">
        <ele>344</ele>
        <time>2015-10-15T13:30:00Z</time>
      </trkpt>
      <trkpt lat="43.47633" lon="6.90054">
        <ele>344</ele>
        <time>2015-10-15T13:30:02Z</time>
      </trkpt>
      <trkpt lat="43.47633" lon="6.90051">
        <ele>344</ele>
        <time>2015-10-15T13:30:04Z</time>
      </trkpt>
      <trkpt lat="43.4763" lon="6.90047">
        <ele>344</ele>
        <time>2015-10-15T13:30:06Z</time>
      </trkpt>
      <trkpt lat="43.47627" lon="6.90035">
        <ele>345</ele>
        <time>2015-10-15T13:30:12Z</time>
      </trkpt>
      <trkpt lat="43.47627" lon="6.90028">
        <ele>346</ele>
        <time>2015-10-15T13:30:15Z</time>
      </trkpt>
      <trkpt lat="43.47628" lon="6.90024">
        <ele>346</ele>
        <time>2015-10-15T13:30:18Z</time>
      </trkpt>
      <trkpt lat="43.47626" lon="6.90018">
        <ele>347</ele>
        <time>2015-10-15T13:30:24Z</time>
      </trkpt>
      <trkpt lat="43.47625" lon="6.90016">
        <ele>347</ele>
        <time>2015-10-15T13:30:25Z</time>
      </trkpt>
      <trkpt lat="43.47624" lon="6.90014">
        <ele>347</ele>
        <time>2015-10-15T13:30:26Z</time>
      </trkpt>
      <trkpt lat="43.47624" lon="6.90007">
        <ele>347</ele>
        <time>2015-10-15T13:30:30Z</time>
      </trkpt>
      <trkpt lat="43.47624" lon="6.9">
        <ele>349</ele>
        <time>2015-10-15T13:30:34Z</time>
      </trkpt>
      <trkpt lat="43.47625" lon="6.8999">
        <ele>352</ele>
        <time>2015-10-15T13:30:39Z</time>
      </trkpt>
      <trkpt lat="43.47622" lon="6.89985">
        <ele>353</ele>
        <time>2015-10-15T13:30:42Z</time>
      </trkpt>
      <trkpt lat="43.47619" lon="6.8996">
        <ele>350</ele>
        <time>2015-10-15T13:30:55Z</time>
      </trkpt>
      <trkpt lat="43.4762" lon="6.89957">
        <ele>351</ele>
        <time>2015-10-15T13:30:57Z</time>
      </trkpt>
      <trkpt lat="43.47621" lon="6.89954">
        <ele>351</ele>
        <time>2015-10-15T13:30:59Z</time>
      </trkpt>
      <trkpt lat="43.47621" lon="6.89951">
        <ele>351</ele>
        <time>2015-10-15T13:31:01Z</time>
      </trkpt>
      <trkpt lat="43.47621" lon="6.89949">
        <ele>351</ele>
        <time>2015-10-15T13:31:03Z</time>
      </trkpt>
      <trkpt lat="43.4762" lon="6.89947">
        <ele>351</ele>
        <time>2015-10-15T13:31:04Z</time>
      </trkpt>
      <trkpt lat="43.47619" lon="6.89944">
        <ele>351</ele>
        <time>2015-10-15T13:31:05Z</time>
      </trkpt>
      <trkpt lat="43.4762" lon="6.89941">
        <ele>351</ele>
        <time>2015-10-15T13:31:08Z</time>
      </trkpt>
      <trkpt lat="43.47621" lon="6.89938">
        <ele>352</ele>
        <time>2015-10-15T13:31:09Z</time>
      </trkpt>
      <trkpt lat="43.47619" lon="6.89937">
        <ele>352</ele>
        <time>2015-10-15T13:31:10Z</time>
      </trkpt>
      <trkpt lat="43.47617" lon="6.89929">
        <ele>351</ele>
        <time>2015-10-15T13:31:14Z</time>
      </trkpt>
      <trkpt lat="43.4762" lon="6.89918">
        <ele>351</ele>
        <time>2015-10-15T13:31:18Z</time>
      </trkpt>
      <trkpt lat="43.47618" lon="6.89917">
        <ele>351</ele>
        <time>2015-10-15T13:31:19Z</time>
      </trkpt>
      <trkpt lat="43.47618" lon="6.89914">
        <ele>350</ele>
        <time>2015-10-15T13:31:20Z</time>
      </trkpt>
      <trkpt lat="43.47621" lon="6.89903">
        <ele>348</ele>
        <time>2015-10-15T13:31:25Z</time>
      </trkpt>
      <trkpt lat="43.4762" lon="6.899">
        <ele>348</ele>
        <time>2015-10-15T13:31:27Z</time>
      </trkpt>
      <trkpt lat="43.4762" lon="6.89897">
        <ele>348</ele>
        <time>2015-10-15T13:31:31Z</time>
      </trkpt>
      <trkpt lat="43.47619" lon="6.89892">
        <ele>349</ele>
        <time>2015-10-15T13:31:33Z</time>
      </trkpt>
      <trkpt lat="43.4762" lon="6.89889">
        <ele>349</ele>
        <time>2015-10-15T13:31:35Z</time>
      </trkpt>
      <trkpt lat="43.4762" lon="6.89886">
        <ele>348</ele>
        <time>2015-10-15T13:31:36Z</time>
      </trkpt>
      <trkpt lat="43.47621" lon="6.89873">
        <ele>348</ele>
        <time>2015-10-15T13:31:43Z</time>
      </trkpt>
      <trkpt lat="43.47623" lon="6.89871">
        <ele>348</ele>
        <time>2015-10-15T13:31:44Z</time>
      </trkpt>
      <trkpt lat="43.47623" lon="6.89868">
        <ele>347</ele>
        <time>2015-10-15T13:31:46Z</time>
      </trkpt>
      <trkpt lat="43.47625" lon="6.89865">
        <ele>346</ele>
        <time>2015-10-15T13:31:48Z</time>
      </trkpt>
      <trkpt lat="43.47628" lon="6.89863">
        <ele>346</ele>
        <time>2015-10-15T13:31:49Z</time>
      </trkpt>
      <trkpt lat="43.47631" lon="6.89839">
        <ele>348</ele>
        <time>2015-10-15T13:32:01Z</time>
      </trkpt>
      <trkpt lat="43.47629" lon="6.89837">
        <ele>348</ele>
        <time>2015-10-15T13:32:02Z</time>
      </trkpt>
      <trkpt lat="43.4763" lon="6.89834">
        <ele>347</ele>
        <time>2015-10-15T13:32:04Z</time>
      </trkpt>
      <trkpt lat="43.47629" lon="6.89832">
        <ele>347</ele>
        <time>2015-10-15T13:32:05Z</time>
      </trkpt>
      <trkpt lat="43.47629" lon="6.89828">
        <ele>345</ele>
        <time>2015-10-15T13:32:07Z</time>
      </trkpt>
      <trkpt lat="43.47628" lon="6.89824">
        <ele>345</ele>
        <time>2015-10-15T13:32:09Z</time>
      </trkpt>
      <trkpt lat="43.47629" lon="6.89821">
        <ele>345</ele>
        <time>2015-10-15T13:32:11Z</time>
      </trkpt>
      <trkpt lat="43.47628" lon="6.89815">
        <ele>345</ele>
        <time>2015-10-15T13:32:14Z</time>
      </trkpt>
      <trkpt lat="43.47625" lon="6.89812">
        <ele>345</ele>
        <time>2015-10-15T13:32:16Z</time>
      </trkpt>
      <trkpt lat="43.4762" lon="6.89799">
        <ele>346</ele>
        <time>2015-10-15T13:32:24Z</time>
      </trkpt>
      <trkpt lat="43.4762" lon="6.89795">
        <ele>347</ele>
        <time>2015-10-15T13:32:26Z</time>
      </trkpt>
      <trkpt lat="43.47614" lon="6.89784">
        <ele>347</ele>
        <time>2015-10-15T13:32:33Z</time>
      </trkpt>
      <trkpt lat="43.47614" lon="6.8978">
        <ele>347</ele>
        <time>2015-10-15T13:32:37Z</time>
      </trkpt>
      <trkpt lat="43.47615" lon="6.89772">
        <ele>346</ele>
        <time>2015-10-15T13:32:40Z</time>
      </trkpt>
      <trkpt lat="43.47612" lon="6.89765">
        <ele>346</ele>
        <time>2015-10-15T13:32:44Z</time>
      </trkpt>
      <trkpt lat="43.47609" lon="6.89762">
        <ele>346</ele>
        <time>2015-10-15T13:32:48Z</time>
      </trkpt>
      <trkpt lat="43.47609" lon="6.89757">
        <ele>346</ele>
        <time>2015-10-15T13:32:50Z</time>
      </trkpt>
      <trkpt lat="43.47608" lon="6.89754">
        <ele>347</ele>
        <time>2015-10-15T13:32:52Z</time>
      </trkpt>
      <trkpt lat="43.47607" lon="6.89751">
        <ele>347</ele>
        <time>2015-10-15T13:32:54Z</time>
      </trkpt>
      <trkpt lat="43.47607" lon="6.89744">
        <ele>347</ele>
        <time>2015-10-15T13:32:57Z</time>
      </trkpt>
      <trkpt lat="43.47609" lon="6.89742">
        <ele>347</ele>
        <time>2015-10-15T13:32:59Z</time>
      </trkpt>
      <trkpt lat="43.4761" lon="6.8974">
        <ele>347</ele>
        <time>2015-10-15T13:33:00Z</time>
      </trkpt>
      <trkpt lat="43.47609" lon="6.89738">
        <ele>347</ele>
        <time>2015-10-15T13:33:02Z</time>
      </trkpt>
      <trkpt lat="43.4761" lon="6.89735">
        <ele>347</ele>
        <time>2015-10-15T13:33:04Z</time>
      </trkpt>
      <trkpt lat="43.47615" lon="6.89729">
        <ele>349</ele>
        <time>2015-10-15T13:33:08Z</time>
      </trkpt>
      <trkpt lat="43.47617" lon="6.89723">
        <ele>350</ele>
        <time>2015-10-15T13:33:11Z</time>
      </trkpt>
      <trkpt lat="43.47616" lon="6.8972">
        <ele>349</ele>
        <time>2015-10-15T13:33:13Z</time>
      </trkpt>
      <trkpt lat="43.47621" lon="6.89711">
        <ele>348</ele>
        <time>2015-10-15T13:33:19Z</time>
      </trkpt>
      <trkpt lat="43.47621" lon="6.89707">
        <ele>347</ele>
        <time>2015-10-15T13:33:21Z</time>
      </trkpt>
      <trkpt lat="43.47622" lon="6.89702">
        <ele>348</ele>
        <time>2015-10-15T13:33:24Z</time>
      </trkpt>
      <trkpt lat="43.47621" lon="6.89699">
        <ele>349</ele>
        <time>2015-10-15T13:33:26Z</time>
      </trkpt>
      <trkpt lat="43.4762" lon="6.89697">
        <ele>349</ele>
        <time>2015-10-15T13:33:27Z</time>
      </trkpt>
      <trkpt lat="43.47619" lon="6.89694">
        <ele>349</ele>
        <time>2015-10-15T13:33:29Z</time>
      </trkpt>
      <trkpt lat="43.47621" lon="6.8969">
        <ele>349</ele>
        <time>2015-10-15T13:33:31Z</time>
      </trkpt>
      <trkpt lat="43.47619" lon="6.89688">
        <ele>348</ele>
        <time>2015-10-15T13:33:32Z</time>
      </trkpt>
      <trkpt lat="43.47619" lon="6.89682">
        <ele>350</ele>
        <time>2015-10-15T13:33:36Z</time>
      </trkpt>
      <trkpt lat="43.47621" lon="6.89679">
        <ele>350</ele>
        <time>2015-10-15T13:33:38Z</time>
      </trkpt>
      <trkpt lat="43.47622" lon="6.89676">
        <ele>350</ele>
        <time>2015-10-15T13:33:40Z</time>
      </trkpt>
      <trkpt lat="43.47621" lon="6.89673">
        <ele>349</ele>
        <time>2015-10-15T13:33:42Z</time>
      </trkpt>
      <trkpt lat="43.47622" lon="6.89672">
        <ele>350</ele>
        <time>2015-10-15T13:33:43Z</time>
      </trkpt>
      <trkpt lat="43.47621" lon="6.8967">
        <ele>350</ele>
        <time>2015-10-15T13:33:44Z</time>
      </trkpt>
      <trkpt lat="43.47623" lon="6.89668">
        <ele>350</ele>
        <time>2015-10-15T13:33:46Z</time>
      </trkpt>
      <trkpt lat="43.47622" lon="6.89664">
        <ele>351</ele>
        <time>2015-10-15T13:33:50Z</time>
      </trkpt>
      <trkpt lat="43.47621" lon="6.89662">
        <ele>351</ele>
        <time>2015-10-15T13:33:51Z</time>
      </trkpt>
      <trkpt lat="43.47621" lon="6.89659">
        <ele>351</ele>
        <time>2015-10-15T13:33:53Z</time>
      </trkpt>
      <trkpt lat="43.47622" lon="6.89656">
        <ele>350</ele>
        <time>2015-10-15T13:33:54Z</time>
      </trkpt>
      <trkpt lat="43.4762" lon="6.89652">
        <ele>351</ele>
        <time>2015-10-15T13:33:56Z</time>
      </trkpt>
      <trkpt lat="43.4762" lon="6.89645">
        <ele>352</ele>
        <time>2015-10-15T13:34:00Z</time>
      </trkpt>
      <trkpt lat="43.47619" lon="6.89642">
        <ele>353</ele>
        <time>2015-10-15T13:34:02Z</time>
      </trkpt>
      <trkpt lat="43.47623" lon="6.89634">
        <ele>353</ele>
        <time>2015-10-15T13:34:09Z</time>
      </trkpt>
      <trkpt lat="43.47622" lon="6.89632">
        <ele>353</ele>
        <time>2015-10-15T13:34:11Z</time>
      </trkpt>
      <trkpt lat="43.4762" lon="6.89632">
        <ele>353</ele>
        <time>2015-10-15T13:34:16Z</time>
      </trkpt>
      <trkpt lat="43.47618" lon="6.89631">
        <ele>354</ele>
        <time>2015-10-15T13:34:26Z</time>
      </trkpt>
      <trkpt lat="43.47616" lon="6.8963">
        <ele>355</ele>
        <time>2015-10-15T13:34:28Z</time>
      </trkpt>
      <trkpt lat="43.47614" lon="6.8963">
        <ele>355</ele>
        <time>2015-10-15T13:34:29Z</time>
      </trkpt>
      <trkpt lat="43.4761" lon="6.89633">
        <ele>355</ele>
        <time>2015-10-15T13:34:33Z</time>
      </trkpt>
      <trkpt lat="43.47608" lon="6.89633">
        <ele>355</ele>
        <time>2015-10-15T13:34:35Z</time>
      </trkpt>
      <trkpt lat="43.47605" lon="6.89638">
        <ele>355</ele>
        <time>2015-10-15T13:34:39Z</time>
      </trkpt>
      <trkpt lat="43.47598" lon="6.89641">
        <ele>354</ele>
        <time>2015-10-15T13:34:44Z</time>
      </trkpt>
      <trkpt lat="43.47596" lon="6.89644">
        <ele>353</ele>
        <time>2015-10-15T13:34:47Z</time>
      </trkpt>
      <trkpt lat="43.47587" lon="6.89645">
        <ele>352</ele>
        <time>2015-10-15T13:34:54Z</time>
      </trkpt>
      <trkpt lat="43.47555" lon="6.89666">
        <ele>344</ele>
        <time>2015-10-15T13:35:24Z</time>
      </trkpt>
      <trkpt lat="43.47553" lon="6.89667">
        <ele>343</ele>
        <time>2015-10-15T13:35:25Z</time>
      </trkpt>
      <trkpt lat="43.47552" lon="6.8967">
        <ele>343</ele>
        <time>2015-10-15T13:35:27Z</time>
      </trkpt>
      <trkpt lat="43.4755" lon="6.8967">
        <ele>343</ele>
        <time>2015-10-15T13:35:28Z</time>
      </trkpt>
      <trkpt lat="43.47545" lon="6.89672">
        <ele>342</ele>
        <time>2015-10-15T13:35:32Z</time>
      </trkpt>
      <trkpt lat="43.47544" lon="6.89675">
        <ele>342</ele>
        <time>2015-10-15T13:35:34Z</time>
      </trkpt>
      <trkpt lat="43.47542" lon="6.89676">
        <ele>341</ele>
        <time>2015-10-15T13:35:36Z</time>
      </trkpt>
      <trkpt lat="43.47541" lon="6.89677">
        <ele>341</ele>
        <time>2015-10-15T13:35:37Z</time>
      </trkpt>
      <trkpt lat="43.47537" lon="6.89681">
        <ele>339</ele>
        <time>2015-10-15T13:35:41Z</time>
      </trkpt>
      <trkpt lat="43.47531" lon="6.89681">
        <ele>338</ele>
        <time>2015-10-15T13:35:46Z</time>
      </trkpt>
      <trkpt lat="43.4753" lon="6.89681">
        <ele>338</ele>
        <time>2015-10-15T13:35:47Z</time>
      </trkpt>
      <trkpt lat="43.47524" lon="6.89682">
        <ele>338</ele>
        <time>2015-10-15T13:35:51Z</time>
      </trkpt>
      <trkpt lat="43.47523" lon="6.89684">
        <ele>338</ele>
        <time>2015-10-15T13:35:52Z</time>
      </trkpt>
      <trkpt lat="43.47522" lon="6.89683">
        <ele>338</ele>
        <time>2015-10-15T13:35:53Z</time>
      </trkpt>
      <trkpt lat="43.47504" lon="6.89692">
        <ele>332</ele>
        <time>2015-10-15T13:36:09Z</time>
      </trkpt>
      <trkpt lat="43.47499" lon="6.89689">
        <ele>331</ele>
        <time>2015-10-15T13:36:12Z</time>
      </trkpt>
      <trkpt lat="43.47494" lon="6.8969">
        <ele>331</ele>
        <time>2015-10-15T13:36:17Z</time>
      </trkpt>
      <trkpt lat="43.47493" lon="6.89693">
        <ele>332</ele>
        <time>2015-10-15T13:36:19Z</time>
      </trkpt>
      <trkpt lat="43.47492" lon="6.89694">
        <ele>332</ele>
        <time>2015-10-15T13:36:20Z</time>
      </trkpt>
      <trkpt lat="43.47488" lon="6.89695">
        <ele>332</ele>
        <time>2015-10-15T13:36:22Z</time>
      </trkpt>
      <trkpt lat="43.47487" lon="6.89694">
        <ele>332</ele>
        <time>2015-10-15T13:36:25Z</time>
      </trkpt>
      <trkpt lat="43.47487" lon="6.8969">
        <ele>333</ele>
        <time>2015-10-15T13:36:37Z</time>
      </trkpt>
      <trkpt lat="43.47489" lon="6.89689">
        <ele>333</ele>
        <time>2015-10-15T13:36:39Z</time>
      </trkpt>
      <trkpt lat="43.47488" lon="6.89686">
        <ele>334</ele>
        <time>2015-10-15T13:36:47Z</time>
      </trkpt>
      <trkpt lat="43.47489" lon="6.89687">
        <ele>335</ele>
        <time>2015-10-15T13:37:20Z</time>
      </trkpt>
      <trkpt lat="43.47494" lon="6.89686">
        <ele>331</ele>
        <time>2015-10-15T13:37:44Z</time>
      </trkpt>
      <trkpt lat="43.47497" lon="6.89685">
        <ele>329</ele>
        <time>2015-10-15T13:37:47Z</time>
      </trkpt>
      <trkpt lat="43.475" lon="6.89683">
        <ele>327</ele>
        <time>2015-10-15T13:37:49Z</time>
      </trkpt>
      <trkpt lat="43.47501" lon="6.8968">
        <ele>326</ele>
        <time>2015-10-15T13:37:51Z</time>
      </trkpt>
      <trkpt lat="43.475" lon="6.89678">
        <ele>326</ele>
        <time>2015-10-15T13:37:52Z</time>
      </trkpt>
      <trkpt lat="43.47506" lon="6.8967">
        <ele>327</ele>
        <time>2015-10-15T13:37:57Z</time>
      </trkpt>
      <trkpt lat="43.47509" lon="6.89669">
        <ele>327</ele>
        <time>2015-10-15T13:37:59Z</time>
      </trkpt>
      <trkpt lat="43.4751" lon="6.89666">
        <ele>326</ele>
        <time>2015-10-15T13:38:02Z</time>
      </trkpt>
      <trkpt lat="43.47511" lon="6.89663">
        <ele>325</ele>
        <time>2015-10-15T13:38:04Z</time>
      </trkpt>
      <trkpt lat="43.47513" lon="6.89661">
        <ele>325</ele>
        <time>2015-10-15T13:38:05Z</time>
      </trkpt>
      <trkpt lat="43.47514" lon="6.89657">
        <ele>325</ele>
        <time>2015-10-15T13:38:07Z</time>
      </trkpt>
      <trkpt lat="43.47518" lon="6.89655">
        <ele>326</ele>
        <time>2015-10-15T13:38:10Z</time>
      </trkpt>
      <trkpt lat="43.47521" lon="6.89646">
        <ele>325</ele>
        <time>2015-10-15T13:38:16Z</time>
      </trkpt>
      <trkpt lat="43.47522" lon="6.89645">
        <ele>325</ele>
        <time>2015-10-15T13:38:17Z</time>
      </trkpt>
      <trkpt lat="43.47529" lon="6.89628">
        <ele>323</ele>
        <time>2015-10-15T13:38:31Z</time>
      </trkpt>
      <trkpt lat="43.47529" lon="6.89625">
        <ele>322</ele>
        <time>2015-10-15T13:38:33Z</time>
      </trkpt>
      <trkpt lat="43.4753" lon="6.89622">
        <ele>322</ele>
        <time>2015-10-15T13:38:35Z</time>
      </trkpt>
      <trkpt lat="43.47531" lon="6.8962">
        <ele>323</ele>
        <time>2015-10-15T13:38:36Z</time>
      </trkpt>
      <trkpt lat="43.47533" lon="6.89619">
        <ele>322</ele>
        <time>2015-10-15T13:38:38Z</time>
      </trkpt>
      <trkpt lat="43.47535" lon="6.89614">
        <ele>321</ele>
        <time>2015-10-15T13:38:41Z</time>
      </trkpt>
      <trkpt lat="43.47537" lon="6.89612">
        <ele>321</ele>
        <time>2015-10-15T13:38:43Z</time>
      </trkpt>
      <trkpt lat="43.47538" lon="6.89608">
        <ele>321</ele>
        <time>2015-10-15T13:38:45Z</time>
      </trkpt>
      <trkpt lat="43.47544" lon="6.89602">
        <ele>321</ele>
        <time>2015-10-15T13:38:50Z</time>
      </trkpt>
      <trkpt lat="43.47545" lon="6.89594">
        <ele>319</ele>
        <time>2015-10-15T13:38:56Z</time>
      </trkpt>
      <trkpt lat="43.47546" lon="6.89592">
        <ele>318</ele>
        <time>2015-10-15T13:38:58Z</time>
      </trkpt>
      <trkpt lat="43.47549" lon="6.89586">
        <ele>318</ele>
        <time>2015-10-15T13:39:01Z</time>
      </trkpt>
      <trkpt lat="43.4755" lon="6.89585">
        <ele>318</ele>
        <time>2015-10-15T13:39:03Z</time>
      </trkpt>
      <trkpt lat="43.47552" lon="6.89582">
        <ele>317</ele>
        <time>2015-10-15T13:39:05Z</time>
      </trkpt>
      <trkpt lat="43.47552" lon="6.89579">
        <ele>317</ele>
        <time>2015-10-15T13:39:06Z</time>
      </trkpt>
      <trkpt lat="43.47551" lon="6.89577">
        <ele>317</ele>
        <time>2015-10-15T13:39:07Z</time>
      </trkpt>
      <trkpt lat="43.47553" lon="6.89571">
        <ele>316</ele>
        <time>2015-10-15T13:39:11Z</time>
      </trkpt>
      <trkpt lat="43.47554" lon="6.89563">
        <ele>316</ele>
        <time>2015-10-15T13:39:18Z</time>
      </trkpt>
      <trkpt lat="43.47555" lon="6.89562">
        <ele>314</ele>
        <time>2015-10-15T13:39:31Z</time>
      </trkpt>
      <trkpt lat="43.47557" lon="6.8956">
        <ele>312</ele>
        <time>2015-10-15T13:39:33Z</time>
      </trkpt>
      <trkpt lat="43.47558" lon="6.89557">
        <ele>311</ele>
        <time>2015-10-15T13:39:35Z</time>
      </trkpt>
      <trkpt lat="43.47564" lon="6.8952">
        <ele>310</ele>
        <time>2015-10-15T13:40:05Z</time>
      </trkpt>
      <trkpt lat="43.47563" lon="6.89521">
        <ele>311</ele>
        <time>2015-10-15T13:40:06Z</time>
      </trkpt>
      <trkpt lat="43.47563" lon="6.89525">
        <ele>310</ele>
        <time>2015-10-15T13:40:08Z</time>
      </trkpt>
      <trkpt lat="43.47557" lon="6.89529">
        <ele>309</ele>
        <time>2015-10-15T13:40:14Z</time>
      </trkpt>
      <trkpt lat="43.47556" lon="6.89532">
        <ele>309</ele>
        <time>2015-10-15T13:40:16Z</time>
      </trkpt>
      <trkpt lat="43.47548" lon="6.89538">
        <ele>307</ele>
        <time>2015-10-15T13:40:25Z</time>
      </trkpt>
      <trkpt lat="43.47546" lon="6.8954">
        <ele>307</ele>
        <time>2015-10-15T13:40:27Z</time>
      </trkpt>
      <trkpt lat="43.47545" lon="6.8954">
        <ele>307</ele>
        <time>2015-10-15T13:40:28Z</time>
      </trkpt>
      <trkpt lat="43.47543" lon="6.89542">
        <ele>307</ele>
        <time>2015-10-15T13:40:30Z</time>
      </trkpt>
      <trkpt lat="43.47543" lon="6.89546">
        <ele>307</ele>
        <time>2015-10-15T13:40:32Z</time>
      </trkpt>
      <trkpt lat="43.47541" lon="6.89547">
        <ele>307</ele>
        <time>2015-10-15T13:40:34Z</time>
      </trkpt>
      <trkpt lat="43.47539" lon="6.89547">
        <ele>307</ele>
        <time>2015-10-15T13:40:35Z</time>
      </trkpt>
      <trkpt lat="43.47533" lon="6.89553">
        <ele>306</ele>
        <time>2015-10-15T13:40:44Z</time>
      </trkpt>
      <trkpt lat="43.4753" lon="6.89553">
        <ele>306</ele>
        <time>2015-10-15T13:40:45Z</time>
      </trkpt>
      <trkpt lat="43.47526" lon="6.89554">
        <ele>305</ele>
        <time>2015-10-15T13:40:48Z</time>
      </trkpt>
      <trkpt lat="43.47504" lon="6.89573">
        <ele>299</ele>
        <time>2015-10-15T13:41:12Z</time>
      </trkpt>
      <trkpt lat="43.47504" lon="6.89576">
        <ele>299</ele>
        <time>2015-10-15T13:41:14Z</time>
      </trkpt>
      <trkpt lat="43.47502" lon="6.8958">
        <ele>298</ele>
        <time>2015-10-15T13:41:16Z</time>
      </trkpt>
      <trkpt lat="43.47498" lon="6.89581">
        <ele>298</ele>
        <time>2015-10-15T13:41:19Z</time>
      </trkpt>
      <trkpt lat="43.47494" lon="6.89581">
        <ele>297</ele>
        <time>2015-10-15T13:41:22Z</time>
      </trkpt>
      <trkpt lat="43.47492" lon="6.89582">
        <ele>297</ele>
        <time>2015-10-15T13:41:24Z</time>
      </trkpt>
      <trkpt lat="43.4749" lon="6.89583">
        <ele>296</ele>
        <time>2015-10-15T13:41:26Z</time>
      </trkpt>
      <trkpt lat="43.47488" lon="6.89583">
        <ele>296</ele>
        <time>2015-10-15T13:41:28Z</time>
      </trkpt>
      <trkpt lat="43.47485" lon="6.8958">
        <ele>297</ele>
        <time>2015-10-15T13:41:31Z</time>
      </trkpt>
      <trkpt lat="43.47473" lon="6.89586">
        <ele>295</ele>
        <time>2015-10-15T13:41:41Z</time>
      </trkpt>
      <trkpt lat="43.47472" lon="6.89588">
        <ele>295</ele>
        <time>2015-10-15T13:41:44Z</time>
      </trkpt>
      <trkpt lat="43.4747" lon="6.89589">
        <ele>295</ele>
        <time>2015-10-15T13:41:46Z</time>
      </trkpt>
      <trkpt lat="43.47468" lon="6.89589">
        <ele>295</ele>
        <time>2015-10-15T13:41:48Z</time>
      </trkpt>
      <trkpt lat="43.47466" lon="6.89592">
        <ele>295</ele>
        <time>2015-10-15T13:41:50Z</time>
      </trkpt>
      <trkpt lat="43.47462" lon="6.89592">
        <ele>295</ele>
        <time>2015-10-15T13:41:52Z</time>
      </trkpt>
      <trkpt lat="43.47461" lon="6.89595">
        <ele>294</ele>
        <time>2015-10-15T13:41:54Z</time>
      </trkpt>
      <trkpt lat="43.47454" lon="6.89605">
        <ele>289</ele>
        <time>2015-10-15T13:42:01Z</time>
      </trkpt>
      <trkpt lat="43.47452" lon="6.89605">
        <ele>287</ele>
        <time>2015-10-15T13:42:03Z</time>
      </trkpt>
      <trkpt lat="43.4745" lon="6.89608">
        <ele>286</ele>
        <time>2015-10-15T13:42:05Z</time>
      </trkpt>
      <trkpt lat="43.47448" lon="6.8961">
        <ele>285</ele>
        <time>2015-10-15T13:42:07Z</time>
      </trkpt>
      <trkpt lat="43.47445" lon="6.8961">
        <ele>284</ele>
        <time>2015-10-15T13:42:09Z</time>
      </trkpt>
      <trkpt lat="43.47418" lon="6.89612">
        <ele>284</ele>
        <time>2015-10-15T13:42:34Z</time>
      </trkpt>
      <trkpt lat="43.47414" lon="6.89613">
        <ele>285</ele>
        <time>2015-10-15T13:42:38Z</time>
      </trkpt>
      <trkpt lat="43.47412" lon="6.89618">
        <ele>285</ele>
        <time>2015-10-15T13:42:40Z</time>
      </trkpt>
      <trkpt lat="43.4741" lon="6.89619">
        <ele>284</ele>
        <time>2015-10-15T13:42:41Z</time>
      </trkpt>
      <trkpt lat="43.47409" lon="6.89622">
        <ele>283</ele>
        <time>2015-10-15T13:42:42Z</time>
      </trkpt>
      <trkpt lat="43.47406" lon="6.89621">
        <ele>284</ele>
        <time>2015-10-15T13:42:44Z</time>
      </trkpt>
      <trkpt lat="43.47405" lon="6.89622">
        <ele>282</ele>
        <time>2015-10-15T13:42:45Z</time>
      </trkpt>
      <trkpt lat="43.47402" lon="6.89624">
        <ele>281</ele>
        <time>2015-10-15T13:42:48Z</time>
      </trkpt>
      <trkpt lat="43.47399" lon="6.89625">
        <ele>282</ele>
        <time>2015-10-15T13:42:51Z</time>
      </trkpt>
      <trkpt lat="43.47396" lon="6.89619">
        <ele>282</ele>
        <time>2015-10-15T13:42:53Z</time>
      </trkpt>
      <trkpt lat="43.47394" lon="6.8962">
        <ele>284</ele>
        <time>2015-10-15T13:42:55Z</time>
      </trkpt>
      <trkpt lat="43.47391" lon="6.89623">
        <ele>284</ele>
        <time>2015-10-15T13:42:57Z</time>
      </trkpt>
      <trkpt lat="43.47391" lon="6.89626">
        <ele>284</ele>
        <time>2015-10-15T13:42:58Z</time>
      </trkpt>
      <trkpt lat="43.47386" lon="6.89629">
        <ele>285</ele>
        <time>2015-10-15T13:43:02Z</time>
      </trkpt>
      <trkpt lat="43.47384" lon="6.89628">
        <ele>285</ele>
        <time>2015-10-15T13:43:04Z</time>
      </trkpt>
      <trkpt lat="43.47382" lon="6.89631">
        <ele>286</ele>
        <time>2015-10-15T13:43:06Z</time>
      </trkpt>
      <trkpt lat="43.47379" lon="6.89631">
        <ele>287</ele>
        <time>2015-10-15T13:43:07Z</time>
      </trkpt>
      <trkpt lat="43.47377" lon="6.89632">
        <ele>287</ele>
        <time>2015-10-15T13:43:08Z</time>
      </trkpt>
      <trkpt lat="43.47374" lon="6.8963">
        <ele>287</ele>
        <time>2015-10-15T13:43:12Z</time>
      </trkpt>
      <trkpt lat="43.47367" lon="6.89619">
        <ele>292</ele>
        <time>2015-10-15T13:43:17Z</time>
      </trkpt>
      <trkpt lat="43.47365" lon="6.89614">
        <ele>293</ele>
        <time>2015-10-15T13:43:19Z</time>
      </trkpt>
      <trkpt lat="43.47363" lon="6.89612">
        <ele>293</ele>
        <time>2015-10-15T13:43:20Z</time>
      </trkpt>
      <trkpt lat="43.47362" lon="6.89609">
        <ele>294</ele>
        <time>2015-10-15T13:43:28Z</time>
      </trkpt>
      <trkpt lat="43.47361" lon="6.89606">
        <ele>295</ele>
        <time>2015-10-15T13:43:29Z</time>
      </trkpt>
      <trkpt lat="43.47358" lon="6.89603">
        <ele>297</ele>
        <time>2015-10-15T13:43:32Z</time>
      </trkpt>
      <trkpt lat="43.47353" lon="6.89602">
        <ele>297</ele>
        <time>2015-10-15T13:43:36Z</time>
      </trkpt>
      <trkpt lat="43.47349" lon="6.896">
        <ele>296</ele>
        <time>2015-10-15T13:43:38Z</time>
      </trkpt>
      <trkpt lat="43.47345" lon="6.89596">
        <ele>296</ele>
        <time>2015-10-15T13:43:40Z</time>
      </trkpt>
      <trkpt lat="43.47341" lon="6.89575">
        <ele>297</ele>
        <time>2015-10-15T13:43:54Z</time>
      </trkpt>
      <trkpt lat="43.47339" lon="6.89574">
        <ele>297</ele>
        <time>2015-10-15T13:43:55Z</time>
      </trkpt>
      <trkpt lat="43.4734" lon="6.89571">
        <ele>297</ele>
        <time>2015-10-15T13:43:56Z</time>
      </trkpt>
      <trkpt lat="43.47339" lon="6.89568">
        <ele>296</ele>
        <time>2015-10-15T13:43:57Z</time>
      </trkpt>
      <trkpt lat="43.47336" lon="6.89567">
        <ele>295</ele>
        <time>2015-10-15T13:43:59Z</time>
      </trkpt>
      <trkpt lat="43.47335" lon="6.89564">
        <ele>295</ele>
        <time>2015-10-15T13:44:01Z</time>
      </trkpt>
      <trkpt lat="43.47332" lon="6.89562">
        <ele>293</ele>
        <time>2015-10-15T13:44:03Z</time>
      </trkpt>
      <trkpt lat="43.4733" lon="6.89559">
        <ele>292</ele>
        <time>2015-10-15T13:44:05Z</time>
      </trkpt>
      <trkpt lat="43.47329" lon="6.89558">
        <ele>292</ele>
        <time>2015-10-15T13:44:07Z</time>
      </trkpt>
      <trkpt lat="43.47325" lon="6.8955">
        <ele>290</ele>
        <time>2015-10-15T13:44:11Z</time>
      </trkpt>
      <trkpt lat="43.47325" lon="6.89547">
        <ele>290</ele>
        <time>2015-10-15T13:44:14Z</time>
      </trkpt>
      <trkpt lat="43.47323" lon="6.89545">
        <ele>291</ele>
        <time>2015-10-15T13:44:17Z</time>
      </trkpt>
      <trkpt lat="43.47321" lon="6.89541">
        <ele>291</ele>
        <time>2015-10-15T13:44:19Z</time>
      </trkpt>
      <trkpt lat="43.4732" lon="6.89541">
        <ele>292</ele>
        <time>2015-10-15T13:44:20Z</time>
      </trkpt>
      <trkpt lat="43.47318" lon="6.89539">
        <ele>294</ele>
        <time>2015-10-15T13:44:22Z</time>
      </trkpt>
      <trkpt lat="43.47317" lon="6.89536">
        <ele>294</ele>
        <time>2015-10-15T13:44:23Z</time>
      </trkpt>
      <trkpt lat="43.47316" lon="6.89534">
        <ele>295</ele>
        <time>2015-10-15T13:44:25Z</time>
      </trkpt>
      <trkpt lat="43.47315" lon="6.89533">
        <ele>296</ele>
        <time>2015-10-15T13:44:27Z</time>
      </trkpt>
      <trkpt lat="43.47313" lon="6.89535">
        <ele>299</ele>
        <time>2015-10-15T13:45:11Z</time>
      </trkpt>
      <trkpt lat="43.47312" lon="6.89537">
        <ele>299</ele>
        <time>2015-10-15T13:45:13Z</time>
      </trkpt>
      <trkpt lat="43.47306" lon="6.8955">
        <ele>301</ele>
        <time>2015-10-15T13:45:24Z</time>
      </trkpt>
      <trkpt lat="43.47305" lon="6.89551">
        <ele>301</ele>
        <time>2015-10-15T13:45:25Z</time>
      </trkpt>
      <trkpt lat="43.47303" lon="6.89554">
        <ele>302</ele>
        <time>2015-10-15T13:45:27Z</time>
      </trkpt>
      <trkpt lat="43.47302" lon="6.89556">
        <ele>302</ele>
        <time>2015-10-15T13:45:29Z</time>
      </trkpt>
      <trkpt lat="43.47295" lon="6.89566">
        <ele>300</ele>
        <time>2015-10-15T13:45:39Z</time>
      </trkpt>
      <trkpt lat="43.47295" lon="6.89567">
        <ele>300</ele>
        <time>2015-10-15T13:45:40Z</time>
      </trkpt>
      <trkpt lat="43.47268" lon="6.89598">
        <ele>295</ele>
        <time>2015-10-15T13:46:10Z</time>
      </trkpt>
      <trkpt lat="43.47267" lon="6.89602">
        <ele>294</ele>
        <time>2015-10-15T13:46:12Z</time>
      </trkpt>
      <trkpt lat="43.47263" lon="6.89606">
        <ele>293</ele>
        <time>2015-10-15T13:46:17Z</time>
      </trkpt>
      <trkpt lat="43.47261" lon="6.89608">
        <ele>293</ele>
        <time>2015-10-15T13:46:19Z</time>
      </trkpt>
      <trkpt lat="43.4726" lon="6.8961">
        <ele>292</ele>
        <time>2015-10-15T13:46:21Z</time>
      </trkpt>
      <trkpt lat="43.47235" lon="6.89641">
        <ele>287</ele>
        <time>2015-10-15T13:46:51Z</time>
      </trkpt>
      <trkpt lat="43.4723" lon="6.89645">
        <ele>287</ele>
        <time>2015-10-15T13:46:55Z</time>
      </trkpt>
      <trkpt lat="43.47229" lon="6.89649">
        <ele>287</ele>
        <time>2015-10-15T13:46:57Z</time>
      </trkpt>
      <trkpt lat="43.47228" lon="6.89649">
        <ele>287</ele>
        <time>2015-10-15T13:46:59Z</time>
      </trkpt>
      <trkpt lat="43.47227" lon="6.89652">
        <ele>286</ele>
        <time>2015-10-15T13:47:01Z</time>
      </trkpt>
      <trkpt lat="43.47201" lon="6.89688">
        <ele>284</ele>
        <time>2015-10-15T13:47:32Z</time>
      </trkpt>
      <trkpt lat="43.47199" lon="6.89694">
        <ele>284</ele>
        <time>2015-10-15T13:47:36Z</time>
      </trkpt>
      <trkpt lat="43.47195" lon="6.89702">
        <ele>283</ele>
        <time>2015-10-15T13:47:42Z</time>
      </trkpt>
      <trkpt lat="43.47189" lon="6.89741">
        <ele>283</ele>
        <time>2015-10-15T13:48:02Z</time>
      </trkpt>
      <trkpt lat="43.47187" lon="6.89741">
        <ele>282</ele>
        <time>2015-10-15T13:48:03Z</time>
      </trkpt>
      <trkpt lat="43.47186" lon="6.89748">
        <ele>283</ele>
        <time>2015-10-15T13:48:07Z</time>
      </trkpt>
      <trkpt lat="43.47186" lon="6.89752">
        <ele>282</ele>
        <time>2015-10-15T13:48:09Z</time>
      </trkpt>
      <trkpt lat="43.47182" lon="6.89756">
        <ele>282</ele>
        <time>2015-10-15T13:48:12Z</time>
      </trkpt>
      <trkpt lat="43.47182" lon="6.89759">
        <ele>284</ele>
        <time>2015-10-15T13:48:14Z</time>
      </trkpt>
      <trkpt lat="43.47182" lon="6.89763">
        <ele>284</ele>
        <time>2015-10-15T13:48:16Z</time>
      </trkpt>
      <trkpt lat="43.47179" lon="6.89768">
        <ele>284</ele>
        <time>2015-10-15T13:48:21Z</time>
      </trkpt>
      <trkpt lat="43.47172" lon="6.89827">
        <ele>277</ele>
        <time>2015-10-15T13:48:51Z</time>
      </trkpt>
      <trkpt lat="43.47177" lon="6.89843">
        <ele>276</ele>
        <time>2015-10-15T13:48:58Z</time>
      </trkpt>
      <trkpt lat="43.47181" lon="6.89843">
        <ele>274</ele>
        <time>2015-10-15T13:49:01Z</time>
      </trkpt>
      <trkpt lat="43.47185" lon="6.89845">
        <ele>273</ele>
        <time>2015-10-15T13:49:04Z</time>
      </trkpt>
      <trkpt lat="43.4719" lon="6.89849">
        <ele>271</ele>
        <time>2015-10-15T13:49:08Z</time>
      </trkpt>
      <trkpt lat="43.47191" lon="6.89852">
        <ele>271</ele>
        <time>2015-10-15T13:49:10Z</time>
      </trkpt>
      <trkpt lat="43.47194" lon="6.89855">
        <ele>270</ele>
        <time>2015-10-15T13:49:12Z</time>
      </trkpt>
      <trkpt lat="43.47194" lon="6.89858">
        <ele>271</ele>
        <time>2015-10-15T13:49:21Z</time>
      </trkpt>
      <trkpt lat="43.47195" lon="6.89862">
        <ele>276</ele>
        <time>2015-10-15T13:50:03Z</time>
      </trkpt>
      <trkpt lat="43.472" lon="6.89861">
        <ele>276</ele>
        <time>2015-10-15T13:50:08Z</time>
      </trkpt>
      <trkpt lat="43.47228" lon="6.89876">
        <ele>274</ele>
        <time>2015-10-15T13:50:38Z</time>
      </trkpt>
      <trkpt lat="43.47233" lon="6.89879">
        <ele>273</ele>
        <time>2015-10-15T13:50:43Z</time>
      </trkpt>
      <trkpt lat="43.47241" lon="6.89882">
        <ele>274</ele>
        <time>2015-10-15T13:50:51Z</time>
      </trkpt>
      <trkpt lat="43.47242" lon="6.89881">
        <ele>274</ele>
        <time>2015-10-15T13:50:52Z</time>
      </trkpt>
      <trkpt lat="43.47244" lon="6.89883">
        <ele>274</ele>
        <time>2015-10-15T13:50:54Z</time>
      </trkpt>
      <trkpt lat="43.47248" lon="6.89883">
        <ele>273</ele>
        <time>2015-10-15T13:50:58Z</time>
      </trkpt>
      <trkpt lat="43.4725" lon="6.89885">
        <ele>273</ele>
        <time>2015-10-15T13:51:00Z</time>
      </trkpt>
      <trkpt lat="43.47252" lon="6.89888">
        <ele>273</ele>
        <time>2015-10-15T13:51:03Z</time>
      </trkpt>
      <trkpt lat="43.47254" lon="6.89895">
        <ele>273</ele>
        <time>2015-10-15T13:51:08Z</time>
      </trkpt>
      <trkpt lat="43.47268" lon="6.89908">
        <ele>274</ele>
        <time>2015-10-15T13:51:23Z</time>
      </trkpt>
      <trkpt lat="43.47273" lon="6.89928">
        <ele>276</ele>
        <time>2015-10-15T13:51:36Z</time>
      </trkpt>
      <trkpt lat="43.47276" lon="6.89934">
        <ele>275</ele>
        <time>2015-10-15T13:51:42Z</time>
      </trkpt>
      <trkpt lat="43.47276" lon="6.89936">
        <ele>275</ele>
        <time>2015-10-15T13:51:44Z</time>
      </trkpt>
      <trkpt lat="43.47281" lon="6.89944">
        <ele>273</ele>
        <time>2015-10-15T13:51:49Z</time>
      </trkpt>
      <trkpt lat="43.47281" lon="6.89947">
        <ele>273</ele>
        <time>2015-10-15T13:51:50Z</time>
      </trkpt>
      <trkpt lat="43.47287" lon="6.89954">
        <ele>272</ele>
        <time>2015-10-15T13:51:56Z</time>
      </trkpt>
      <trkpt lat="43.47289" lon="6.89957">
        <ele>272</ele>
        <time>2015-10-15T13:51:58Z</time>
      </trkpt>
      <trkpt lat="43.4729" lon="6.89958">
        <ele>272</ele>
        <time>2015-10-15T13:51:59Z</time>
      </trkpt>
      <trkpt lat="43.47289" lon="6.89961">
        <ele>272</ele>
        <time>2015-10-15T13:52:01Z</time>
      </trkpt>
      <trkpt lat="43.4729" lon="6.89968">
        <ele>272</ele>
        <time>2015-10-15T13:52:05Z</time>
      </trkpt>
      <trkpt lat="43.47291" lon="6.8997">
        <ele>272</ele>
        <time>2015-10-15T13:52:06Z</time>
      </trkpt>
      <trkpt lat="43.47292" lon="6.89984">
        <ele>272</ele>
        <time>2015-10-15T13:52:14Z</time>
      </trkpt>
      <trkpt lat="43.47292" lon="6.89992">
        <ele>273</ele>
        <time>2015-10-15T13:52:18Z</time>
      </trkpt>
      <trkpt lat="43.47295" lon="6.90004">
        <ele>271</ele>
        <time>2015-10-15T13:52:25Z</time>
      </trkpt>
      <trkpt lat="43.47301" lon="6.9001">
        <ele>269</ele>
        <time>2015-10-15T13:52:29Z</time>
      </trkpt>
      <trkpt lat="43.47302" lon="6.90015">
        <ele>269</ele>
        <time>2015-10-15T13:52:31Z</time>
      </trkpt>
      <trkpt lat="43.47303" lon="6.90017">
        <ele>268</ele>
        <time>2015-10-15T13:52:32Z</time>
      </trkpt>
      <trkpt lat="43.47304" lon="6.90019">
        <ele>267</ele>
        <time>2015-10-15T13:52:34Z</time>
      </trkpt>
      <trkpt lat="43.47313" lon="6.90046">
        <ele>266</ele>
        <time>2015-10-15T13:52:52Z</time>
      </trkpt>
      <trkpt lat="43.47322" lon="6.90052">
        <ele>269</ele>
        <time>2015-10-15T13:53:01Z</time>
      </trkpt>
      <trkpt lat="43.47325" lon="6.90051">
        <ele>270</ele>
        <time>2015-10-15T13:53:03Z</time>
      </trkpt>
      <trkpt lat="43.47332" lon="6.90066">
        <ele>271</ele>
        <time>2015-10-15T13:53:13Z</time>
      </trkpt>
      <trkpt lat="43.47329" lon="6.90074">
        <ele>272</ele>
        <time>2015-10-15T13:53:18Z</time>
      </trkpt>
      <trkpt lat="43.47327" lon="6.9009">
        <ele>269</ele>
        <time>2015-10-15T13:53:27Z</time>
      </trkpt>
      <trkpt lat="43.47329" lon="6.90098">
        <ele>271</ele>
        <time>2015-10-15T13:53:32Z</time>
      </trkpt>
      <trkpt lat="43.47337" lon="6.9011">
        <ele>270</ele>
        <time>2015-10-15T13:53:41Z</time>
      </trkpt>
      <trkpt lat="43.47336" lon="6.90112">
        <ele>270</ele>
        <time>2015-10-15T13:53:42Z</time>
      </trkpt>
      <trkpt lat="43.47338" lon="6.90118">
        <ele>271</ele>
        <time>2015-10-15T13:53:45Z</time>
      </trkpt>
      <trkpt lat="43.47346" lon="6.90135">
        <ele>276</ele>
        <time>2015-10-15T13:54:02Z</time>
      </trkpt>
      <trkpt lat="43.47346" lon="6.90139">
        <ele>275</ele>
        <time>2015-10-15T13:54:05Z</time>
      </trkpt>
      <trkpt lat="43.47343" lon="6.90139">
        <ele>275</ele>
        <time>2015-10-15T13:54:07Z</time>
      </trkpt>
      <trkpt lat="43.47341" lon="6.9014">
        <ele>275</ele>
        <time>2015-10-15T13:54:10Z</time>
      </trkpt>
      <trkpt lat="43.47338" lon="6.90141">
        <ele>272</ele>
        <time>2015-10-15T13:54:15Z</time>
      </trkpt>
      <trkpt lat="43.47337" lon="6.90138">
        <ele>272</ele>
        <time>2015-10-15T13:54:16Z</time>
      </trkpt>
      <trkpt lat="43.47335" lon="6.90138">
        <ele>272</ele>
        <time>2015-10-15T13:54:17Z</time>
      </trkpt>
      <trkpt lat="43.47331" lon="6.9014">
        <ele>272</ele>
        <time>2015-10-15T13:54:20Z</time>
      </trkpt>
      <trkpt lat="43.47329" lon="6.90141">
        <ele>271</ele>
        <time>2015-10-15T13:54:22Z</time>
      </trkpt>
      <trkpt lat="43.47326" lon="6.90142">
        <ele>271</ele>
        <time>2015-10-15T13:54:24Z</time>
      </trkpt>
      <trkpt lat="43.47324" lon="6.90143">
        <ele>271</ele>
        <time>2015-10-15T13:54:26Z</time>
      </trkpt>
      <trkpt lat="43.47318" lon="6.90144">
        <ele>271</ele>
        <time>2015-10-15T13:54:30Z</time>
      </trkpt>
      <trkpt lat="43.47317" lon="6.90147">
        <ele>270</ele>
        <time>2015-10-15T13:54:32Z</time>
      </trkpt>
      <trkpt lat="43.47314" lon="6.90146">
        <ele>270</ele>
        <time>2015-10-15T13:54:33Z</time>
      </trkpt>
      <trkpt lat="43.47312" lon="6.90148">
        <ele>269</ele>
        <time>2015-10-15T13:54:35Z</time>
      </trkpt>
      <trkpt lat="43.4731" lon="6.90148">
        <ele>268</ele>
        <time>2015-10-15T13:54:36Z</time>
      </trkpt>
      <trkpt lat="43.47309" lon="6.90152">
        <ele>268</ele>
        <time>2015-10-15T13:54:38Z</time>
      </trkpt>
      <trkpt lat="43.47305" lon="6.90166">
        <ele>268</ele>
        <time>2015-10-15T13:54:45Z</time>
      </trkpt>
      <trkpt lat="43.47302" lon="6.90167">
        <ele>268</ele>
        <time>2015-10-15T13:54:48Z</time>
      </trkpt>
      <trkpt lat="43.473" lon="6.90165">
        <ele>267</ele>
        <time>2015-10-15T13:54:52Z</time>
      </trkpt>
      <trkpt lat="43.47296" lon="6.90163">
        <ele>263</ele>
        <time>2015-10-15T13:54:56Z</time>
      </trkpt>
      <trkpt lat="43.47293" lon="6.90162">
        <ele>261</ele>
        <time>2015-10-15T13:54:59Z</time>
      </trkpt>
      <trkpt lat="43.47291" lon="6.9016">
        <ele>261</ele>
        <time>2015-10-15T13:55:00Z</time>
      </trkpt>
      <trkpt lat="43.47273" lon="6.90162">
        <ele>261</ele>
        <time>2015-10-15T13:55:11Z</time>
      </trkpt>
      <trkpt lat="43.47272" lon="6.90164">
        <ele>261</ele>
        <time>2015-10-15T13:55:12Z</time>
      </trkpt>
      <trkpt lat="43.47271" lon="6.90166">
        <ele>260</ele>
        <time>2015-10-15T13:55:13Z</time>
      </trkpt>
      <trkpt lat="43.47269" lon="6.90168">
        <ele>260</ele>
        <time>2015-10-15T13:55:15Z</time>
      </trkpt>
      <trkpt lat="43.47266" lon="6.90168">
        <ele>261</ele>
        <time>2015-10-15T13:55:17Z</time>
      </trkpt>
      <trkpt lat="43.47251" lon="6.90174">
        <ele>261</ele>
        <time>2015-10-15T13:55:28Z</time>
      </trkpt>
      <trkpt lat="43.47248" lon="6.90173">
        <ele>261</ele>
        <time>2015-10-15T13:55:30Z</time>
      </trkpt>
      <trkpt lat="43.47215" lon="6.902">
        <ele>259</ele>
        <time>2015-10-15T13:56:01Z</time>
      </trkpt>
      <trkpt lat="43.47213" lon="6.90202">
        <ele>259</ele>
        <time>2015-10-15T13:56:03Z</time>
      </trkpt>
      <trkpt lat="43.47209" lon="6.90204">
        <ele>260</ele>
        <time>2015-10-15T13:56:06Z</time>
      </trkpt>
      <trkpt lat="43.47207" lon="6.90207">
        <ele>262</ele>
        <time>2015-10-15T13:56:08Z</time>
      </trkpt>
      <trkpt lat="43.47204" lon="6.90209">
        <ele>262</ele>
        <time>2015-10-15T13:56:10Z</time>
      </trkpt>
      <trkpt lat="43.472" lon="6.90214">
        <ele>265</ele>
        <time>2015-10-15T13:56:14Z</time>
      </trkpt>
      <trkpt lat="43.47199" lon="6.90219">
        <ele>264</ele>
        <time>2015-10-15T13:56:16Z</time>
      </trkpt>
      <trkpt lat="43.47197" lon="6.90221">
        <ele>264</ele>
        <time>2015-10-15T13:56:18Z</time>
      </trkpt>
      <trkpt lat="43.47193" lon="6.90235">
        <ele>263</ele>
        <time>2015-10-15T13:56:26Z</time>
      </trkpt>
      <trkpt lat="43.47193" lon="6.90238">
        <ele>263</ele>
        <time>2015-10-15T13:56:27Z</time>
      </trkpt>
      <trkpt lat="43.47193" lon="6.9024">
        <ele>263</ele>
        <time>2015-10-15T13:56:28Z</time>
      </trkpt>
      <trkpt lat="43.47192" lon="6.90241">
        <ele>263</ele>
        <time>2015-10-15T13:56:29Z</time>
      </trkpt>
      <trkpt lat="43.47188" lon="6.90269">
        <ele>265</ele>
        <time>2015-10-15T13:56:44Z</time>
      </trkpt>
      <trkpt lat="43.47189" lon="6.90273">
        <ele>265</ele>
        <time>2015-10-15T13:56:46Z</time>
      </trkpt>
      <trkpt lat="43.47188" lon="6.90275">
        <ele>265</ele>
        <time>2015-10-15T13:56:47Z</time>
      </trkpt>
      <trkpt lat="43.47187" lon="6.90281">
        <ele>266</ele>
        <time>2015-10-15T13:56:50Z</time>
      </trkpt>
      <trkpt lat="43.47188" lon="6.90283">
        <ele>266</ele>
        <time>2015-10-15T13:56:51Z</time>
      </trkpt>
      <trkpt lat="43.47187" lon="6.90288">
        <ele>267</ele>
        <time>2015-10-15T13:56:53Z</time>
      </trkpt>
      <trkpt lat="43.47189" lon="6.90291">
        <ele>267</ele>
        <time>2015-10-15T13:56:54Z</time>
      </trkpt>
      <trkpt lat="43.47188" lon="6.90295">
        <ele>266</ele>
        <time>2015-10-15T13:56:56Z</time>
      </trkpt>
      <trkpt lat="43.47189" lon="6.90298">
        <ele>265</ele>
        <time>2015-10-15T13:56:58Z</time>
      </trkpt>
      <trkpt lat="43.47192" lon="6.90319">
        <ele>268</ele>
        <time>2015-10-15T13:57:10Z</time>
      </trkpt>
      <trkpt lat="43.47194" lon="6.90321">
        <ele>268</ele>
        <time>2015-10-15T13:57:11Z</time>
      </trkpt>
      <trkpt lat="43.47194" lon="6.90325">
        <ele>268</ele>
        <time>2015-10-15T13:57:13Z</time>
      </trkpt>
      <trkpt lat="43.47192" lon="6.90332">
        <ele>269</ele>
        <time>2015-10-15T13:57:17Z</time>
      </trkpt>
      <trkpt lat="43.47197" lon="6.90347">
        <ele>267</ele>
        <time>2015-10-15T13:57:25Z</time>
      </trkpt>
      <trkpt lat="43.47199" lon="6.9035">
        <ele>266</ele>
        <time>2015-10-15T13:57:27Z</time>
      </trkpt>
      <trkpt lat="43.47198" lon="6.90359">
        <ele>269</ele>
        <time>2015-10-15T13:57:31Z</time>
      </trkpt>
      <trkpt lat="43.47198" lon="6.90366">
        <ele>270</ele>
        <time>2015-10-15T13:57:35Z</time>
      </trkpt>
      <trkpt lat="43.47197" lon="6.90369">
        <ele>270</ele>
        <time>2015-10-15T13:57:37Z</time>
      </trkpt>
      <trkpt lat="43.47195" lon="6.90371">
        <ele>271</ele>
        <time>2015-10-15T13:57:39Z</time>
      </trkpt>
      <trkpt lat="43.47195" lon="6.90374">
        <ele>271</ele>
        <time>2015-10-15T13:57:40Z</time>
      </trkpt>
      <trkpt lat="43.47193" lon="6.90378">
        <ele>271</ele>
        <time>2015-10-15T13:57:43Z</time>
      </trkpt>
      <trkpt lat="43.47191" lon="6.90379">
        <ele>271</ele>
        <time>2015-10-15T13:57:45Z</time>
      </trkpt>
      <trkpt lat="43.4719" lon="6.90381">
        <ele>271</ele>
        <time>2015-10-15T13:57:47Z</time>
      </trkpt>
      <trkpt lat="43.4719" lon="6.90384">
        <ele>271</ele>
        <time>2015-10-15T13:57:48Z</time>
      </trkpt>
      <trkpt lat="43.47188" lon="6.90388">
        <ele>271</ele>
        <time>2015-10-15T13:57:50Z</time>
      </trkpt>
      <trkpt lat="43.47186" lon="6.90449">
        <ele>265</ele>
        <time>2015-10-15T13:58:20Z</time>
      </trkpt>
      <trkpt lat="43.47209" lon="6.90499">
        <ele>262</ele>
        <time>2015-10-15T13:58:51Z</time>
      </trkpt>
      <trkpt lat="43.47213" lon="6.90509">
        <ele>261</ele>
        <time>2015-10-15T13:58:56Z</time>
      </trkpt>
      <trkpt lat="43.47214" lon="6.9051">
        <ele>260</ele>
        <time>2015-10-15T13:58:57Z</time>
      </trkpt>
      <trkpt lat="43.47219" lon="6.90521">
        <ele>260</ele>
        <time>2015-10-15T13:59:03Z</time>
      </trkpt>
      <trkpt lat="43.47221" lon="6.90522">
        <ele>260</ele>
        <time>2015-10-15T13:59:05Z</time>
      </trkpt>
      <trkpt lat="43.47231" lon="6.9054">
        <ele>260</ele>
        <time>2015-10-15T13:59:17Z</time>
      </trkpt>
      <trkpt lat="43.47232" lon="6.90548">
        <ele>261</ele>
        <time>2015-10-15T13:59:22Z</time>
      </trkpt>
      <trkpt lat="43.47233" lon="6.9055">
        <ele>262</ele>
        <time>2015-10-15T13:59:25Z</time>
      </trkpt>
      <trkpt lat="43.47238" lon="6.90563">
        <ele>266</ele>
        <time>2015-10-15T13:59:35Z</time>
      </trkpt>
      <trkpt lat="43.47237" lon="6.90568">
        <ele>267</ele>
        <time>2015-10-15T13:59:37Z</time>
      </trkpt>
      <trkpt lat="43.47241" lon="6.90575">
        <ele>269</ele>
        <time>2015-10-15T13:59:42Z</time>
      </trkpt>
      <trkpt lat="43.4724" lon="6.90578">
        <ele>270</ele>
        <time>2015-10-15T13:59:44Z</time>
      </trkpt>
      <trkpt lat="43.4724" lon="6.90582">
        <ele>272</ele>
        <time>2015-10-15T13:59:46Z</time>
      </trkpt>
      <trkpt lat="43.47253" lon="6.90613">
        <ele>270</ele>
        <time>2015-10-15T14:00:04Z</time>
      </trkpt>
      <trkpt lat="43.47251" lon="6.90616">
        <ele>270</ele>
        <time>2015-10-15T14:00:06Z</time>
      </trkpt>
      <trkpt lat="43.4725" lon="6.90618">
        <ele>268</ele>
        <time>2015-10-15T14:00:09Z</time>
      </trkpt>
      <trkpt lat="43.47248" lon="6.90619">
        <ele>267</ele>
        <time>2015-10-15T14:00:13Z</time>
      </trkpt>
      <trkpt lat="43.47246" lon="6.9062">
        <ele>267</ele>
        <time>2015-10-15T14:00:14Z</time>
      </trkpt>
      <trkpt lat="43.47237" lon="6.90624">
        <ele>264</ele>
        <time>2015-10-15T14:00:21Z</time>
      </trkpt>
      <trkpt lat="43.47235" lon="6.90624">
        <ele>263</ele>
        <time>2015-10-15T14:00:23Z</time>
      </trkpt>
      <trkpt lat="43.4723" lon="6.90629">
        <ele>263</ele>
        <time>2015-10-15T14:00:27Z</time>
      </trkpt>
      <trkpt lat="43.47224" lon="6.90631">
        <ele>263</ele>
        <time>2015-10-15T14:00:32Z</time>
      </trkpt>
      <trkpt lat="43.47219" lon="6.90628">
        <ele>263</ele>
        <time>2015-10-15T14:00:35Z</time>
      </trkpt>
      <trkpt lat="43.47213" lon="6.90627">
        <ele>263</ele>
        <time>2015-10-15T14:00:39Z</time>
      </trkpt>
      <trkpt lat="43.47207" lon="6.90636">
        <ele>263</ele>
        <time>2015-10-15T14:00:45Z</time>
      </trkpt>
      <trkpt lat="43.47201" lon="6.90635">
        <ele>263</ele>
        <time>2015-10-15T14:00:49Z</time>
      </trkpt>
      <trkpt lat="43.47199" lon="6.90634">
        <ele>264</ele>
        <time>2015-10-15T14:00:52Z</time>
      </trkpt>
      <trkpt lat="43.47197" lon="6.90636">
        <ele>265</ele>
        <time>2015-10-15T14:00:54Z</time>
      </trkpt>
      <trkpt lat="43.4718" lon="6.90643">
        <ele>263</ele>
        <time>2015-10-15T14:01:06Z</time>
      </trkpt>
      <trkpt lat="43.47174" lon="6.90648">
        <ele>261</ele>
        <time>2015-10-15T14:01:12Z</time>
      </trkpt>
      <trkpt lat="43.47169" lon="6.90647">
        <ele>262</ele>
        <time>2015-10-15T14:01:16Z</time>
      </trkpt>
      <trkpt lat="43.47163" lon="6.9065">
        <ele>263</ele>
        <time>2015-10-15T14:01:19Z</time>
      </trkpt>
      <trkpt lat="43.47161" lon="6.90654">
        <ele>264</ele>
        <time>2015-10-15T14:01:20Z</time>
      </trkpt>
      <trkpt lat="43.47158" lon="6.90653">
        <ele>266</ele>
        <time>2015-10-15T14:01:24Z</time>
      </trkpt>
      <trkpt lat="43.47156" lon="6.90651">
        <ele>266</ele>
        <time>2015-10-15T14:01:25Z</time>
      </trkpt>
      <trkpt lat="43.47155" lon="6.90651">
        <ele>268</ele>
        <time>2015-10-15T14:01:26Z</time>
      </trkpt>
      <trkpt lat="43.4714" lon="6.9066">
        <ele>264</ele>
        <time>2015-10-15T14:01:38Z</time>
      </trkpt>
      <trkpt lat="43.47135" lon="6.9066">
        <ele>263</ele>
        <time>2015-10-15T14:01:40Z</time>
      </trkpt>
      <trkpt lat="43.47134" lon="6.90662">
        <ele>263</ele>
        <time>2015-10-15T14:01:41Z</time>
      </trkpt>
      <trkpt lat="43.47132" lon="6.90663">
        <ele>262</ele>
        <time>2015-10-15T14:01:43Z</time>
      </trkpt>
      <trkpt lat="43.47129" lon="6.90663">
        <ele>262</ele>
        <time>2015-10-15T14:01:45Z</time>
      </trkpt>
      <trkpt lat="43.47127" lon="6.90665">
        <ele>262</ele>
        <time>2015-10-15T14:01:47Z</time>
      </trkpt>
      <trkpt lat="43.47125" lon="6.90664">
        <ele>262</ele>
        <time>2015-10-15T14:01:49Z</time>
      </trkpt>
      <trkpt lat="43.47122" lon="6.90663">
        <ele>262</ele>
        <time>2015-10-15T14:01:51Z</time>
      </trkpt>
      <trkpt lat="43.47109" lon="6.9067">
        <ele>261</ele>
        <time>2015-10-15T14:02:01Z</time>
      </trkpt>
      <trkpt lat="43.47108" lon="6.90677">
        <ele>261</ele>
        <time>2015-10-15T14:02:03Z</time>
      </trkpt>
      <trkpt lat="43.47104" lon="6.90682">
        <ele>258</ele>
        <time>2015-10-15T14:02:07Z</time>
      </trkpt>
      <trkpt lat="43.47102" lon="6.90683">
        <ele>258</ele>
        <time>2015-10-15T14:02:08Z</time>
      </trkpt>
      <trkpt lat="43.471" lon="6.90688">
        <ele>256</ele>
        <time>2015-10-15T14:02:11Z</time>
      </trkpt>
      <trkpt lat="43.47093" lon="6.90699">
        <ele>254</ele>
        <time>2015-10-15T14:02:19Z</time>
      </trkpt>
      <trkpt lat="43.47091" lon="6.90699">
        <ele>254</ele>
        <time>2015-10-15T14:02:20Z</time>
      </trkpt>
      <trkpt lat="43.47086" lon="6.90707">
        <ele>254</ele>
        <time>2015-10-15T14:02:25Z</time>
      </trkpt>
      <trkpt lat="43.47085" lon="6.90709">
        <ele>254</ele>
        <time>2015-10-15T14:02:27Z</time>
      </trkpt>
      <trkpt lat="43.47082" lon="6.90713">
        <ele>256</ele>
        <time>2015-10-15T14:02:30Z</time>
      </trkpt>
      <trkpt lat="43.47082" lon="6.90716">
        <ele>256</ele>
        <time>2015-10-15T14:02:31Z</time>
      </trkpt>
      <trkpt lat="43.47059" lon="6.90765">
        <ele>261</ele>
        <time>2015-10-15T14:03:02Z</time>
      </trkpt>
      <trkpt lat="43.47058" lon="6.90767">
        <ele>261</ele>
        <time>2015-10-15T14:03:03Z</time>
      </trkpt>
      <trkpt lat="43.47057" lon="6.90769">
        <ele>261</ele>
        <time>2015-10-15T14:03:04Z</time>
      </trkpt>
      <trkpt lat="43.47054" lon="6.90782">
        <ele>261</ele>
        <time>2015-10-15T14:03:09Z</time>
      </trkpt>
      <trkpt lat="43.47052" lon="6.90782">
        <ele>261</ele>
        <time>2015-10-15T14:03:11Z</time>
      </trkpt>
      <trkpt lat="43.4705" lon="6.90783">
        <ele>261</ele>
        <time>2015-10-15T14:03:13Z</time>
      </trkpt>
      <trkpt lat="43.47049" lon="6.90786">
        <ele>262</ele>
        <time>2015-10-15T14:03:14Z</time>
      </trkpt>
      <trkpt lat="43.47045" lon="6.90796">
        <ele>264</ele>
        <time>2015-10-15T14:03:20Z</time>
      </trkpt>
      <trkpt lat="43.47042" lon="6.90797">
        <ele>264</ele>
        <time>2015-10-15T14:03:22Z</time>
      </trkpt>
      <trkpt lat="43.47041" lon="6.908">
        <ele>264</ele>
        <time>2015-10-15T14:03:23Z</time>
      </trkpt>
      <trkpt lat="43.47039" lon="6.908">
        <ele>264</ele>
        <time>2015-10-15T14:03:24Z</time>
      </trkpt>
      <trkpt lat="43.47038" lon="6.90803">
        <ele>265</ele>
        <time>2015-10-15T14:03:26Z</time>
      </trkpt>
      <trkpt lat="43.47035" lon="6.90805">
        <ele>265</ele>
        <time>2015-10-15T14:03:28Z</time>
      </trkpt>
      <trkpt lat="43.47014" lon="6.90856">
        <ele>266</ele>
        <time>2015-10-15T14:03:58Z</time>
      </trkpt>
      <trkpt lat="43.47" lon="6.9088">
        <ele>264</ele>
        <time>2015-10-15T14:04:16Z</time>
      </trkpt>
      <trkpt lat="43.46999" lon="6.9088">
        <ele>262</ele>
        <time>2015-10-15T14:04:45Z</time>
      </trkpt>
      <trkpt lat="43.46999" lon="6.90883">
        <ele>260</ele>
        <time>2015-10-15T14:06:17Z</time>
      </trkpt>
      <trkpt lat="43.47001" lon="6.90887">
        <ele>260</ele>
        <time>2015-10-15T14:06:38Z</time>
      </trkpt>
      <trkpt lat="43.47002" lon="6.90889">
        <ele>260</ele>
        <time>2015-10-15T14:06:40Z</time>
      </trkpt>
      <trkpt lat="43.47018" lon="6.90923">
        <ele>257</ele>
        <time>2015-10-15T14:07:10Z</time>
      </trkpt>
      <trkpt lat="43.47028" lon="6.90952">
        <ele>254</ele>
        <time>2015-10-15T14:07:25Z</time>
      </trkpt>
      <trkpt lat="43.4703" lon="6.90952">
        <ele>253</ele>
        <time>2015-10-15T14:07:26Z</time>
      </trkpt>
      <trkpt lat="43.47031" lon="6.90954">
        <ele>252</ele>
        <time>2015-10-15T14:07:29Z</time>
      </trkpt>
      <trkpt lat="43.47032" lon="6.90959">
        <ele>252</ele>
        <time>2015-10-15T14:07:33Z</time>
      </trkpt>
      <trkpt lat="43.47038" lon="6.90961">
        <ele>249</ele>
        <time>2015-10-15T14:07:40Z</time>
      </trkpt>
      <trkpt lat="43.47042" lon="6.90976">
        <ele>244</ele>
        <time>2015-10-15T14:07:48Z</time>
      </trkpt>
      <trkpt lat="43.47044" lon="6.90977">
        <ele>244</ele>
        <time>2015-10-15T14:07:50Z</time>
      </trkpt>
      <trkpt lat="43.47048" lon="6.90992">
        <ele>246</ele>
        <time>2015-10-15T14:07:58Z</time>
      </trkpt>
      <trkpt lat="43.47047" lon="6.90996">
        <ele>246</ele>
        <time>2015-10-15T14:08:00Z</time>
      </trkpt>
      <trkpt lat="43.47051" lon="6.91">
        <ele>244</ele>
        <time>2015-10-15T14:08:04Z</time>
      </trkpt>
      <trkpt lat="43.47058" lon="6.91017">
        <ele>243</ele>
        <time>2015-10-15T14:08:16Z</time>
      </trkpt>
      <trkpt lat="43.47059" lon="6.91025">
        <ele>241</ele>
        <time>2015-10-15T14:08:21Z</time>
      </trkpt>
      <trkpt lat="43.47061" lon="6.91026">
        <ele>240</ele>
        <time>2015-10-15T14:08:24Z</time>
      </trkpt>
      <trkpt lat="43.47064" lon="6.91033">
        <ele>239</ele>
        <time>2015-10-15T14:08:29Z</time>
      </trkpt>
      <trkpt lat="43.47064" lon="6.91035">
        <ele>239</ele>
        <time>2015-10-15T14:08:33Z</time>
      </trkpt>
      <trkpt lat="43.47067" lon="6.91045">
        <ele>237</ele>
        <time>2015-10-15T14:08:40Z</time>
      </trkpt>
      <trkpt lat="43.47074" lon="6.9106">
        <ele>233</ele>
        <time>2015-10-15T14:08:51Z</time>
      </trkpt>
      <trkpt lat="43.47089" lon="6.91102">
        <ele>228</ele>
        <time>2015-10-15T14:09:21Z</time>
      </trkpt>
      <trkpt lat="43.4709" lon="6.91104">
        <ele>229</ele>
        <time>2015-10-15T14:09:22Z</time>
      </trkpt>
      <trkpt lat="43.47097" lon="6.91127">
        <ele>226</ele>
        <time>2015-10-15T14:09:37Z</time>
      </trkpt>
      <trkpt lat="43.47101" lon="6.91131">
        <ele>224</ele>
        <time>2015-10-15T14:09:41Z</time>
      </trkpt>
      <trkpt lat="43.47102" lon="6.91135">
        <ele>223</ele>
        <time>2015-10-15T14:09:43Z</time>
      </trkpt>
      <trkpt lat="43.47102" lon="6.91137">
        <ele>223</ele>
        <time>2015-10-15T14:09:44Z</time>
      </trkpt>
      <trkpt lat="43.47104" lon="6.91141">
        <ele>224</ele>
        <time>2015-10-15T14:09:48Z</time>
      </trkpt>
      <trkpt lat="43.47105" lon="6.91141">
        <ele>223</ele>
        <time>2015-10-15T14:09:49Z</time>
      </trkpt>
      <trkpt lat="43.47107" lon="6.91143">
        <ele>222</ele>
        <time>2015-10-15T14:09:51Z</time>
      </trkpt>
      <trkpt lat="43.47117" lon="6.9117">
        <ele>222</ele>
        <time>2015-10-15T14:10:17Z</time>
      </trkpt>
      <trkpt lat="43.47118" lon="6.91179">
        <ele>220</ele>
        <time>2015-10-15T14:10:23Z</time>
      </trkpt>
      <trkpt lat="43.47137" lon="6.91207">
        <ele>215</ele>
        <time>2015-10-15T14:10:48Z</time>
      </trkpt>
      <trkpt lat="43.47141" lon="6.91208">
        <ele>215</ele>
        <time>2015-10-15T14:10:52Z</time>
      </trkpt>
      <trkpt lat="43.47152" lon="6.91204">
        <ele>212</ele>
        <time>2015-10-15T14:11:03Z</time>
      </trkpt>
      <trkpt lat="43.47156" lon="6.91207">
        <ele>212</ele>
        <time>2015-10-15T14:11:11Z</time>
      </trkpt>
      <trkpt lat="43.47164" lon="6.91206">
        <ele>212</ele>
        <time>2015-10-15T14:11:18Z</time>
      </trkpt>
      <trkpt lat="43.47165" lon="6.91205">
        <ele>212</ele>
        <time>2015-10-15T14:11:23Z</time>
      </trkpt>
      <trkpt lat="43.47178" lon="6.91206">
        <ele>213</ele>
        <time>2015-10-15T14:11:34Z</time>
      </trkpt>
      <trkpt lat="43.47186" lon="6.91206">
        <ele>212</ele>
        <time>2015-10-15T14:11:41Z</time>
      </trkpt>
      <trkpt lat="43.47188" lon="6.91205">
        <ele>212</ele>
        <time>2015-10-15T14:11:43Z</time>
      </trkpt>
      <trkpt lat="43.47193" lon="6.91206">
        <ele>212</ele>
        <time>2015-10-15T14:11:47Z</time>
      </trkpt>
      <trkpt lat="43.47195" lon="6.91204">
        <ele>212</ele>
        <time>2015-10-15T14:11:49Z</time>
      </trkpt>
      <trkpt lat="43.47217" lon="6.91193">
        <ele>204</ele>
        <time>2015-10-15T14:12:15Z</time>
      </trkpt>
      <trkpt lat="43.47232" lon="6.91188">
        <ele>200</ele>
        <time>2015-10-15T14:12:42Z</time>
      </trkpt>
      <trkpt lat="43.47233" lon="6.9119">
        <ele>200</ele>
        <time>2015-10-15T14:12:44Z</time>
      </trkpt>
      <trkpt lat="43.4724" lon="6.91198">
        <ele>198</ele>
        <time>2015-10-15T14:13:01Z</time>
      </trkpt>
      <trkpt lat="43.4724" lon="6.91205">
        <ele>199</ele>
        <time>2015-10-15T14:13:08Z</time>
      </trkpt>
      <trkpt lat="43.4724" lon="6.91218">
        <ele>199</ele>
        <time>2015-10-15T14:13:19Z</time>
      </trkpt>
      <trkpt lat="43.47239" lon="6.9122">
        <ele>199</ele>
        <time>2015-10-15T14:13:20Z</time>
      </trkpt>
      <trkpt lat="43.47241" lon="6.91222">
        <ele>197</ele>
        <time>2015-10-15T14:13:22Z</time>
      </trkpt>
      <trkpt lat="43.47242" lon="6.91225">
        <ele>196</ele>
        <time>2015-10-15T14:13:24Z</time>
      </trkpt>
      <trkpt lat="43.47242" lon="6.91227">
        <ele>196</ele>
        <time>2015-10-15T14:13:25Z</time>
      </trkpt>
      <trkpt lat="43.4724" lon="6.91258">
        <ele>191</ele>
        <time>2015-10-15T14:13:56Z</time>
      </trkpt>
      <trkpt lat="43.47239" lon="6.9127">
        <ele>185</ele>
        <time>2015-10-15T14:14:06Z</time>
      </trkpt>
      <trkpt lat="43.47241" lon="6.91276">
        <ele>183</ele>
        <time>2015-10-15T14:14:12Z</time>
      </trkpt>
      <trkpt lat="43.47239" lon="6.91282">
        <ele>182</ele>
        <time>2015-10-15T14:14:16Z</time>
      </trkpt>
      <trkpt lat="43.47237" lon="6.91296">
        <ele>178</ele>
        <time>2015-10-15T14:14:27Z</time>
      </trkpt>
      <trkpt lat="43.47237" lon="6.91299">
        <ele>179</ele>
        <time>2015-10-15T14:14:29Z</time>
      </trkpt>
      <trkpt lat="43.47238" lon="6.91302">
        <ele>178</ele>
        <time>2015-10-15T14:14:31Z</time>
      </trkpt>
      <trkpt lat="43.47238" lon="6.91308">
        <ele>177</ele>
        <time>2015-10-15T14:14:36Z</time>
      </trkpt>
      <trkpt lat="43.47237" lon="6.91311">
        <ele>177</ele>
        <time>2015-10-15T14:14:38Z</time>
      </trkpt>
      <trkpt lat="43.47239" lon="6.91312">
        <ele>177</ele>
        <time>2015-10-15T14:14:39Z</time>
      </trkpt>
      <trkpt lat="43.47239" lon="6.91315">
        <ele>176</ele>
        <time>2015-10-15T14:14:40Z</time>
      </trkpt>
      <trkpt lat="43.47242" lon="6.91319">
        <ele>174</ele>
        <time>2015-10-15T14:14:44Z</time>
      </trkpt>
      <trkpt lat="43.47241" lon="6.91328">
        <ele>173</ele>
        <time>2015-10-15T14:14:55Z</time>
      </trkpt>
      <trkpt lat="43.47244" lon="6.9133">
        <ele>172</ele>
        <time>2015-10-15T14:14:57Z</time>
      </trkpt>
      <trkpt lat="43.47245" lon="6.91338">
        <ele>172</ele>
        <time>2015-10-15T14:15:03Z</time>
      </trkpt>
      <trkpt lat="43.47247" lon="6.9134">
        <ele>172</ele>
        <time>2015-10-15T14:15:06Z</time>
      </trkpt>
      <trkpt lat="43.47247" lon="6.91343">
        <ele>172</ele>
        <time>2015-10-15T14:15:08Z</time>
      </trkpt>
      <trkpt lat="43.4725" lon="6.91361">
        <ele>175</ele>
        <time>2015-10-15T14:15:20Z</time>
      </trkpt>
      <trkpt lat="43.47248" lon="6.91362">
        <ele>175</ele>
        <time>2015-10-15T14:15:25Z</time>
      </trkpt>
      <trkpt lat="43.47248" lon="6.91365">
        <ele>177</ele>
        <time>2015-10-15T14:15:27Z</time>
      </trkpt>
      <trkpt lat="43.47247" lon="6.91367">
        <ele>177</ele>
        <time>2015-10-15T14:15:28Z</time>
      </trkpt>
      <trkpt lat="43.47248" lon="6.91373">
        <ele>176</ele>
        <time>2015-10-15T14:15:41Z</time>
      </trkpt>
      <trkpt lat="43.47245" lon="6.91373">
        <ele>174</ele>
        <time>2015-10-15T14:15:44Z</time>
      </trkpt>
      <trkpt lat="43.47242" lon="6.91375">
        <ele>173</ele>
        <time>2015-10-15T14:15:47Z</time>
      </trkpt>
      <trkpt lat="43.47238" lon="6.91375">
        <ele>173</ele>
        <time>2015-10-15T14:15:50Z</time>
      </trkpt>
      <trkpt lat="43.47233" lon="6.91382">
        <ele>168</ele>
        <time>2015-10-15T14:15:57Z</time>
      </trkpt>
      <trkpt lat="43.47219" lon="6.91389">
        <ele>168</ele>
        <time>2015-10-15T14:16:09Z</time>
      </trkpt>
      <trkpt lat="43.47214" lon="6.91401">
        <ele>163</ele>
        <time>2015-10-15T14:16:24Z</time>
      </trkpt>
      <trkpt lat="43.47203" lon="6.91414">
        <ele>156</ele>
        <time>2015-10-15T14:16:38Z</time>
      </trkpt>
      <trkpt lat="43.47199" lon="6.91416">
        <ele>157</ele>
        <time>2015-10-15T14:16:47Z</time>
      </trkpt>
      <trkpt lat="43.47195" lon="6.91422">
        <ele>159</ele>
        <time>2015-10-15T14:16:52Z</time>
      </trkpt>
      <trkpt lat="43.47193" lon="6.91428">
        <ele>159</ele>
        <time>2015-10-15T14:16:56Z</time>
      </trkpt>
      <trkpt lat="43.47191" lon="6.91432">
        <ele>156</ele>
        <time>2015-10-15T14:17:00Z</time>
      </trkpt>
      <trkpt lat="43.47189" lon="6.91434">
        <ele>156</ele>
        <time>2015-10-15T14:17:02Z</time>
      </trkpt>
      <trkpt lat="43.47186" lon="6.91435">
        <ele>156</ele>
        <time>2015-10-15T14:17:04Z</time>
      </trkpt>
      <trkpt lat="43.47184" lon="6.91437">
        <ele>156</ele>
        <time>2015-10-15T14:17:07Z</time>
      </trkpt>
      <trkpt lat="43.47185" lon="6.91442">
        <ele>154</ele>
        <time>2015-10-15T14:17:11Z</time>
      </trkpt>
      <trkpt lat="43.47185" lon="6.91446">
        <ele>153</ele>
        <time>2015-10-15T14:17:13Z</time>
      </trkpt>
      <trkpt lat="43.47185" lon="6.91449">
        <ele>147</ele>
        <time>2015-10-15T14:17:15Z</time>
      </trkpt>
      <trkpt lat="43.4718" lon="6.91456">
        <ele>148</ele>
        <time>2015-10-15T14:17:21Z</time>
      </trkpt>
      <trkpt lat="43.47176" lon="6.91473">
        <ele>146</ele>
        <time>2015-10-15T14:17:31Z</time>
      </trkpt>
      <trkpt lat="43.47174" lon="6.91476">
        <ele>147</ele>
        <time>2015-10-15T14:17:34Z</time>
      </trkpt>
      <trkpt lat="43.47174" lon="6.9148">
        <ele>146</ele>
        <time>2015-10-15T14:17:37Z</time>
      </trkpt>
      <trkpt lat="43.47172" lon="6.91482">
        <ele>145</ele>
        <time>2015-10-15T14:17:39Z</time>
      </trkpt>
      <trkpt lat="43.47171" lon="6.91493">
        <ele>143</ele>
        <time>2015-10-15T14:17:46Z</time>
      </trkpt>
      <trkpt lat="43.47167" lon="6.91504">
        <ele>142</ele>
        <time>2015-10-15T14:17:58Z</time>
      </trkpt>
      <trkpt lat="43.47156" lon="6.91552">
        <ele>139</ele>
        <time>2015-10-15T14:18:28Z</time>
      </trkpt>
      <trkpt lat="43.47155" lon="6.91559">
        <ele>139</ele>
        <time>2015-10-15T14:18:31Z</time>
      </trkpt>
      <trkpt lat="43.47156" lon="6.91562">
        <ele>139</ele>
        <time>2015-10-15T14:18:33Z</time>
      </trkpt>
      <trkpt lat="43.47161" lon="6.91566">
        <ele>140</ele>
        <time>2015-10-15T14:18:36Z</time>
      </trkpt>
      <trkpt lat="43.47161" lon="6.91584">
        <ele>138</ele>
        <time>2015-10-15T14:18:47Z</time>
      </trkpt>
      <trkpt lat="43.47165" lon="6.91587">
        <ele>138</ele>
        <time>2015-10-15T14:18:51Z</time>
      </trkpt>
      <trkpt lat="43.47164" lon="6.91588">
        <ele>139</ele>
        <time>2015-10-15T14:18:52Z</time>
      </trkpt>
      <trkpt lat="43.47168" lon="6.91598">
        <ele>136</ele>
        <time>2015-10-15T14:19:01Z</time>
      </trkpt>
      <trkpt lat="43.47171" lon="6.91605">
        <ele>137</ele>
        <time>2015-10-15T14:19:05Z</time>
      </trkpt>
      <trkpt lat="43.47173" lon="6.9161">
        <ele>136</ele>
        <time>2015-10-15T14:19:10Z</time>
      </trkpt>
      <trkpt lat="43.47176" lon="6.91614">
        <ele>134</ele>
        <time>2015-10-15T14:19:15Z</time>
      </trkpt>
      <trkpt lat="43.47177" lon="6.91618">
        <ele>134</ele>
        <time>2015-10-15T14:19:17Z</time>
      </trkpt>
      <trkpt lat="43.47179" lon="6.91624">
        <ele>135</ele>
        <time>2015-10-15T14:19:23Z</time>
      </trkpt>
      <trkpt lat="43.47181" lon="6.91623">
        <ele>135</ele>
        <time>2015-10-15T14:19:24Z</time>
      </trkpt>
      <trkpt lat="43.47195" lon="6.91652">
        <ele>130</ele>
        <time>2015-10-15T14:19:55Z</time>
      </trkpt>
      <trkpt lat="43.47196" lon="6.91655">
        <ele>130</ele>
        <time>2015-10-15T14:19:56Z</time>
      </trkpt>
      <trkpt lat="43.47199" lon="6.91656">
        <ele>129</ele>
        <time>2015-10-15T14:19:59Z</time>
      </trkpt>
      <trkpt lat="43.47198" lon="6.9166">
        <ele>129</ele>
        <time>2015-10-15T14:20:01Z</time>
      </trkpt>
      <trkpt lat="43.47198" lon="6.91669">
        <ele>129</ele>
        <time>2015-10-15T14:20:06Z</time>
      </trkpt>
      <trkpt lat="43.472" lon="6.91671">
        <ele>128</ele>
        <time>2015-10-15T14:20:08Z</time>
      </trkpt>
      <trkpt lat="43.47205" lon="6.91707">
        <ele>123</ele>
        <time>2015-10-15T14:20:32Z</time>
      </trkpt>
      <trkpt lat="43.47212" lon="6.91727">
        <ele>122</ele>
        <time>2015-10-15T14:20:47Z</time>
      </trkpt>
      <trkpt lat="43.47216" lon="6.91737">
        <ele>120</ele>
        <time>2015-10-15T14:21:03Z</time>
      </trkpt>
      <trkpt lat="43.47217" lon="6.91737">
        <ele>120</ele>
        <time>2015-10-15T14:21:05Z</time>
      </trkpt>
      <trkpt lat="43.47221" lon="6.91739">
        <ele>119</ele>
        <time>2015-10-15T14:21:09Z</time>
      </trkpt>
      <trkpt lat="43.47226" lon="6.91749">
        <ele>117</ele>
        <time>2015-10-15T14:21:16Z</time>
      </trkpt>
      <trkpt lat="43.47229" lon="6.91751">
        <ele>117</ele>
        <time>2015-10-15T14:21:19Z</time>
      </trkpt>
      <trkpt lat="43.47237" lon="6.91761">
        <ele>116</ele>
        <time>2015-10-15T14:21:31Z</time>
      </trkpt>
      <trkpt lat="43.47246" lon="6.91793">
        <ele>110</ele>
        <time>2015-10-15T14:21:57Z</time>
      </trkpt>
      <trkpt lat="43.47244" lon="6.91796">
        <ele>110</ele>
        <time>2015-10-15T14:21:59Z</time>
      </trkpt>
      <trkpt lat="43.47244" lon="6.91799">
        <ele>109</ele>
        <time>2015-10-15T14:22:01Z</time>
      </trkpt>
      <trkpt lat="43.47245" lon="6.91801">
        <ele>109</ele>
        <time>2015-10-15T14:22:02Z</time>
      </trkpt>
      <trkpt lat="43.47244" lon="6.91805">
        <ele>109</ele>
        <time>2015-10-15T14:22:04Z</time>
      </trkpt>
      <trkpt lat="43.47245" lon="6.91808">
        <ele>109</ele>
        <time>2015-10-15T14:22:07Z</time>
      </trkpt>
      <trkpt lat="43.47245" lon="6.91811">
        <ele>108</ele>
        <time>2015-10-15T14:22:09Z</time>
      </trkpt>
      <trkpt lat="43.47246" lon="6.9183">
        <ele>103</ele>
        <time>2015-10-15T14:22:22Z</time>
      </trkpt>
      <trkpt lat="43.47244" lon="6.91833">
        <ele>102</ele>
        <time>2015-10-15T14:22:25Z</time>
      </trkpt>
      <trkpt lat="43.47243" lon="6.91841">
        <ele>101</ele>
        <time>2015-10-15T14:22:29Z</time>
      </trkpt>
      <trkpt lat="43.47242" lon="6.91844">
        <ele>101</ele>
        <time>2015-10-15T14:22:31Z</time>
      </trkpt>
      <trkpt lat="43.47244" lon="6.91845">
        <ele>101</ele>
        <time>2015-10-15T14:22:33Z</time>
      </trkpt>
      <trkpt lat="43.47239" lon="6.91863">
        <ele>102</ele>
        <time>2015-10-15T14:22:42Z</time>
      </trkpt>
      <trkpt lat="43.47238" lon="6.91865">
        <ele>101</ele>
        <time>2015-10-15T14:22:44Z</time>
      </trkpt>
      <trkpt lat="43.47239" lon="6.91867">
        <ele>101</ele>
        <time>2015-10-15T14:22:46Z</time>
      </trkpt>
      <trkpt lat="43.47241" lon="6.91887">
        <ele>98</ele>
        <time>2015-10-15T14:23:00Z</time>
      </trkpt>
      <trkpt lat="43.47241" lon="6.91891">
        <ele>98</ele>
        <time>2015-10-15T14:23:02Z</time>
      </trkpt>
      <trkpt lat="43.47243" lon="6.91893">
        <ele>97</ele>
        <time>2015-10-15T14:23:05Z</time>
      </trkpt>
      <trkpt lat="43.47245" lon="6.91899">
        <ele>95</ele>
        <time>2015-10-15T14:23:11Z</time>
      </trkpt>
      <trkpt lat="43.47246" lon="6.919">
        <ele>94</ele>
        <time>2015-10-15T14:23:14Z</time>
      </trkpt>
      <trkpt lat="43.47247" lon="6.91903">
        <ele>94</ele>
        <time>2015-10-15T14:23:18Z</time>
      </trkpt>
      <trkpt lat="43.47248" lon="6.91904">
        <ele>95</ele>
        <time>2015-10-15T14:23:30Z</time>
      </trkpt>
      <trkpt lat="43.47249" lon="6.91906">
        <ele>95</ele>
        <time>2015-10-15T14:23:44Z</time>
      </trkpt>
      <trkpt lat="43.4725" lon="6.91909">
        <ele>95</ele>
        <time>2015-10-15T14:23:47Z</time>
      </trkpt>
      <trkpt lat="43.4725" lon="6.91915">
        <ele>95</ele>
        <time>2015-10-15T14:23:50Z</time>
      </trkpt>
      <trkpt lat="43.47252" lon="6.91919">
        <ele>94</ele>
        <time>2015-10-15T14:23:54Z</time>
      </trkpt>
      <trkpt lat="43.47257" lon="6.91932">
        <ele>93</ele>
        <time>2015-10-15T14:24:05Z</time>
      </trkpt>
      <trkpt lat="43.47258" lon="6.91937">
        <ele>93</ele>
        <time>2015-10-15T14:24:08Z</time>
      </trkpt>
      <trkpt lat="43.4726" lon="6.91938">
        <ele>93</ele>
        <time>2015-10-15T14:24:10Z</time>
      </trkpt>
      <trkpt lat="43.47262" lon="6.91946">
        <ele>93</ele>
        <time>2015-10-15T14:24:17Z</time>
      </trkpt>
      <trkpt lat="43.47265" lon="6.91949">
        <ele>92</ele>
        <time>2015-10-15T14:24:21Z</time>
      </trkpt>
      <trkpt lat="43.47268" lon="6.91954">
        <ele>93</ele>
        <time>2015-10-15T14:24:25Z</time>
      </trkpt>
      <trkpt lat="43.47277" lon="6.9196">
        <ele>90</ele>
        <time>2015-10-15T14:24:33Z</time>
      </trkpt>
      <trkpt lat="43.4728" lon="6.91959">
        <ele>89</ele>
        <time>2015-10-15T14:24:35Z</time>
      </trkpt>
      <trkpt lat="43.47283" lon="6.91962">
        <ele>88</ele>
        <time>2015-10-15T14:24:39Z</time>
      </trkpt>
      <trkpt lat="43.47293" lon="6.91967">
        <ele>87</ele>
        <time>2015-10-15T14:24:50Z</time>
      </trkpt>
      <trkpt lat="43.47293" lon="6.91969">
        <ele>87</ele>
        <time>2015-10-15T14:24:52Z</time>
      </trkpt>
      <trkpt lat="43.47295" lon="6.91968">
        <ele>85</ele>
        <time>2015-10-15T14:25:00Z</time>
      </trkpt>
      <trkpt lat="43.47297" lon="6.91969">
        <ele>83</ele>
        <time>2015-10-15T14:25:07Z</time>
      </trkpt>
      <trkpt lat="43.47298" lon="6.91978">
        <ele>81</ele>
        <time>2015-10-15T14:25:14Z</time>
      </trkpt>
      <trkpt lat="43.47298" lon="6.9198">
        <ele>80</ele>
        <time>2015-10-15T14:25:16Z</time>
      </trkpt>
      <trkpt lat="43.47298" lon="6.91982">
        <ele>80</ele>
        <time>2015-10-15T14:25:18Z</time>
      </trkpt>
      <trkpt lat="43.47296" lon="6.91983">
        <ele>79</ele>
        <time>2015-10-15T14:25:21Z</time>
      </trkpt>
      <trkpt lat="43.47292" lon="6.91997">
        <ele>77</ele>
        <time>2015-10-15T14:25:34Z</time>
      </trkpt>
      <trkpt lat="43.47291" lon="6.92001">
        <ele>76</ele>
        <time>2015-10-15T14:25:37Z</time>
      </trkpt>
      <trkpt lat="43.47291" lon="6.92002">
        <ele>76</ele>
        <time>2015-10-15T14:25:39Z</time>
      </trkpt>
      <trkpt lat="43.4729" lon="6.92004">
        <ele>75</ele>
        <time>2015-10-15T14:25:40Z</time>
      </trkpt>
      <trkpt lat="43.47289" lon="6.92006">
        <ele>75</ele>
        <time>2015-10-15T14:25:42Z</time>
      </trkpt>
      <trkpt lat="43.47286" lon="6.92017">
        <ele>73</ele>
        <time>2015-10-15T14:25:50Z</time>
      </trkpt>
      <trkpt lat="43.47285" lon="6.92018">
        <ele>72</ele>
        <time>2015-10-15T14:25:53Z</time>
      </trkpt>
      <trkpt lat="43.47284" lon="6.92021">
        <ele>71</ele>
        <time>2015-10-15T14:25:55Z</time>
      </trkpt>
      <trkpt lat="43.47284" lon="6.92024">
        <ele>71</ele>
        <time>2015-10-15T14:25:58Z</time>
      </trkpt>
      <trkpt lat="43.47283" lon="6.92027">
        <ele>70</ele>
        <time>2015-10-15T14:25:59Z</time>
      </trkpt>
      <trkpt lat="43.47284" lon="6.9203">
        <ele>70</ele>
        <time>2015-10-15T14:26:01Z</time>
      </trkpt>
      <trkpt lat="43.47282" lon="6.92034">
        <ele>71</ele>
        <time>2015-10-15T14:26:06Z</time>
      </trkpt>
      <trkpt lat="43.47281" lon="6.92036">
        <ele>70</ele>
        <time>2015-10-15T14:26:09Z</time>
      </trkpt>
      <trkpt lat="43.4728" lon="6.92044">
        <ele>69</ele>
        <time>2015-10-15T14:26:15Z</time>
      </trkpt>
      <trkpt lat="43.47278" lon="6.92049">
        <ele>68</ele>
        <time>2015-10-15T14:26:20Z</time>
      </trkpt>
      <trkpt lat="43.47279" lon="6.92053">
        <ele>67</ele>
        <time>2015-10-15T14:26:24Z</time>
      </trkpt>
      <trkpt lat="43.47278" lon="6.92055">
        <ele>66</ele>
        <time>2015-10-15T14:26:26Z</time>
      </trkpt>
      <trkpt lat="43.47275" lon="6.92085">
        <ele>61</ele>
        <time>2015-10-15T14:26:56Z</time>
      </trkpt>
      <trkpt lat="43.47274" lon="6.92088">
        <ele>60</ele>
        <time>2015-10-15T14:26:58Z</time>
      </trkpt>
      <trkpt lat="43.47275" lon="6.92093">
        <ele>59</ele>
        <time>2015-10-15T14:27:02Z</time>
      </trkpt>
      <trkpt lat="43.47272" lon="6.92107">
        <ele>60</ele>
        <time>2015-10-15T14:27:11Z</time>
      </trkpt>
      <trkpt lat="43.47276" lon="6.92139">
        <ele>58</ele>
        <time>2015-10-15T14:27:41Z</time>
      </trkpt>
      <trkpt lat="43.47277" lon="6.92143">
        <ele>57</ele>
        <time>2015-10-15T14:27:43Z</time>
      </trkpt>
      <trkpt lat="43.47278" lon="6.92144">
        <ele>57</ele>
        <time>2015-10-15T14:27:45Z</time>
      </trkpt>
      <trkpt lat="43.47278" lon="6.92148">
        <ele>57</ele>
        <time>2015-10-15T14:27:47Z</time>
      </trkpt>
      <trkpt lat="43.47282" lon="6.92156">
        <ele>56</ele>
        <time>2015-10-15T14:27:53Z</time>
      </trkpt>
      <trkpt lat="43.47284" lon="6.92157">
        <ele>56</ele>
        <time>2015-10-15T14:27:55Z</time>
      </trkpt>
      <trkpt lat="43.47295" lon="6.92173">
        <ele>54</ele>
        <time>2015-10-15T14:28:11Z</time>
      </trkpt>
      <trkpt lat="43.47301" lon="6.92172">
        <ele>54</ele>
        <time>2015-10-15T14:28:17Z</time>
      </trkpt>
      <trkpt lat="43.473" lon="6.92169">
        <ele>55</ele>
        <time>2015-10-15T14:28:46Z</time>
      </trkpt>
      <trkpt lat="43.47299" lon="6.92169">
        <ele>55</ele>
        <time>2015-10-15T14:28:47Z</time>
      </trkpt>
      <trkpt lat="43.47298" lon="6.92171">
        <ele>55</ele>
        <time>2015-10-15T14:28:49Z</time>
      </trkpt>
      <trkpt lat="43.47299" lon="6.92175">
        <ele>55</ele>
        <time>2015-10-15T14:28:53Z</time>
      </trkpt>
      <trkpt lat="43.47306" lon="6.92182">
        <ele>54</ele>
        <time>2015-10-15T14:29:10Z</time>
      </trkpt>
      <trkpt lat="43.47341" lon="6.92192">
        <ele>52</ele>
        <time>2015-10-15T14:29:41Z</time>
      </trkpt>
      <trkpt lat="43.47353" lon="6.92194">
        <ele>51</ele>
        <time>2015-10-15T14:29:51Z</time>
      </trkpt>
      <trkpt lat="43.47378" lon="6.92182">
        <ele>48</ele>
        <time>2015-10-15T14:30:14Z</time>
      </trkpt>
      <trkpt lat="43.47381" lon="6.92186">
        <ele>48</ele>
        <time>2015-10-15T14:30:18Z</time>
      </trkpt>
      <trkpt lat="43.47383" lon="6.92186">
        <ele>48</ele>
        <time>2015-10-15T14:30:19Z</time>
      </trkpt>
      <trkpt lat="43.47389" lon="6.92191">
        <ele>47</ele>
        <time>2015-10-15T14:30:25Z</time>
      </trkpt>
      <trkpt lat="43.474" lon="6.92194">
        <ele>43</ele>
        <time>2015-10-15T14:30:35Z</time>
      </trkpt>
      <trkpt lat="43.47404" lon="6.92207">
        <ele>43</ele>
        <time>2015-10-15T14:30:43Z</time>
      </trkpt>
      <trkpt lat="43.47404" lon="6.92211">
        <ele>42</ele>
        <time>2015-10-15T14:30:45Z</time>
      </trkpt>
      <trkpt lat="43.47403" lon="6.92215">
        <ele>42</ele>
        <time>2015-10-15T14:30:48Z</time>
      </trkpt>
      <trkpt lat="43.47405" lon="6.92258">
        <ele>33</ele>
        <time>2015-10-15T14:31:14Z</time>
      </trkpt>
      <trkpt lat="43.47412" lon="6.92272">
        <ele>32</ele>
        <time>2015-10-15T14:31:25Z</time>
      </trkpt>
      <trkpt lat="43.47417" lon="6.92279">
        <ele>33</ele>
        <time>2015-10-15T14:31:32Z</time>
      </trkpt>
      <trkpt lat="43.47417" lon="6.92282">
        <ele>33</ele>
        <time>2015-10-15T14:31:33Z</time>
      </trkpt>
      <trkpt lat="43.47424" lon="6.92293">
        <ele>33</ele>
        <time>2015-10-15T14:31:42Z</time>
      </trkpt>
      <trkpt lat="43.47425" lon="6.92299">
        <ele>32</ele>
        <time>2015-10-15T14:31:46Z</time>
      </trkpt>
      <trkpt lat="43.47425" lon="6.92306">
        <ele>32</ele>
        <time>2015-10-15T14:31:51Z</time>
      </trkpt>
      <trkpt lat="43.47427" lon="6.9231">
        <ele>30</ele>
        <time>2015-10-15T14:31:54Z</time>
      </trkpt>
      <trkpt lat="43.47429" lon="6.92316">
        <ele>29</ele>
        <time>2015-10-15T14:31:58Z</time>
      </trkpt>
      <trkpt lat="43.47429" lon="6.92318">
        <ele>29</ele>
        <time>2015-10-15T14:31:59Z</time>
      </trkpt>
      <trkpt lat="43.47445" lon="6.92365">
        <ele>29</ele>
        <time>2015-10-15T14:32:29Z</time>
      </trkpt>
      <trkpt lat="43.47467" lon="6.92407">
        <ele>26</ele>
        <time>2015-10-15T14:32:59Z</time>
      </trkpt>
      <trkpt lat="43.47485" lon="6.9245">
        <ele>28</ele>
        <time>2015-10-15T14:33:29Z</time>
      </trkpt>
      <trkpt lat="43.47488" lon="6.92457">
        <ele>29</ele>
        <time>2015-10-15T14:33:35Z</time>
      </trkpt>
      <trkpt lat="43.47485" lon="6.92463">
        <ele>30</ele>
        <time>2015-10-15T14:33:39Z</time>
      </trkpt>
      <trkpt lat="43.47483" lon="6.92464">
        <ele>30</ele>
        <time>2015-10-15T14:33:41Z</time>
      </trkpt>
      <trkpt lat="43.47481" lon="6.92464">
        <ele>31</ele>
        <time>2015-10-15T14:33:43Z</time>
      </trkpt>
      <trkpt lat="43.47477" lon="6.92463">
        <ele>30</ele>
        <time>2015-10-15T14:33:47Z</time>
      </trkpt>
      <trkpt lat="43.47475" lon="6.92463">
        <ele>30</ele>
        <time>2015-10-15T14:33:48Z</time>
      </trkpt>
      <trkpt lat="43.47474" lon="6.92461">
        <ele>30</ele>
        <time>2015-10-15T14:33:49Z</time>
      </trkpt>
      <trkpt lat="43.47472" lon="6.92462">
        <ele>29</ele>
        <time>2015-10-15T14:33:51Z</time>
      </trkpt>
      <trkpt lat="43.47469" lon="6.92465">
        <ele>31</ele>
        <time>2015-10-15T14:33:58Z</time>
      </trkpt>
    </trkseg>
  </trk>
</gpx>